Provisional Data: Pine Creek near Telescope, PA


Please select a monitoring station.
Please select start date.
Please select start date.

Toggle Unit: C/F Toggle Unit: C/F
Sample Time Temperature (C) Temperature (F) Specific Conductivity (mS/cm) pH   Turbidity (NTU+) DO (mg/L)
5/4/2021 12:00:00 AM 9.63 49.334 0.056 6.89 4.31 10.43
5/4/2021 12:15:00 AM 9.62 49.316 0.056 6.89 4.34 10.43
5/4/2021 12:30:00 AM 9.61 49.298 0.056 6.89 4.38 10.43
5/4/2021 12:45:00 AM 9.59 49.262 0.056 6.89 4.35 10.43
5/4/2021 1:00:00 AM 9.58 49.244 0.056 6.88 4.31 10.43
5/4/2021 1:15:00 AM 9.57 49.226 0.056 6.88 4.44 10.43
5/4/2021 1:30:00 AM 9.56 49.208 0.056 6.88 4.3 10.44
5/4/2021 1:45:00 AM 9.55 49.19 0.056 6.87 4.43 10.44
5/4/2021 2:00:00 AM 9.54 49.172 0.056 6.87 4.78 10.44
5/4/2021 2:15:00 AM 9.53 49.154 0.056 6.87 4.39 10.44
5/4/2021 2:30:00 AM 9.52 49.136 0.056 6.87 4.62 10.45
5/4/2021 2:45:00 AM 9.51 49.118 0.056 6.87 4.96 10.44
5/4/2021 3:00:00 AM 9.5 49.1 0.056 6.87 4.26 10.45
5/4/2021 3:15:00 AM 9.5 49.1 0.056 6.87 4.68 10.45
5/4/2021 3:30:00 AM 9.49 49.082 0.056 6.86 4.25 10.45
5/4/2021 3:45:00 AM 9.48 49.064 0.056 6.87 4.42 10.45
5/4/2021 4:00:00 AM 9.47 49.046 0.056 6.85 4.44 10.46
5/4/2021 4:15:00 AM 9.47 49.046 0.056 6.86 4.29 10.45
5/4/2021 4:30:00 AM 9.46 49.028 0.057 6.86 4.33 10.45
5/4/2021 4:45:00 AM 9.46 49.028 0.056 6.86 4.49 10.45
5/4/2021 5:00:00 AM 9.45 49.01 0.056 6.86 4.44 10.46
5/4/2021 5:15:00 AM 9.44 48.992 0.057 6.85 4.41 10.46
5/4/2021 5:30:00 AM 9.43 48.974 0.057 6.85 4.2 10.46
5/4/2021 5:45:00 AM 9.43 48.974 0.057 6.85 4.31 10.46
5/4/2021 6:00:00 AM 9.42 48.956 0.057 6.85 4.6 10.46
5/4/2021 6:15:00 AM 9.41 48.938 0.057 6.86 4.3 10.47
5/4/2021 6:30:00 AM 9.41 48.938 0.057 6.85 4.45 10.48
5/4/2021 6:45:00 AM 9.41 48.938 0.057 6.85 4.35 10.48
5/4/2021 7:00:00 AM 9.41 48.938 0.057 6.86 4.37 10.49
5/4/2021 7:15:00 AM 9.41 48.938 0.057 6.86 4.2 10.5
5/4/2021 7:30:00 AM 9.42 48.956 0.057 6.86 4.05 10.52
5/4/2021 7:45:00 AM 9.44 48.992 0.057 6.87 4.17 10.55
5/4/2021 8:00:00 AM 9.47 49.046 0.057 6.89 4.04 10.58
5/4/2021 8:15:00 AM 9.54 49.172 0.057 6.91 4.12 10.62
5/4/2021 8:30:00 AM 9.55 49.19 0.057 6.94 3.99 10.6
5/4/2021 8:45:00 AM 9.57 49.226 0.056 6.95 3.96 10.62
5/4/2021 9:00:00 AM 9.63 49.334 0.057 6.98 4.08 10.64
5/4/2021 9:15:00 AM 9.67 49.406 0.056 6.99 3.98 10.65
5/4/2021 9:30:00 AM 9.72 49.496 0.056 7.01 3.81 10.65
5/4/2021 9:45:00 AM 9.78 49.604 0.056 7.02 4.16 10.64
5/4/2021 10:00:00 AM 9.95 49.91 0.056 7.04 3.78 10.65
5/4/2021 10:15:00 AM 10.08 50.144 0.056 7.05 4 10.64
5/4/2021 10:30:00 AM 10.16 50.288 0.056 7.06 3.92 10.62
5/4/2021 10:45:00 AM 10.39 50.702 0.056 7.06 4.09 10.6
5/4/2021 11:00:00 AM 10.51 50.918 0.056 7.07 3.81 10.55
5/4/2021 11:15:00 AM 10.62 51.116 0.056 7.08 4.05 10.53
5/4/2021 11:30:00 AM 10.84 51.512 0.056 7.08 3.86 10.5
5/4/2021 11:45:00 AM 10.95 51.71 0.056 7.09 3.89 10.47
5/4/2021 12:00:00 PM 11.09 51.962 0.056 7.09 3.91 10.43
5/4/2021 12:15:00 PM 11.34 52.412 0.056 7.09 4.04 10.4
5/4/2021 12:30:00 PM 11.63 52.934 0.056 7.09 3.85 10.34
5/4/2021 12:45:00 PM 11.89 53.402 0.056 7.1 4.24 10.3
5/4/2021 1:00:00 PM 12.04 53.672 0.056 7.09 4.22 10.26
5/4/2021 1:15:00 PM 12.12 53.816 0.056 7.08 4.22 10.21
5/4/2021 1:30:00 PM 12.11 53.798 0.056 7.1 3.95 10.16
5/4/2021 1:45:00 PM 12.15 53.87 0.056 7.09 4.22 10.13
5/4/2021 2:00:00 PM 12.23 54.014 0.056 7.09 4.31 10.11
5/4/2021 2:15:00 PM 12.35 54.23 0.056 7.1 4.19 10.1
5/4/2021 2:30:00 PM 12.42 54.356 0.056 7.11 4.31 10.09
5/4/2021 2:45:00 PM 12.52 54.536 0.056 7.11 4.59 10.09
5/4/2021 3:00:00 PM 12.56 54.608 0.056 7.11 4.2 10.03
5/4/2021 3:15:00 PM 12.55 54.59 0.056 7.1 3.99 10
5/4/2021 3:30:00 PM 12.5 54.5 0.056 7.09 4.4 10
5/4/2021 3:45:00 PM 12.48 54.464 0.056 7.09 4.25 9.97
5/4/2021 4:00:00 PM 12.52 54.536 0.056 7.08 4.14 9.99
5/4/2021 4:15:00 PM 12.59 54.662 0.056 7.09 4.28 9.99
5/4/2021 4:30:00 PM 12.62 54.716 0.056 7.09 4.17 9.98
5/4/2021 4:45:00 PM 12.53 54.554 0.056 7.08 4.18 9.97
5/4/2021 5:00:00 PM 12.44 54.392 0.056 7.07 4.34 9.96
5/4/2021 5:15:00 PM 12.37 54.266 0.056 7.06 4.35 9.94
5/4/2021 5:30:00 PM 12.32 54.176 0.056 7.05 4.27 9.95
5/4/2021 5:45:00 PM 12.29 54.122 0.056 7.06 4.37 9.97
5/4/2021 6:00:00 PM 12.25 54.05 0.056 7.06 4.4 9.97
5/4/2021 6:15:00 PM 12.17 53.906 0.056 7.06 4.23 9.98
5/4/2021 6:30:00 PM 12.11 53.798 0.057 7.05 4.08 9.98
5/4/2021 6:45:00 PM 12.03 53.654 0.056 7.04 4.18 9.96
5/4/2021 7:00:00 PM 11.97 53.546 0.056 7.04 4.26 9.95
5/4/2021 7:15:00 PM 11.89 53.402 0.057 7.02 4.21 9.94
5/4/2021 7:30:00 PM 11.83 53.294 0.057 7.01 4.34 9.93
5/4/2021 7:45:00 PM 11.78 53.204 0.057 7 4.53 9.92
5/4/2021 8:00:00 PM 11.72 53.096 0.057 6.99 4.35 9.91
5/4/2021 8:15:00 PM 11.66 52.988 0.057 6.98 4.3 9.92
5/4/2021 8:30:00 PM 11.58 52.844 0.057 6.97 4.56 9.92
5/4/2021 8:45:00 PM 11.52 52.736 0.057 6.96 4.44 9.93
5/4/2021 9:00:00 PM 11.46 52.628 0.057 6.96 4.45 9.95
5/4/2021 9:15:00 PM 11.39 52.502 0.057 6.95 4.56 9.96
5/4/2021 9:30:00 PM 11.33 52.394 0.057 6.94 4.84 9.98
5/4/2021 9:45:00 PM 11.26 52.268 0.058 6.95 4.56 9.99
5/4/2021 10:00:00 PM 11.18 52.124 0.058 6.95 4.32 10.01
5/4/2021 10:15:00 PM 11.12 52.016 0.058 6.94 4.83 10.03
5/4/2021 10:30:00 PM 11.07 51.926 0.058 6.93 4.66 10.04
5/4/2021 10:45:00 PM 11.03 51.854 0.058 6.93 4.61 10.05
5/4/2021 11:00:00 PM 11 51.8 0.058 6.94 4.51 10.06
5/4/2021 11:15:00 PM 10.95 51.71 0.058 6.96 4.44 10.07
5/4/2021 11:30:00 PM 10.9 51.62 0.058 6.95 4.63 10.09
5/4/2021 11:45:00 PM 10.85 51.53 0.058 6.97 4.48 10.1
5/5/2021 12:00:00 AM 10.81 51.458 0.058 6.98 4.42 10.11
5/5/2021 12:15:00 AM 10.78 51.404 0.058 6.98 4.69 10.12
5/5/2021 12:30:00 AM 10.73 51.314 0.058 6.98 4.47 10.13
5/5/2021 12:45:00 AM 10.68 51.224 0.058 6.97 4.49 10.14
5/5/2021 1:00:00 AM 10.64 51.152 0.058 6.96 4.65 10.15
5/5/2021 1:15:00 AM 10.59 51.062 0.058 6.96 4.59 10.16
5/5/2021 1:30:00 AM 10.55 50.99 0.058 6.95 4.63 10.17
5/5/2021 1:45:00 AM 10.51 50.918 0.058 6.96 4.59 10.18
5/5/2021 2:00:00 AM 10.46 50.828 0.058 6.95 4.82 10.19
5/5/2021 2:15:00 AM 10.42 50.756 0.058 6.94 4.43 10.21
5/5/2021 2:30:00 AM 10.38 50.684 0.058 6.94 4.8 10.22
5/5/2021 2:45:00 AM 10.34 50.612 0.058 6.94 4.32 10.23
5/5/2021 3:00:00 AM 10.3 50.54 0.058 6.93 4.24 10.23
5/5/2021 3:15:00 AM 10.27 50.486 0.058 6.93 4.54 10.24
5/5/2021 3:30:00 AM 10.24 50.432 0.058 6.93 4.5 10.25
5/5/2021 3:45:00 AM 10.21 50.378 0.058 6.93 4.24 10.26
5/5/2021 4:00:00 AM 10.19 50.342 0.058 6.93 4.31 10.27
5/5/2021 4:15:00 AM 10.17 50.306 0.058 6.94 4.48 10.27
5/5/2021 4:30:00 AM 10.14 50.252 0.058 6.93 4.36 10.27
5/5/2021 4:45:00 AM 10.12 50.216 0.058 6.94 4.31 10.28
5/5/2021 5:00:00 AM 10.1 50.18 0.058 6.93 4.47 10.29
5/5/2021 5:15:00 AM 10.08 50.144 0.058 6.94 4.18 10.29
5/5/2021 5:30:00 AM 10.06 50.108 0.058 6.93 4.37 10.3
5/5/2021 5:45:00 AM 10.05 50.09 0.059 6.94 4.16 10.3
5/5/2021 6:00:00 AM 10.04 50.072 0.059 6.96 4.42 10.31
5/5/2021 6:15:00 AM 10.02 50.036 0.059 6.98 4.35 10.31
5/5/2021 6:30:00 AM 10.01 50.018 0.059 7 4.56 10.33
5/5/2021 6:45:00 AM 10 50 0.059 7.01 4.5 10.34
5/5/2021 7:00:00 AM 9.99 49.982 0.058 7.01 4.47 10.37
5/5/2021 7:15:00 AM 9.98 49.964 0.058 7.02 4.53 10.4
5/5/2021 7:30:00 AM 9.98 49.964 0.058 7.04 4.24 10.43
5/5/2021 7:45:00 AM 9.98 49.964 0.058 7.06 3.95 10.44
5/5/2021 8:00:00 AM 9.97 49.946 0.058 7.05 4.13 10.44
5/5/2021 8:15:00 AM 9.97 49.946 0.058 7.06 4.24 10.46
5/5/2021 8:30:00 AM 9.96 49.928 0.058 7.07 4.3 10.46
5/5/2021 8:45:00 AM 9.96 49.928 0.058 7.08 4.35 10.46
5/5/2021 9:00:00 AM 9.95 49.91 0.059 7.08 4.02 10.46
5/5/2021 9:15:00 AM 9.95 49.91 0.058 7.08 3.96 10.45
5/5/2021 9:30:00 AM 9.95 49.91 0.058 7.09 4.15 10.47
5/5/2021 9:45:00 AM 9.97 49.946 0.058 7.11 3.79 10.51
5/5/2021 10:00:00 AM 9.98 49.964 0.058 7.1 4.02 10.52
5/5/2021 10:15:00 AM 9.98 49.964 0.058 7.12 3.89 10.53
5/5/2021 10:30:00 AM 9.98 49.964 0.058 7.11 4.24 10.52
5/5/2021 10:45:00 AM 9.97 49.946 0.058 7.12 3.73 10.53
5/5/2021 11:00:00 AM 9.96 49.928 0.058 7.12 3.75 10.54
5/5/2021 11:15:00 AM 9.95 49.91 0.058 7.13 4.01 10.54
5/5/2021 11:30:00 AM 9.93 49.874 0.058 7.13 3.92 10.55
5/5/2021 11:45:00 AM 9.94 49.892 0.058 7.14 3.84 10.57
5/5/2021 12:00:00 PM 9.94 49.892 0.058 7.15 3.7 10.59
5/5/2021 12:15:00 PM 9.95 49.91 0.058 7.16 3.77 10.61
5/5/2021 12:30:00 PM 9.97 49.946 0.058 7.16 4.19 10.63
5/5/2021 12:45:00 PM 9.97 49.946 0.058 7.17 4.15 10.63
5/5/2021 1:00:00 PM 9.96 49.928 0.058 7.17 3.71 10.64
5/5/2021 1:15:00 PM 9.96 49.928 0.058 7.18 3.84 10.64
5/5/2021 1:30:00 PM 9.97 49.946 0.058 7.18 3.89 10.65
5/5/2021 1:45:00 PM 10.01 50.018 0.058 7.19 3.91 10.66
5/5/2021 2:00:00 PM 10.05 50.09 0.058 7.2 3.99 10.66
5/5/2021 2:15:00 PM 10.07 50.126 0.058 7.2 3.88 10.65
5/5/2021 2:30:00 PM 10.07 50.126 0.058 7.21 3.99 10.65
5/5/2021 2:45:00 PM 10.08 50.144 0.058 7.21 3.88 10.65
5/5/2021 3:00:00 PM 10.05 50.09 0.058 7.2 4.16 10.62
5/5/2021 3:15:00 PM 10 50 0.058 7.19 4.16 10.6
5/5/2021 3:30:00 PM 9.97 49.946 0.058 7.19 4.12 10.6
5/5/2021 3:45:00 PM 9.98 49.964 0.058 7.19 4.3 10.62
5/5/2021 4:00:00 PM 10.03 50.054 0.058 7.19 3.94 10.64
5/5/2021 4:15:00 PM 10.06 50.108 0.058 7.2 4.04 10.64
5/5/2021 4:30:00 PM 10.04 50.072 0.058 7.19 3.79 10.64
5/5/2021 4:45:00 PM 10.03 50.054 0.058 7.2 3.77 10.64
5/5/2021 5:00:00 PM 10 50 0.058 7.19 3.67 10.62
5/5/2021 5:15:00 PM 9.98 49.964 0.058 7.19 3.99 10.62
5/5/2021 5:30:00 PM 9.96 49.928 0.058 7.18 4.28 10.62
5/5/2021 5:45:00 PM 9.92 49.856 0.058 7.18 3.84 10.6
5/5/2021 6:00:00 PM 9.86 49.748 0.058 7.16 3.97 10.58
5/5/2021 6:15:00 PM 9.8 49.64 0.058 7.15 3.89 10.58
5/5/2021 6:30:00 PM 9.75 49.55 0.058 7.14 4.08 10.59
5/5/2021 6:45:00 PM 9.69 49.442 0.058 7.14 3.96 10.61
5/5/2021 7:00:00 PM 9.64 49.352 0.059 7.14 3.99 10.62
5/5/2021 7:15:00 PM 9.57 49.226 0.058 7.13 4.04 10.62
5/5/2021 7:30:00 PM 9.51 49.118 0.059 7.12 4.16 10.6
5/5/2021 7:45:00 PM 9.44 48.992 0.059 7.11 4.03 10.6
5/5/2021 8:00:00 PM 9.37 48.866 0.059 7.1 4.04 10.59
5/5/2021 8:15:00 PM 9.3 48.74 0.059 7.1 4.09 10.6
5/5/2021 8:30:00 PM 9.24 48.632 0.059 7.09 4.11 10.6
5/5/2021 8:45:00 PM 9.19 48.542 0.059 7.1 4.32 10.6
5/5/2021 9:00:00 PM 9.13 48.434 0.059 7.09 4.28 10.63
5/5/2021 9:15:00 PM 9.08 48.344 0.059 7.09 4.05 10.64
5/5/2021 9:30:00 PM 9.03 48.254 0.059 7.08 4.07 10.64
5/5/2021 9:45:00 PM 8.98 48.164 0.059 7.09 4.19 10.66
5/5/2021 10:00:00 PM 8.93 48.074 0.059 7.08 4.23 10.68
5/5/2021 10:15:00 PM 8.88 47.984 0.059 7.08 4.09 10.69
5/5/2021 10:30:00 PM 8.83 47.894 0.059 7.09 4.33 10.7
5/5/2021 10:45:00 PM 8.78 47.804 0.059 7.08 4.13 10.72
5/5/2021 11:00:00 PM 8.73 47.714 0.059 7.08 4.51 10.73
5/5/2021 11:15:00 PM 8.69 47.642 0.06 7.09 4.11 10.74
5/5/2021 11:30:00 PM 8.65 47.57 0.06 7.09 4.33 10.75
5/5/2021 11:45:00 PM 8.61 47.498 0.06 7.09 4.07 10.77
5/6/2021 12:00:00 AM 8.57 47.426 0.059 7.08 4.3 10.78
5/6/2021 12:15:00 AM 8.53 47.354 0.059 7.08 4.21 10.79
5/6/2021 12:30:00 AM 8.49 47.282 0.059 7.08 3.94 10.8
5/6/2021 12:45:00 AM 8.45 47.21 0.059 7.09 4.14 10.81
5/6/2021 1:00:00 AM 8.41 47.138 0.059 7.08 4.29 10.83
5/6/2021 1:15:00 AM 8.37 47.066 0.059 7.09 3.95 10.84
5/6/2021 1:30:00 AM 8.33 46.994 0.059 7.08 4 10.85
5/6/2021 1:45:00 AM 8.29 46.922 0.059 7.09 4.19 10.86
5/6/2021 2:00:00 AM 8.26 46.868 0.059 7.09 3.92 10.87
5/6/2021 2:15:00 AM 8.22 46.796 0.059 7.09 3.94 10.88
5/6/2021 2:30:00 AM 8.2 46.76 0.059 7.09 3.86 10.89
5/6/2021 2:45:00 AM 8.17 46.706 0.059 7.1 3.68 10.89
5/6/2021 3:00:00 AM 8.14 46.652 0.059 7.08 3.57 10.9
5/6/2021 3:15:00 AM 8.12 46.616 0.059 7.09 3.91 10.91
5/6/2021 3:30:00 AM 8.09 46.562 0.059 7.09 3.84 10.92
5/6/2021 3:45:00 AM 8.07 46.526 0.059 7.08 3.67 10.92
5/6/2021 4:00:00 AM 8.05 46.49 0.059 7.08 3.86 10.93
5/6/2021 4:15:00 AM 8.02 46.436 0.059 7.09 3.75 10.94
5/6/2021 4:30:00 AM 8 46.4 0.059 7.09 3.74 10.95
5/6/2021 4:45:00 AM 7.97 46.346 0.059 7.09 3.62 10.95
5/6/2021 5:00:00 AM 7.93 46.274 0.059 7.09 3.62 10.96
5/6/2021 5:15:00 AM 7.89 46.202 0.059 7.09 3.82 10.98
5/6/2021 5:30:00 AM 7.87 46.166 0.059 7.09 3.83 10.99
5/6/2021 5:45:00 AM 7.84 46.112 0.059 7.09 3.67 10.99
5/6/2021 6:00:00 AM 7.82 46.076 0.059 7.09 3.75 11
5/6/2021 6:15:00 AM 7.79 46.022 0.059 7.1 3.74 11.02
5/6/2021 6:30:00 AM 7.77 45.986 0.059 7.09 3.84 11.04
5/6/2021 6:45:00 AM 7.76 45.968 0.06 7.1 3.84 11.07
5/6/2021 7:00:00 AM 7.73 45.914 0.059 7.11 3.83 11.1
5/6/2021 7:15:00 AM 7.7 45.86 0.06 7.12 3.68 11.11
5/6/2021 7:30:00 AM 7.69 45.842 0.06 7.12 3.85 11.14
5/6/2021 7:45:00 AM 7.68 45.824 0.06 7.13 3.52 11.17
5/6/2021 8:00:00 AM 7.69 45.842 0.059 7.13 3.66 11.18
5/6/2021 8:15:00 AM 7.7 45.86 0.06 7.14 3.32 11.2
5/6/2021 8:30:00 AM 7.72 45.896 0.06 7.16 3.49 11.23
5/6/2021 8:45:00 AM 7.79 46.022 0.06 7.17 3.52 11.25
5/6/2021 9:00:00 AM 7.89 46.202 0.059 7.17 3.58 11.26
5/6/2021 9:15:00 AM 7.98 46.364 0.059 7.18 3.48 11.26
5/6/2021 9:30:00 AM 8.07 46.526 0.059 7.18 3.61 11.26
5/6/2021 9:45:00 AM 8.1 46.58 0.06 7.2 3.51 11.25
5/6/2021 10:00:00 AM 8.02 46.436 0.059 7.19 3.35 11.22
5/6/2021 10:15:00 AM 8.19 46.742 0.06 7.2 3.67 11.22
5/6/2021 10:30:00 AM 8.43 47.174 0.059 7.21 3.58 11.19
5/6/2021 10:45:00 AM 8.45 47.21 0.059 7.21 3.44 11.17
5/6/2021 11:00:00 AM 8.5 47.3 0.059 7.21 3.45 11.17
5/6/2021 11:15:00 AM 8.84 47.912 0.059 7.22 3.5 11.12
5/6/2021 11:30:00 AM 9.11 48.398 0.059 7.23 3.44 11.06
5/6/2021 11:45:00 AM 9.12 48.416 0.059 7.23 3.5 11.01
5/6/2021 12:00:00 PM 9.46 49.028 0.059 7.25 3.8 10.97
5/6/2021 12:15:00 PM 9.69 49.442 0.059 7.24 3.64 10.91
5/6/2021 12:30:00 PM 9.74 49.532 0.059 7.25 3.56 10.86
5/6/2021 12:45:00 PM 9.89 49.802 0.059 7.25 3.71 10.83
5/6/2021 1:00:00 PM 10.13 50.234 0.059 7.26 3.62 10.79
5/6/2021 1:15:00 PM 10.26 50.468 0.059 7.26 3.58 10.73
5/6/2021 1:30:00 PM 10.44 50.792 0.059 7.27 3.56 10.67
5/6/2021 1:45:00 PM 10.48 50.864 0.059 7.26 3.67 10.66
5/6/2021 2:00:00 PM 10.53 50.954 0.059 7.26 3.72 10.65
5/6/2021 2:15:00 PM 10.6 51.08 0.059 7.27 3.86 10.62
5/6/2021 2:30:00 PM 10.65 51.17 0.059 7.27 3.81 10.6
5/6/2021 2:45:00 PM 10.7 51.26 0.059 7.28 3.84 10.58
5/6/2021 3:00:00 PM 10.73 51.314 0.059 7.28 3.65 10.58
5/6/2021 3:15:00 PM 10.78 51.404 0.059 7.28 3.56 10.55
5/6/2021 3:30:00 PM 10.78 51.404 0.059 7.28 3.72 10.53
5/6/2021 3:45:00 PM 10.77 51.386 0.059 7.28 3.75 10.53
5/6/2021 4:00:00 PM 10.76 51.368 0.059 7.29 3.86 10.52
5/6/2021 4:15:00 PM 10.76 51.368 0.059 7.29 3.63 10.52
5/6/2021 4:30:00 PM 10.75 51.35 0.059 7.28 3.54 10.53
5/6/2021 4:45:00 PM 10.74 51.332 0.059 7.28 3.79 10.53
5/6/2021 5:00:00 PM 10.7 51.26 0.055 7.18 3.97 10.52
5/6/2021 5:15:00 PM 10.66 51.188 0.059 7.25 4 10.52
5/6/2021 5:30:00 PM 10.62 51.116 0.059 7.25 3.73 10.52
5/6/2021 5:45:00 PM 10.56 51.008 0.059 7.26 3.69 10.51
5/6/2021 6:00:00 PM 10.53 50.954 0.059 7.26 3.73 10.52
5/6/2021 6:15:00 PM 10.49 50.882 0.059 7.26 3.8 10.51
5/6/2021 6:30:00 PM 10.45 50.81 0.059 7.24 3.66 10.51
5/6/2021 6:45:00 PM 10.4 50.72 0.059 7.24 3.58 10.51
5/6/2021 7:00:00 PM 10.34 50.612 0.06 7.23 3.73 10.51
5/6/2021 7:15:00 PM 10.24 50.432 0.06 7.21 3.59 10.5
5/6/2021 7:30:00 PM 10.14 50.252 0.06 7.2 3.95 10.49
5/6/2021 7:45:00 PM 10.03 50.054 0.06 7.19 3.81 10.49
5/6/2021 8:00:00 PM 9.91 49.838 0.06 7.18 3.82 10.49
5/6/2021 8:15:00 PM 9.8 49.64 0.06 7.17 3.79 10.49
5/6/2021 8:30:00 PM 9.68 49.424 0.06 7.15 3.87 10.49
5/6/2021 8:45:00 PM 9.55 49.19 0.06 7.14 3.73 10.51
5/6/2021 9:00:00 PM 9.42 48.956 0.06 7.12 4.15 10.54
5/6/2021 9:15:00 PM 9.3 48.74 0.06 7.11 3.85 10.56
5/6/2021 9:30:00 PM 9.19 48.542 0.06 7.12 3.94 10.59
5/6/2021 9:45:00 PM 9.08 48.344 0.06 7.12 4.15 10.62
5/6/2021 10:00:00 PM 8.97 48.146 0.06 7.11 4.01 10.65
5/6/2021 10:15:00 PM 8.86 47.948 0.061 7.11 3.81 10.67
5/6/2021 10:30:00 PM 8.75 47.75 0.061 7.11 3.82 10.7
5/6/2021 10:45:00 PM 8.64 47.552 0.061 7.1 3.92 10.73
5/6/2021 11:00:00 PM 8.53 47.354 0.061 7.11 4.12 10.76
5/6/2021 11:15:00 PM 8.42 47.156 0.061 7.09 4.14 10.79
5/6/2021 11:30:00 PM 8.31 46.958 0.061 7.09 3.8 10.82
5/6/2021 11:45:00 PM 8.21 46.778 0.061 7.08 3.67 10.85
5/7/2021 12:00:00 AM 8.11 46.598 0.061 7.1 3.89 10.88
5/7/2021 12:15:00 AM 8.01 46.418 0.061 7.09 3.67 10.91
5/7/2021 12:30:00 AM 7.91 46.238 0.061 7.1 3.76 10.93
5/7/2021 12:45:00 AM 7.81 46.058 0.061 7.1 3.83 10.96
5/7/2021 1:00:00 AM 7.72 45.896 0.061 7.1 3.86 10.99
5/7/2021 1:15:00 AM 7.63 45.734 0.061 7.09 3.8 11.01
5/7/2021 1:30:00 AM 7.55 45.59 0.061 7.09 3.8 11.03
5/7/2021 1:45:00 AM 7.46 45.428 0.061 7.08 3.71 11.06
5/7/2021 2:00:00 AM 7.38 45.284 0.061 7.08 3.82 11.08
5/7/2021 2:15:00 AM 7.32 45.176 0.061 7.08 3.69 11.11
5/7/2021 2:30:00 AM 7.25 45.05 0.061 7.09 3.8 11.12
5/7/2021 2:45:00 AM 7.19 44.942 0.061 7.08 3.49 11.14
5/7/2021 3:00:00 AM 7.13 44.834 0.061 7.06 3.65 11.15
5/7/2021 3:15:00 AM 7.07 44.726 0.061 7.06 3.59 11.17
5/7/2021 3:30:00 AM 7.01 44.618 0.061 7.05 3.58 11.18
5/7/2021 3:45:00 AM 6.96 44.528 0.061 7.04 3.98 11.2
5/7/2021 4:00:00 AM 6.91 44.438 0.061 7.04 3.71 11.22
5/7/2021 4:15:00 AM 6.87 44.366 0.061 7.03 3.51 11.23
5/7/2021 4:30:00 AM 6.82 44.276 0.061 7.04 3.52 11.23
5/7/2021 4:45:00 AM 6.79 44.222 0.061 7.03 3.41 11.25
5/7/2021 5:00:00 AM 6.75 44.15 0.061 7.04 3.46 11.26
5/7/2021 5:15:00 AM 6.72 44.096 0.061 7.02 3.54 11.27
5/7/2021 5:30:00 AM 6.68 44.024 0.061 7.02 3.49 11.28
5/7/2021 5:45:00 AM 6.65 43.97 0.061 7.01 3.52 11.29
5/7/2021 6:00:00 AM 6.6 43.88 0.061 7.01 3.39 11.3
5/7/2021 6:15:00 AM 6.56 43.808 0.061 7.01 3.69 11.32
5/7/2021 6:30:00 AM 6.53 43.754 0.061 7.02 3.5 11.34
5/7/2021 6:45:00 AM 6.52 43.736 0.061 7.03 3.31 11.37
5/7/2021 7:00:00 AM 6.53 43.754 0.061 7.05 3.41 11.42
5/7/2021 7:15:00 AM 6.54 43.772 0.061 7.05 3.29 11.44
5/7/2021 7:30:00 AM 6.55 43.79 0.061 7.07 3.25 11.47
5/7/2021 7:45:00 AM 6.57 43.826 0.061 7.09 3.23 11.49
5/7/2021 8:00:00 AM 6.6 43.88 0.061 7.09 3.3 11.5
5/7/2021 8:15:00 AM 6.64 43.952 0.06 7.1 3.3 11.51
5/7/2021 8:30:00 AM 6.69 44.042 0.06 7.11 3.26 11.52
5/7/2021 8:45:00 AM 6.76 44.168 0.06 7.12 3.47 11.52
5/7/2021 9:00:00 AM 6.86 44.348 0.061 7.13 3.05 11.51
5/7/2021 9:15:00 AM 6.98 44.564 0.06 7.15 3.13 11.5
5/7/2021 9:30:00 AM 7.11 44.798 0.06 7.15 3.27 11.48
5/7/2021 9:45:00 AM 7.21 44.978 0.06 7.17 3.05 11.46
5/7/2021 10:00:00 AM 7.37 45.266 0.06 7.19 3.23 11.43
5/7/2021 10:15:00 AM 7.56 45.608 0.06 7.18 3.15 11.39
5/7/2021 10:30:00 AM 7.74 45.932 0.06 7.19 3.12 11.35
5/7/2021 10:45:00 AM 7.94 46.292 0.06 7.19 3.15 11.31
5/7/2021 11:00:00 AM 8.03 46.454 0.06 7.2 3.09 11.26
5/7/2021 11:15:00 AM 8.21 46.778 0.06 7.21 3.12 11.22
5/7/2021 11:30:00 AM 8.27 46.886 0.06 7.2 3.19 11.18
5/7/2021 11:45:00 AM 8.33 46.994 0.06 7.21 3.14 11.14
5/7/2021 12:00:00 PM 8.39 47.102 0.06 7.2 3.26 11.11
5/7/2021 12:15:00 PM 8.48 47.264 0.06 7.21 3.14 11.08
5/7/2021 12:30:00 PM 8.58 47.444 0.06 7.22 3.25 11.05
5/7/2021 12:45:00 PM 8.66 47.588 0.06 7.22 3.28 11.04
5/7/2021 1:00:00 PM 8.74 47.732 0.06 7.25 3.35 11.02
5/7/2021 1:15:00 PM 8.8 47.84 0.06 7.25 3.23 11
5/7/2021 1:30:00 PM 8.83 47.894 0.06 7.25 3.31 10.96
5/7/2021 1:45:00 PM 8.85 47.93 0.06 7.25 3.41 10.95
5/7/2021 2:00:00 PM 8.85 47.93 0.06 7.25 3.32 10.93
5/7/2021 2:15:00 PM 8.86 47.948 0.06 7.25 3.26 10.91
5/7/2021 2:30:00 PM 8.85 47.93 0.06 7.24 3.26 10.88
5/7/2021 2:45:00 PM 8.84 47.912 0.06 7.23 3.28 10.85
5/7/2021 3:00:00 PM 8.84 47.912 0.06 7.22 3.21 10.84
5/7/2021 3:15:00 PM 8.84 47.912 0.06 7.22 3.27 10.86
5/7/2021 3:30:00 PM 8.85 47.93 0.06 7.23 3.43 10.88
5/7/2021 3:45:00 PM 8.86 47.948 0.06 7.24 3.4 10.88
5/7/2021 4:00:00 PM 8.86 47.948 0.06 7.23 3.32 10.87
5/7/2021 4:15:00 PM 8.84 47.912 0.06 7.23 3.57 10.87
5/7/2021 4:30:00 PM 8.81 47.858 0.06 7.22 3.7 10.88
5/7/2021 4:45:00 PM 8.77 47.786 0.06 7.22 3.47 10.87
5/7/2021 5:00:00 PM 8.74 47.732 0.06 7.19 3.43 10.86
5/7/2021 5:15:00 PM 8.69 47.642 0.06 7.19 3.47 10.85
5/7/2021 5:30:00 PM 8.65 47.57 0.06 7.16 3.56 10.86
5/7/2021 5:45:00 PM 8.61 47.498 0.06 7.16 3.48 10.88
5/7/2021 6:00:00 PM 8.58 47.444 0.06 7.16 3.51 10.89
5/7/2021 6:15:00 PM 8.54 47.372 0.06 7.16 3.92 10.9
5/7/2021 6:30:00 PM 8.51 47.318 0.06 7.15 3.45 10.9
5/7/2021 6:45:00 PM 8.47 47.246 0.06 7.14 3.57 10.91
5/7/2021 7:00:00 PM 8.44 47.192 0.06 7.14 3.59 10.9
5/7/2021 7:15:00 PM 8.39 47.102 0.06 7.14 3.68 10.88
5/7/2021 7:30:00 PM 8.35 47.03 0.06 7.15 3.66 10.87
5/7/2021 7:45:00 PM 8.3 46.94 0.06 7.16 3.9 10.87
5/7/2021 8:00:00 PM 8.25 46.85 0.06 7.17 3.64 10.87
5/7/2021 8:15:00 PM 8.21 46.778 0.06 7.17 3.84 10.87
5/7/2021 8:30:00 PM 8.16 46.688 0.06 7.17 3.92 10.86
5/7/2021 8:45:00 PM 8.12 46.616 0.06 7.15 3.69 10.87
5/7/2021 9:00:00 PM 8.08 46.544 0.06 7.14 3.86 10.87
5/7/2021 9:15:00 PM 8.03 46.454 0.06 7.12 3.76 10.88
5/7/2021 9:30:00 PM 7.99 46.382 0.061 7.12 3.81 10.9
5/7/2021 9:45:00 PM 7.94 46.292 0.061 7.12 3.72 10.9
5/7/2021 10:00:00 PM 7.9 46.22 0.061 7.11 4 10.92
5/7/2021 10:15:00 PM 7.85 46.13 0.061 7.1 3.84 10.93
5/7/2021 10:30:00 PM 7.81 46.058 0.061 7.11 3.98 10.94
5/7/2021 10:45:00 PM 7.78 46.004 0.061 7.12 3.71 10.96
5/7/2021 11:00:00 PM 7.74 45.932 0.061 7.12 3.74 10.97
5/7/2021 11:15:00 PM 7.7 45.86 0.061 7.12 3.66 10.98
5/7/2021 11:30:00 PM 7.66 45.788 0.062 7.11 3.84 10.99
5/7/2021 11:45:00 PM 7.63 45.734 0.062 7.13 3.72 10.99
5/8/2021 12:00:00 AM 7.6 45.68 0.062 7.13 3.71 11
5/8/2021 12:15:00 AM 7.57 45.626 0.062 7.13 3.49 11.01
5/8/2021 12:30:00 AM 7.54 45.572 0.062 7.12 3.46 11.02
5/8/2021 12:45:00 AM 7.52 45.536 0.062 7.12 3.58 11.03
5/8/2021 1:00:00 AM 7.49 45.482 0.062 7.12 3.58 11.03
5/8/2021 1:15:00 AM 7.46 45.428 0.062 7.12 3.76 11.04
5/8/2021 1:30:00 AM 7.44 45.392 0.062 7.13 3.39 11.04
5/8/2021 1:45:00 AM 7.42 45.356 0.062 7.14 3.46 11.05
5/8/2021 2:00:00 AM 7.4 45.32 0.062 7.13 3.58 11.05
5/8/2021 2:15:00 AM 7.38 45.284 0.062 7.13 3.58 11.06
5/8/2021 2:30:00 AM 7.36 45.248 0.062 7.12 3.78 11.06
5/8/2021 2:45:00 AM 7.34 45.212 0.062 7.13 3.5 11.07
5/8/2021 3:00:00 AM 7.32 45.176 0.062 7.11 3.67 11.08
5/8/2021 3:15:00 AM 7.31 45.158 0.062 7.13 3.43 11.08
5/8/2021 3:30:00 AM 7.29 45.122 0.062 7.13 3.53 11.08
5/8/2021 3:45:00 AM 7.28 45.104 0.062 7.12 3.54 11.09
5/8/2021 4:00:00 AM 7.26 45.068 0.062 7.14 3.33 11.09
5/8/2021 4:15:00 AM 7.25 45.05 0.062 7.12 3.52 11.1
5/8/2021 4:30:00 AM 7.23 45.014 0.062 7.13 3.5 11.09
5/8/2021 4:45:00 AM 7.22 44.996 0.062 7.12 3.65 11.1
5/8/2021 5:00:00 AM 7.2 44.96 0.062 7.11 3.57 11.1
5/8/2021 5:15:00 AM 7.18 44.924 0.062 7.12 3.54 11.11
5/8/2021 5:30:00 AM 7.15 44.87 0.062 7.12 3.46 11.12
5/8/2021 5:45:00 AM 7.12 44.816 0.062 7.12 3.31 11.12
5/8/2021 6:00:00 AM 7.09 44.762 0.062 7.12 3.56 11.13
5/8/2021 6:15:00 AM 7.08 44.744 0.062 7.11 3.51 11.15
5/8/2021 6:30:00 AM 7.07 44.726 0.062 7.13 3.41 11.17
5/8/2021 6:45:00 AM 7.07 44.726 0.062 7.13 3.44 11.21
5/8/2021 7:00:00 AM 7.09 44.762 0.062 7.15 3.38 11.25
5/8/2021 7:15:00 AM 7.11 44.798 0.062 7.16 3.25 11.29
5/8/2021 7:30:00 AM 7.12 44.816 0.062 7.16 3.22 11.3
5/8/2021 7:45:00 AM 7.14 44.852 0.062 7.17 3.46 11.32
5/8/2021 8:00:00 AM 7.16 44.888 0.062 7.19 3.07 11.33
5/8/2021 8:15:00 AM 7.18 44.924 0.062 7.2 3.34 11.34
5/8/2021 8:30:00 AM 7.2 44.96 0.062 7.18 3.21 11.33
5/8/2021 8:45:00 AM 7.24 45.032 0.062 7.19 3.19 11.34
5/8/2021 9:00:00 AM 7.28 45.104 0.062 7.21 3 11.34
5/8/2021 9:15:00 AM 7.33 45.194 0.061 7.2 3.24 11.35
5/8/2021 9:30:00 AM 7.36 45.248 0.061 7.22 3.08 11.34
5/8/2021 9:45:00 AM 7.37 45.266 0.061 7.22 3.06 11.31
5/8/2021 10:00:00 AM 7.39 45.302 0.061 7.22 3.34 11.3
5/8/2021 10:15:00 AM 7.42 45.356 0.061 7.22 3.11 11.31
5/8/2021 10:30:00 AM 7.5 45.5 0.061 7.23 3.1 11.32
5/8/2021 10:45:00 AM 7.56 45.608 0.061 7.23 3.23 11.31
5/8/2021 11:00:00 AM 7.59 45.662 0.061 7.23 3.27 11.3
5/8/2021 11:15:00 AM 7.65 45.77 0.061 7.25 3.17 11.3
5/8/2021 11:30:00 AM 7.76 45.968 0.061 7.25 3.2 11.3
5/8/2021 11:45:00 AM 7.9 46.22 0.061 7.26 3.23 11.29
5/8/2021 12:00:00 PM 8.02 46.436 0.061 7.26 3.18 11.26
5/8/2021 12:15:00 PM 8 46.4 0.061 7.25 3.18 11.2
5/8/2021 12:30:00 PM 8.11 46.598 0.061 7.24 3 11.22
5/8/2021 12:45:00 PM 8.31 46.958 0.061 7.26 3.47 11.19
5/8/2021 1:00:00 PM 8.45 47.21 0.061 7.27 3.12 11.13
5/8/2021 1:15:00 PM 8.45 47.21 0.061 7.25 3.05 11.07
5/8/2021 1:30:00 PM 8.57 47.426 0.061 7.26 3.15 11.09
5/8/2021 1:45:00 PM 8.73 47.714 0.061 7.26 3.16 11.07
5/8/2021 2:00:00 PM 8.98 48.164 0.061 7.27 3.13 11.02
5/8/2021 2:15:00 PM 9.01 48.218 0.061 7.26 3.32 10.95
5/8/2021 2:30:00 PM 9.04 48.272 0.061 7.26 3.25 10.93
5/8/2021 2:45:00 PM 9.07 48.326 0.061 7.26 3.35 10.93
5/8/2021 3:00:00 PM 9.21 48.578 0.061 7.26 3.44 10.95
5/8/2021 3:15:00 PM 9.41 48.938 0.061 7.27 3.12 10.91
5/8/2021 3:30:00 PM 9.68 49.424 0.061 7.28 3.15 10.86
5/8/2021 3:45:00 PM 9.76 49.568 0.061 7.27 3.27 10.8
5/8/2021 4:00:00 PM 9.62 49.316 0.061 7.27 3.55 10.71
5/8/2021 4:15:00 PM 9.34 48.812 0.061 7.25 3.36 10.7
5/8/2021 4:30:00 PM 9.23 48.614 0.061 7.23 3.6 10.72
5/8/2021 4:45:00 PM 9.24 48.632 0.061 7.24 3.37 10.77
5/8/2021 5:00:00 PM 9.29 48.722 0.061 7.24 3.35 10.79
5/8/2021 5:15:00 PM 9.35 48.83 0.061 7.24 3.4 10.78
5/8/2021 5:30:00 PM 9.37 48.866 0.061 7.24 3.52 10.78
5/8/2021 5:45:00 PM 9.37 48.866 0.061 7.24 3.41 10.77
5/8/2021 6:00:00 PM 9.34 48.812 0.061 7.24 3.32 10.76
5/8/2021 6:15:00 PM 9.25 48.65 0.061 7.23 3.33 10.73
5/8/2021 6:30:00 PM 9.16 48.488 0.061 7.22 3.53 10.74
5/8/2021 6:45:00 PM 9.1 48.38 0.061 7.22 3.42 10.77
5/8/2021 7:00:00 PM 9.03 48.254 0.061 7.21 3.34 10.79
5/8/2021 7:15:00 PM 8.96 48.128 0.061 7.21 3.36 10.8
5/8/2021 7:30:00 PM 8.87 47.966 0.061 7.2 3.53 10.81
5/8/2021 7:45:00 PM 8.76 47.768 0.061 7.19 3.55 10.82
5/8/2021 8:00:00 PM 8.65 47.57 0.061 7.19 3.4 10.82
5/8/2021 8:15:00 PM 8.55 47.39 0.062 7.18 3.65 10.82
5/8/2021 8:30:00 PM 8.46 47.228 0.062 7.18 3.6 10.83
5/8/2021 8:45:00 PM 8.37 47.066 0.062 7.15 3.48 10.84
5/8/2021 9:00:00 PM 8.29 46.922 0.062 7.15 3.51 10.85
5/8/2021 9:15:00 PM 8.21 46.778 0.062 7.14 3.55 10.87
5/8/2021 9:30:00 PM 8.13 46.634 0.062 7.15 3.41 10.89
5/8/2021 9:45:00 PM 8.06 46.508 0.062 7.13 3.56 10.92
5/8/2021 10:00:00 PM 7.99 46.382 0.062 7.14 3.57 10.94
5/8/2021 10:15:00 PM 7.91 46.238 0.063 7.14 3.42 10.96
5/8/2021 10:30:00 PM 7.83 46.094 0.063 7.14 3.46 10.98
5/8/2021 10:45:00 PM 7.75 45.95 0.063 7.13 3.55 11
5/8/2021 11:00:00 PM 7.67 45.806 0.063 7.12 3.5 11.02
5/8/2021 11:15:00 PM 7.58 45.644 0.063 7.13 3.47 11.04
5/8/2021 11:30:00 PM 7.5 45.5 0.063 7.12 3.53 11.07
5/8/2021 11:45:00 PM 7.42 45.356 0.063 7.13 3.36 11.09
5/9/2021 12:00:00 AM 7.34 45.212 0.063 7.12 3.35 11.12
5/9/2021 12:15:00 AM 7.26 45.068 0.063 7.11 3.42 11.14
5/9/2021 12:30:00 AM 7.18 44.924 0.063 7.12 3.47 11.17
5/9/2021 12:45:00 AM 7.1 44.78 0.063 7.11 3.26 11.19
5/9/2021 1:00:00 AM 7.01 44.618 0.063 7.11 3.21 11.21
5/9/2021 1:15:00 AM 6.94 44.492 0.063 7.1 3.28 11.24
5/9/2021 1:30:00 AM 6.87 44.366 0.063 7.1 3.29 11.26
5/9/2021 1:45:00 AM 6.8 44.24 0.063 7.1 3.29 11.28
5/9/2021 2:00:00 AM 6.74 44.132 0.063 7.1 3.13 11.3
5/9/2021 2:15:00 AM 6.69 44.042 0.063 7.11 3.2 11.32
5/9/2021 2:30:00 AM 6.63 43.934 0.063 7.12 3.37 11.33
5/9/2021 2:45:00 AM 6.58 43.844 0.063 7.11 3.27 11.34
5/9/2021 3:00:00 AM 6.52 43.736 0.063 7.11 3.25 11.36
5/9/2021 3:15:00 AM 6.47 43.646 0.063 7.11 3.31 11.38
5/9/2021 3:30:00 AM 6.42 43.556 0.063 7.1 3.37 11.4
5/9/2021 3:45:00 AM 6.37 43.466 0.063 7.12 3.06 11.41
5/9/2021 4:00:00 AM 6.32 43.376 0.063 7.1 3.17 11.43
5/9/2021 4:15:00 AM 6.27 43.286 0.063 7.1 3.21 11.44
5/9/2021 4:30:00 AM 6.22 43.196 0.063 7.1 3.23 11.46
5/9/2021 4:45:00 AM 6.16 43.088 0.063 7.1 3.19 11.48
5/9/2021 5:00:00 AM 6.11 42.998 0.063 7.11 3.12 11.49
5/9/2021 5:15:00 AM 6.07 42.926 0.063 7.1 3.24 11.51
5/9/2021 5:30:00 AM 6.03 42.854 0.063 7.1 3.04 11.52
5/9/2021 5:45:00 AM 5.99 42.782 0.063 7.09 3.18 11.53
5/9/2021 6:00:00 AM 5.96 42.728 0.063 7.1 3.13 11.54
5/9/2021 6:15:00 AM 5.94 42.692 0.063 7.11 3.25 11.56
5/9/2021 6:30:00 AM 5.91 42.638 0.063 7.1 3.27 11.59
5/9/2021 6:45:00 AM 5.89 42.602 0.063 7.1 3.08 11.62
5/9/2021 7:00:00 AM 5.87 42.566 0.063 7.07 3.18 11.65
5/9/2021 7:15:00 AM 5.86 42.548 0.063 7.08 3.07 11.68
5/9/2021 7:30:00 AM 5.88 42.584 0.063 7.09 3.21 11.72
5/9/2021 7:45:00 AM 5.92 42.656 0.063 7.11 3.16 11.75
5/9/2021 8:00:00 AM 5.93 42.674 0.063 7.11 3.02 11.76
5/9/2021 8:15:00 AM 5.96 42.728 0.063 7.12 2.97 11.77
5/9/2021 8:30:00 AM 6.01 42.818 0.063 7.14 3.08 11.78
5/9/2021 8:45:00 AM 6.06 42.908 0.063 7.15 2.94 11.78
5/9/2021 9:00:00 AM 6.15 43.07 0.063 7.15 3.02 11.78
5/9/2021 9:15:00 AM 6.24 43.232 0.063 7.16 2.88 11.77
5/9/2021 9:30:00 AM 6.39 43.502 0.062 7.19 3.02 11.76
5/9/2021 9:45:00 AM 6.59 43.862 0.062 7.19 3.01 11.72
5/9/2021 10:00:00 AM 6.71 44.078 0.062 7.19 2.94 11.69
5/9/2021 10:15:00 AM 6.78 44.204 0.062 7.19 2.93 11.65
5/9/2021 10:30:00 AM 6.87 44.366 0.062 7.21 2.92 11.62
5/9/2021 10:45:00 AM 7 44.6 0.062 7.23 3.08 11.56
5/9/2021 11:00:00 AM 7.14 44.852 0.062 7.23 3 11.51
5/9/2021 11:15:00 AM 7.27 45.086 0.062 7.24 2.93 11.48
5/9/2021 11:30:00 AM 7.37 45.266 0.062 7.24 3.09 11.44
5/9/2021 11:45:00 AM 7.46 45.428 0.062 7.25 3.09 11.42
5/9/2021 12:00:00 PM 7.52 45.536 0.062 7.24 3.02 11.39
5/9/2021 12:15:00 PM 7.58 45.644 0.062 7.25 2.97 11.37
5/9/2021 12:30:00 PM 7.64 45.752 0.062 7.25 3.04 11.35
5/9/2021 12:45:00 PM 7.68 45.824 0.062 7.26 2.98 11.34
5/9/2021 1:00:00 PM 7.69 45.842 0.062 7.25 2.89 11.32
5/9/2021 1:15:00 PM 7.69 45.842 0.062 7.23 3.09 11.3
5/9/2021 1:30:00 PM 7.66 45.788 0.062 7.23 3.05 11.28
5/9/2021 1:45:00 PM 7.64 45.752 0.062 7.21 3.09 11.28
5/9/2021 2:00:00 PM 7.61 45.698 0.062 7.21 3.07 11.27
5/9/2021 2:15:00 PM 7.58 45.644 0.062 7.21 3.24 11.27
5/9/2021 2:30:00 PM 7.53 45.554 0.062 7.22 3.11 11.26
5/9/2021 2:45:00 PM 7.47 45.446 0.061 7.21 3.05 11.26
5/9/2021 3:00:00 PM 7.4 45.32 0.061 7.24 3.13 11.26
5/9/2021 3:15:00 PM 7.31 45.158 0.061 7.25 3.41 11.28
5/9/2021 3:30:00 PM 7.18 44.924 0.061 7.23 3.35 11.29
5/9/2021 3:45:00 PM 7.05 44.69 0.061 7.23 3.32 11.31
5/9/2021 4:00:00 PM 6.92 44.456 0.061 7.21 3.44 11.33
5/9/2021 4:15:00 PM 6.78 44.204 0.061 7.2 3.53 11.36
5/9/2021 4:30:00 PM 6.66 43.988 0.06 7.21 3.51 11.37
5/9/2021 4:45:00 PM 6.51 43.718 0.06 7.19 3.66 11.4
5/9/2021 5:00:00 PM 6.33 43.394 0.06 7.18 3.51 11.42
5/9/2021 5:15:00 PM 6.11 42.998 0.06 7.18 3.56 11.46
5/9/2021 5:30:00 PM 5.92 42.656 0.06 7.15 3.46 11.51
5/9/2021 5:45:00 PM 5.73 42.314 0.06 7.15 3.62 11.55
5/9/2021 6:00:00 PM 5.66 42.188 0.061 7.14 3.62 11.59
5/9/2021 6:15:00 PM 5.63 42.134 0.061 7.12 3.76 11.61
5/9/2021 6:30:00 PM 5.55 41.99 0.061 7.07 4.46 11.64
5/9/2021 6:45:00 PM 5.5 41.9 0.061 7.08 4.02 11.66
5/9/2021 7:00:00 PM 5.46 41.828 0.061 7.07 3.86 11.67
5/9/2021 7:15:00 PM 5.44 41.792 0.061 7.08 3.97 11.68
5/9/2021 7:30:00 PM 5.44 41.792 0.062 7.08 4.15 11.67
5/9/2021 7:45:00 PM 5.43 41.774 0.062 7.07 4.25 11.67
5/9/2021 8:00:00 PM 5.43 41.774 0.062 7.08 4.58 11.66
5/9/2021 8:15:00 PM 5.43 41.774 0.062 7.07 4.41 11.65
5/9/2021 8:30:00 PM 5.43 41.774 0.063 7.07 4.62 11.65
5/9/2021 8:45:00 PM 5.42 41.756 0.063 7.08 5.07 11.64
5/9/2021 9:00:00 PM 5.42 41.756 0.063 7.07 5.17 11.64
5/9/2021 9:15:00 PM 5.43 41.774 0.063 7.05 5.54 11.64
5/9/2021 9:30:00 PM 5.43 41.774 0.063 7.03 5.84 11.64
5/9/2021 9:45:00 PM 5.44 41.792 0.063 7.02 6.18 11.64
5/9/2021 10:00:00 PM 5.45 41.81 0.063 7.02 6.94 11.64
5/9/2021 10:15:00 PM 5.45 41.81 0.063 7 6.96 11.64
5/9/2021 10:30:00 PM 5.46 41.828 0.064 6.99 8.05 11.63
5/9/2021 10:45:00 PM 5.46 41.828 0.064 7 8.49 11.64
5/9/2021 11:00:00 PM 5.46 41.828 0.064 7.02 8.94 11.64
5/9/2021 11:15:00 PM 5.46 41.828 0.064 7.01 9.61 11.64
5/9/2021 11:30:00 PM 5.45 41.81 0.064 7.02 10.11 11.64
5/9/2021 11:45:00 PM 5.45 41.81 0.064 7.02 10.5 11.65
5/10/2021 12:00:00 AM 5.44 41.792 0.064 7.02 11.43 11.65
5/10/2021 12:15:00 AM 5.44 41.792 0.064 7.02 12.07 11.65
5/10/2021 12:30:00 AM 5.46 41.828 0.064 7.01 13.4 11.66
5/10/2021 12:45:00 AM 5.47 41.846 0.064 7.02 14.22 11.66
5/10/2021 1:00:00 AM 5.48 41.864 0.064 7.05 15.5 11.66
5/10/2021 1:15:00 AM 5.5 41.9 0.064 7.05 15.78 11.66
5/10/2021 1:30:00 AM 5.52 41.936 0.064 7.04 18.85 11.66
5/10/2021 1:45:00 AM 5.53 41.954 0.064 7.06 18.39 11.66
5/10/2021 2:00:00 AM 5.55 41.99 0.063 7.06 19.16 11.65
5/10/2021 2:15:00 AM 5.57 42.026 0.063 7.07 17.37 11.65
5/10/2021 2:30:00 AM 5.59 42.062 0.063 7.02 16.05 11.64
5/10/2021 2:45:00 AM 5.61 42.098 0.062 7.07 15.33 11.63
5/10/2021 3:00:00 AM 5.63 42.134 0.062 7.06 14.24 11.63
5/10/2021 3:15:00 AM 5.66 42.188 0.062 7.07 13.54 11.62
5/10/2021 3:30:00 AM 5.68 42.224 0.062 7.06 12.04 11.61
5/10/2021 3:45:00 AM 5.71 42.278 0.062 7.05 11.26 11.6
5/10/2021 4:00:00 AM 5.73 42.314 0.062 7.04 11.08 11.6
5/10/2021 4:15:00 AM 5.75 42.35 0.061 7.01 11.11 11.59
5/10/2021 4:30:00 AM 5.77 42.386 0.061 7 10.1 11.59
5/10/2021 4:45:00 AM 5.79 42.422 0.062 6.98 9.28 11.59
5/10/2021 5:00:00 AM 5.81 42.458 0.061 6.97 9.12 11.58
5/10/2021 5:15:00 AM 5.83 42.494 0.061 6.97 8.63 11.58
5/10/2021 5:30:00 AM 5.84 42.512 0.061 6.97 8.11 11.57
5/10/2021 5:45:00 AM 5.86 42.548 0.061 6.96 7.84 11.57
5/10/2021 6:00:00 AM 5.88 42.584 0.061 6.97 7.58 11.57
5/10/2021 6:15:00 AM 5.89 42.602 0.061 6.96 7.65 11.57
5/10/2021 6:30:00 AM 5.91 42.638 0.061 6.98 7.23 11.58
5/10/2021 6:45:00 AM 5.94 42.692 0.061 6.97 7.1 11.59
5/10/2021 7:00:00 AM 5.97 42.746 0.061 6.99 6.35 11.61
5/10/2021 7:15:00 AM 6.01 42.818 0.061 6.97 6.65 11.62
5/10/2021 7:30:00 AM 6.04 42.872 0.061 6.99 6.32 11.63
5/10/2021 7:45:00 AM 6.05 42.89 0.061 7.01 6.18 11.62
5/10/2021 8:00:00 AM 6.09 42.962 0.061 7.01 5.78 11.63
5/10/2021 8:15:00 AM 6.13 43.034 0.061 7.03 5.66 11.63
5/10/2021 8:30:00 AM 6.18 43.124 0.061 7.03 5.29 11.63
5/10/2021 8:45:00 AM 6.24 43.232 0.061 7.04 5.2 11.63
5/10/2021 9:00:00 AM 6.31 43.358 0.061 7.05 5.29 11.63
5/10/2021 9:15:00 AM 6.4 43.52 0.061 7.05 5.22 11.62
5/10/2021 9:30:00 AM 6.52 43.736 0.061 7.06 5.37 11.6
5/10/2021 9:45:00 AM 6.66 43.988 0.061 7.06 5.17 11.59
5/10/2021 10:00:00 AM 6.81 44.258 0.061 7.07 4.73 11.56
5/10/2021 10:15:00 AM 6.98 44.564 0.06 7.08 4.99 11.53
5/10/2021 10:30:00 AM 7.17 44.906 0.06 7.08 4.72 11.5
5/10/2021 10:45:00 AM 7.37 45.266 0.06 7.09 4.81 11.45
5/10/2021 11:00:00 AM 7.59 45.662 0.06 7.1 4.96 11.41
5/10/2021 11:15:00 AM 7.8 46.04 0.06 7.08 4.83 11.36
5/10/2021 11:30:00 AM 8 46.4 0.06 7.1 4.88 11.29
5/10/2021 11:45:00 AM 8.23 46.814 0.06 7.11 4.95 11.24
5/10/2021 12:00:00 PM 8.43 47.174 0.06 7.1 4.96 11.19
5/10/2021 12:15:00 PM 8.67 47.606 0.059 7.11 5.18 11.15
5/10/2021 12:30:00 PM 8.86 47.948 0.059 7.1 5.08 11.09
5/10/2021 12:45:00 PM 9.14 48.452 0.06 7.12 5.35 11.03
5/10/2021 1:00:00 PM 9.18 48.524 0.059 7.12 5.33 11.01
5/10/2021 1:15:00 PM 9.48 49.064 0.059 7.12 5.29 10.94
5/10/2021 1:30:00 PM 9.58 49.244 0.059 7.12 5.38 10.88
5/10/2021 1:45:00 PM 9.7 49.46 0.059 7.13 5.38 10.86
5/10/2021 2:00:00 PM 9.95 49.91 0.059 7.12 5.57 10.81
5/10/2021 2:15:00 PM 9.94 49.892 0.058 7.13 5.46 10.78
5/10/2021 2:30:00 PM 9.85 49.73 0.058 7.12 5.62 10.78
5/10/2021 2:45:00 PM 9.83 49.694 0.058 7.11 5.72 10.77
5/10/2021 3:00:00 PM 9.77 49.586 0.058 7.11 5.59 10.77
5/10/2021 3:15:00 PM 9.81 49.658 0.058 7.1 5.45 10.76
5/10/2021 3:30:00 PM 9.77 49.586 0.057 7.1 5.67 10.76
5/10/2021 3:45:00 PM 9.73 49.514 0.057 7.1 5.52 10.76
5/10/2021 4:00:00 PM 9.77 49.586 0.057 7.09 5.58 10.76
5/10/2021 4:15:00 PM 9.68 49.424 0.057 7.1 5.48 10.76
5/10/2021 4:30:00 PM 9.6 49.28 0.057 7.09 5.39 10.76
5/10/2021 4:45:00 PM 9.64 49.352 0.057 7.1 5.33 10.77
5/10/2021 5:00:00 PM 9.66 49.388 0.057 7.09 5.06 10.75
5/10/2021 5:15:00 PM 9.65 49.37 0.057 7.1 5.61 10.75
5/10/2021 5:30:00 PM 9.56 49.208 0.057 7.09 5.57 10.77
5/10/2021 5:45:00 PM 9.52 49.136 0.057 7.07 5.33 10.78
5/10/2021 6:00:00 PM 9.47 49.046 0.056 7.09 5.41 10.79
5/10/2021 6:15:00 PM 9.35 48.83 0.056 7.08 5.17 10.78
5/10/2021 6:30:00 PM 9.27 48.686 0.056 7.04 5.13 10.78
5/10/2021 6:45:00 PM 9.18 48.524 0.056 7.05 5.1 10.79
5/10/2021 7:00:00 PM 9.07 48.326 0.056 7.06 5.04 10.81
5/10/2021 7:15:00 PM 8.97 48.146 0.056 7.04 5.19 10.8
5/10/2021 7:30:00 PM 8.88 47.984 0.056 7.04 4.93 10.83
5/10/2021 7:45:00 PM 8.77 47.786 0.056 7.02 5.23 10.84
5/10/2021 8:00:00 PM 8.66 47.588 0.056 7.02 5.14 10.85
5/10/2021 8:15:00 PM 8.54 47.372 0.056 7.01 5.31 10.87
5/10/2021 8:30:00 PM 8.44 47.192 0.056 7 5.63 10.88
5/10/2021 8:45:00 PM 8.34 47.012 0.056 6.98 5.42 10.9
5/10/2021 9:00:00 PM 8.25 46.85 0.056 6.97 5.19 10.92
5/10/2021 9:15:00 PM 8.15 46.67 0.056 6.98 5.25 10.94
5/10/2021 9:30:00 PM 8.06 46.508 0.056 6.98 5.57 10.97
5/10/2021 9:45:00 PM 7.97 46.346 0.056 6.98 5.35 11
5/10/2021 10:00:00 PM 7.87 46.166 0.056 6.96 5.2 11.02
5/10/2021 10:15:00 PM 7.78 46.004 0.056 6.96 5.31 11.05
5/10/2021 10:30:00 PM 7.69 45.842 0.056 6.96 5.23 11.08
5/10/2021 10:45:00 PM 7.61 45.698 0.056 6.97 5.15 11.1
5/10/2021 11:00:00 PM 7.53 45.554 0.056 6.97 5.13 11.12
5/10/2021 11:15:00 PM 7.46 45.428 0.056 6.96 5.15 11.15
5/10/2021 11:30:00 PM 7.38 45.284 0.056 6.97 5.15 11.17
5/10/2021 11:45:00 PM 7.3 45.14 0.056 6.97 5.26 11.19
5/11/2021 12:00:00 AM 7.23 45.014 0.056 6.97 4.92 11.21
5/11/2021 12:15:00 AM 7.16 44.888 0.056 6.97 4.81 11.23
5/11/2021 12:30:00 AM 7.1 44.78 0.055 6.96 5.21 11.25
5/11/2021 12:45:00 AM 7.04 44.672 0.055 6.97 5.02 11.27
5/11/2021 1:00:00 AM 6.97 44.546 0.055 6.96 4.75 11.29
5/11/2021 1:15:00 AM 6.92 44.456 0.055 6.95 5.1 11.31
5/11/2021 1:30:00 AM 6.86 44.348 0.055 6.96 5.12 11.32
5/11/2021 1:45:00 AM 6.8 44.24 0.055 6.95 5.25 11.34
5/11/2021 2:00:00 AM 6.75 44.15 0.055 6.94 5.43 11.36
5/11/2021 2:15:00 AM 6.7 44.06 0.055 6.95 5.13 11.37
5/11/2021 2:30:00 AM 6.66 43.988 0.055 6.95 5.23 11.39
5/11/2021 2:45:00 AM 6.61 43.898 0.055 6.95 4.83 11.41
5/11/2021 3:00:00 AM 6.56 43.808 0.055 6.95 5.02 11.41
5/11/2021 3:15:00 AM 6.53 43.754 0.055 6.94 5.09 11.43
5/11/2021 3:30:00 AM 6.49 43.682 0.055 6.95 4.8 11.44
5/11/2021 3:45:00 AM 6.45 43.61 0.055 6.95 4.93 11.44
5/11/2021 4:00:00 AM 6.41 43.538 0.055 6.95 5.05 11.46
5/11/2021 4:15:00 AM 6.37 43.466 0.055 6.95 4.85 11.47
5/11/2021 4:30:00 AM 6.34 43.412 0.055 6.94 5.11 11.48
5/11/2021 4:45:00 AM 6.3 43.34 0.055 6.96 4.93 11.5
5/11/2021 5:00:00 AM 6.27 43.286 0.055 6.95 4.93 11.5
5/11/2021 5:15:00 AM 6.24 43.232 0.055 6.97 4.88 11.51
5/11/2021 5:30:00 AM 6.21 43.178 0.055 6.97 4.7 11.52
5/11/2021 5:45:00 AM 6.19 43.142 0.055 6.96 4.7 11.53
5/11/2021 6:00:00 AM 6.17 43.106 0.055 6.96 4.8 11.54
5/11/2021 6:15:00 AM 6.14 43.052 0.054 6.95 5.03 11.55
5/11/2021 6:30:00 AM 6.12 43.016 0.055 6.96 4.62 11.57
5/11/2021 6:45:00 AM 6.11 42.998 0.054 6.96 4.74 11.59
5/11/2021 7:00:00 AM 6.12 43.016 0.054 6.98 4.78 11.62
5/11/2021 7:15:00 AM 6.13 43.034 0.054 7.02 4.51 11.64
5/11/2021 7:30:00 AM 6.14 43.052 0.054 6.99 4.71 11.66
5/11/2021 7:45:00 AM 6.16 43.088 0.054 7.01 4.78 11.66
5/11/2021 8:00:00 AM 6.19 43.142 0.054 7 4.69 11.67
5/11/2021 8:15:00 AM 6.23 43.214 0.054 6.99 4.86 11.67
5/11/2021 8:30:00 AM 6.29 43.322 0.053 6.98 4.51 11.67
5/11/2021 8:45:00 AM 6.36 43.448 0.054 6.97 5.66 11.66
5/11/2021 9:00:00 AM 6.44 43.592 0.054 7.04 5 11.66
5/11/2021 9:15:00 AM 6.53 43.754 0.054 7.04 4.81 11.64
5/11/2021 9:30:00 AM 6.67 44.006 0.053 7.01 4.86 11.63
5/11/2021 9:45:00 AM 6.82 44.276 0.053 7.02 4.35 11.59
5/11/2021 10:00:00 AM 6.95 44.51 0.053 7.02 5 11.56
5/11/2021 10:15:00 AM 7.1 44.78 0.053 7.06 4.62 11.52
5/11/2021 10:30:00 AM 7.29 45.122 0.053 7.05 4.61 11.49
5/11/2021 10:45:00 AM 7.38 45.284 0.053 7.06 4.73 11.44
5/11/2021 11:00:00 AM 7.4 45.32 0.053 7.04 4.8 11.41
5/11/2021 11:15:00 AM 7.51 45.518 0.053 7.05 4.48 11.4
5/11/2021 11:30:00 AM 7.68 45.824 0.053 7.05 4.74 11.39
5/11/2021 11:45:00 AM 7.79 46.022 0.053 7.04 4.84 11.36
5/11/2021 12:00:00 PM 7.86 46.148 0.052 7.04 4.9 11.34
5/11/2021 12:15:00 PM 8.06 46.508 0.052 7.04 6.09 11.31
5/11/2021 12:30:00 PM 8.15 46.67 0.052 7.05 5.42 11.28
5/11/2021 12:45:00 PM 8.36 47.048 0.052 7.06 5.09 11.24
5/11/2021 1:00:00 PM 8.67 47.606 0.049 6.95 5 11.18
5/11/2021 1:15:00 PM 8.87 47.966 0.052 7.05 5.89 11.12
5/11/2021 1:30:00 PM 8.87 47.966 0.052 7.06 6.61 11.07
5/11/2021 1:45:00 PM 8.97 48.146 0.052 7.09 5.8 11.04
5/11/2021 2:00:00 PM 9.2 48.56 0.052 7.07 5.39 10.99
5/11/2021 2:15:00 PM 9.27 48.686 0.052 7.08 5.09 10.97
5/11/2021 2:30:00 PM 9.27 48.686 0.052 7.08 5.1 10.95
5/11/2021 2:45:00 PM 9.24 48.632 0.052 7.1 5.07 10.94
5/11/2021 3:00:00 PM 9.3 48.74 0.052 7.09 5.05 10.92
5/11/2021 3:15:00 PM 9.33 48.794 0.052 7.09 5.2 10.91
5/11/2021 3:30:00 PM 9.39 48.902 0.052 7.08 5.05 10.89
5/11/2021 3:45:00 PM 9.49 49.082 0.052 7.08 5.15 10.88
5/11/2021 4:00:00 PM 9.48 49.064 0.052 7.08 4.98 10.86
5/11/2021 4:15:00 PM 9.44 48.992 0.052 7.08 5.47 10.85
5/11/2021 4:30:00 PM 9.4 48.92 0.052 7.11 5 10.86
5/11/2021 4:45:00 PM 9.39 48.902 0.052 7.14 5.07 10.86
5/11/2021 5:00:00 PM 9.37 48.866 0.052 7.14 5.31 10.87
5/11/2021 5:15:00 PM 9.33 48.794 0.052 7.15 5.18 10.87
5/11/2021 5:30:00 PM 9.22 48.596 0.052 7.15 5.1 10.89
5/11/2021 5:45:00 PM 9.15 48.47 0.052 7.15 5.13 10.9
5/11/2021 6:00:00 PM 9.08 48.344 0.052 7.16 4.9 10.91
5/11/2021 6:15:00 PM 8.95 48.11 0.052 7.14 5.64 10.91
5/11/2021 6:30:00 PM 8.84 47.912 0.052 7.12 4.98 10.94
5/11/2021 6:45:00 PM 8.75 47.75 0.052 7.12 5.33 10.97
5/11/2021 7:00:00 PM 8.63 47.534 0.052 7.11 4.99 10.98
5/11/2021 7:15:00 PM 8.5 47.3 0.052 7.07 5.07 10.99
5/11/2021 7:30:00 PM 8.38 47.084 0.052 7.04 5.04 11.01
5/11/2021 7:45:00 PM 8.27 46.886 0.052 7.06 5.09 11.02
5/11/2021 8:00:00 PM 8.17 46.706 0.052 7.08 4.85 11.04
5/11/2021 8:15:00 PM 8.07 46.526 0.052 7.09 5.32 11.05
5/11/2021 8:30:00 PM 7.97 46.346 0.052 7.08 4.82 11.07
5/11/2021 8:45:00 PM 7.88 46.184 0.052 7.06 5.28 11.09
5/11/2021 9:00:00 PM 7.79 46.022 0.052 7.04 4.94 11.11
5/11/2021 9:15:00 PM 7.71 45.878 0.052 7.02 5.09 11.13
5/11/2021 9:30:00 PM 7.63 45.734 0.052 7.02 4.97 11.15
5/11/2021 9:45:00 PM 7.56 45.608 0.052 7.02 5.35 11.17
5/11/2021 10:00:00 PM 7.47 45.446 0.052 7 5.15 11.2
5/11/2021 10:15:00 PM 7.4 45.32 0.052 6.98 5.3 11.22
5/11/2021 10:30:00 PM 7.32 45.176 0.052 7 4.87 11.24
5/11/2021 10:45:00 PM 7.26 45.068 0.052 7 4.95 11.26
5/11/2021 11:00:00 PM 7.19 44.942 0.053 6.97 4.7 11.28
5/11/2021 11:15:00 PM 7.12 44.816 0.052 6.99 4.97 11.3
5/11/2021 11:30:00 PM 7.05 44.69 0.053 6.96 5.04 11.32
5/11/2021 11:45:00 PM 6.99 44.582 0.052 7 4.72 11.34
5/12/2021 12:00:00 AM 6.93 44.474 0.052 7.04 4.58 11.36
5/12/2021 12:15:00 AM 6.87 44.366 0.052 7.02 4.47 11.37
5/12/2021 12:30:00 AM 6.83 44.294 0.053 7.03 4.09 11.39
5/12/2021 12:45:00 AM 6.79 44.222 0.052 7.01 4.22 11.4
5/12/2021 1:00:00 AM 6.75 44.15 0.053 7.01 4.41 11.42
5/12/2021 1:15:00 AM 6.7 44.06 0.052 6.99 4.41 11.42
5/12/2021 1:30:00 AM 6.66 43.988 0.052 6.99 4.49 11.45
5/12/2021 1:45:00 AM 6.63 43.934 0.052 6.99 4.41 11.45
5/12/2021 2:00:00 AM 6.6 43.88 0.053 6.98 4.45 11.46
5/12/2021 2:15:00 AM 6.58 43.844 0.052 6.97 4.13 11.47
5/12/2021 2:30:00 AM 6.55 43.79 0.053 6.96 4.22 11.47
5/12/2021 2:45:00 AM 6.52 43.736 0.052 6.97 4.28 11.48
5/12/2021 3:00:00 AM 6.51 43.718 0.052 6.94 4.21 11.48
5/12/2021 3:15:00 AM 6.51 43.718 0.053 6.92 4.29 11.48
5/12/2021 3:30:00 AM 6.51 43.718 0.052 6.91 4.22 11.48
5/12/2021 3:45:00 AM 6.52 43.736 0.052 6.91 4.02 11.48
5/12/2021 4:00:00 AM 6.53 43.754 0.052 6.91 4.25 11.48
5/12/2021 4:15:00 AM 6.53 43.754 0.052 6.92 4.28 11.48
5/12/2021 4:30:00 AM 6.53 43.754 0.052 6.93 4.09 11.49
5/12/2021 4:45:00 AM 6.52 43.736 0.052 6.92 4.27 11.48
5/12/2021 5:00:00 AM 6.52 43.736 0.052 6.93 4.32 11.48
5/12/2021 5:15:00 AM 6.52 43.736 0.052 6.92 4 11.48
5/12/2021 5:30:00 AM 6.51 43.718 0.052 6.91 4.43 11.49
5/12/2021 5:45:00 AM 6.51 43.718 0.053 6.91 4.02 11.5
5/12/2021 6:00:00 AM 6.49 43.682 0.053 6.9 4.12 11.5
5/12/2021 6:15:00 AM 6.47 43.646 0.053 6.91 4.36 11.51
5/12/2021 6:30:00 AM 6.46 43.628 0.052 6.93 3.87 11.53
5/12/2021 6:45:00 AM 6.44 43.592 0.052 6.93 4.03 11.54
5/12/2021 7:00:00 AM 6.42 43.556 0.052 6.94 4.05 11.57
5/12/2021 7:15:00 AM 6.41 43.538 0.053 6.96 4.02 11.58
5/12/2021 7:30:00 AM 6.42 43.556 0.052 6.97 3.87 11.6
5/12/2021 7:45:00 AM 6.44 43.592 0.052 6.98 4 11.63
5/12/2021 8:00:00 AM 6.48 43.664 0.053 7.01 4.28 11.64
5/12/2021 8:15:00 AM 6.53 43.754 0.052 7.05 3.64 11.65
5/12/2021 8:30:00 AM 6.59 43.862 0.052 7.11 3.68 11.65
5/12/2021 8:45:00 AM 6.67 44.006 0.052 7.1 3.74 11.65
5/12/2021 9:00:00 AM 6.74 44.132 0.052 7.09 3.59 11.63
5/12/2021 9:15:00 AM 6.83 44.294 0.052 7.07 3.29 11.62
5/12/2021 9:30:00 AM 6.95 44.51 0.052 7.06 3.61 11.6
5/12/2021 9:45:00 AM 7.1 44.78 0.052 7.05 3.64 11.58
5/12/2021 10:00:00 AM 7.26 45.068 0.052 7.06 3.59 11.55
5/12/2021 10:15:00 AM 7.45 45.41 0.052 7.06 3.67 11.51
5/12/2021 10:30:00 AM 7.66 45.788 0.052 7.06 3.88 11.47
5/12/2021 10:45:00 AM 7.85 46.13 0.052 7.05 3.62 11.42
5/12/2021 11:00:00 AM 8.06 46.508 0.051 7.07 3.52 11.36
5/12/2021 11:15:00 AM 8.3 46.94 0.052 7.05 3.66 11.32
5/12/2021 11:30:00 AM 8.6 47.48 0.052 7.04 3.95 11.26
5/12/2021 11:45:00 AM 8.9 48.02 0.052 7.05 4.07 11.2
5/12/2021 12:00:00 PM 9.12 48.416 0.052 7.05 3.9 11.14
5/12/2021 12:15:00 PM 9.18 48.524 0.052 7.06 3.79 11.08
5/12/2021 12:30:00 PM 9.14 48.452 0.052 7.06 3.76 11.07
5/12/2021 12:45:00 PM 9.15 48.47 0.052 7.06 4.2 11.06
5/12/2021 1:00:00 PM 9.27 48.686 0.052 7.06 3.94 11.03
5/12/2021 1:15:00 PM 9.39 48.902 0.052 7.07 3.9 11.01
5/12/2021 1:30:00 PM 9.38 48.884 0.052 7.04 4.06 10.98
5/12/2021 1:45:00 PM 9.59 49.262 0.052 7.05 4.01 10.96
5/12/2021 2:00:00 PM 9.77 49.586 0.052 7.06 4.14 10.92
5/12/2021 2:15:00 PM 9.96 49.928 0.052 7.05 3.92 10.9
5/12/2021 2:30:00 PM 9.96 49.928 0.052 7.05 4.12 10.85
5/12/2021 2:45:00 PM 9.88 49.784 0.052 7.04 4.25 10.85
5/12/2021 3:00:00 PM 10 50 0.052 7.04 4.28 10.84
5/12/2021 3:15:00 PM 10.09 50.162 0.052 7.04 4.25 10.79
5/12/2021 3:30:00 PM 10.08 50.144 0.052 7.04 4.66 10.81
5/12/2021 3:45:00 PM 10.16 50.288 0.052 7.03 4.58 10.8
5/12/2021 4:00:00 PM 10.14 50.252 0.052 7.06 6.63 10.79
5/12/2021 4:15:00 PM 10.11 50.198 0.055 7.06 6.41 10.78
5/12/2021 4:30:00 PM 10.07 50.126 0.052 6.87 6.3 10.78
5/12/2021 4:45:00 PM 10.07 50.126 0.052 7.05 5.36 10.76
5/12/2021 5:00:00 PM 9.96 49.928 0.052 7.04 4.66 10.77
5/12/2021 5:15:00 PM 9.94 49.892 0.053 7.04 4.51 10.78
5/12/2021 5:30:00 PM 9.87 49.766 0.053 7.05 4.31 10.77
5/12/2021 5:45:00 PM 9.8 49.64 0.053 7.06 4.66 10.78
5/12/2021 6:00:00 PM 9.76 49.568 0.053 7.04 4.59 10.77
5/12/2021 6:15:00 PM 9.72 49.496 0.053 7.05 4.32 10.77
5/12/2021 6:30:00 PM 9.65 49.37 0.053 7.05 4.36 10.79
5/12/2021 6:45:00 PM 9.56 49.208 0.053 7.02 4.23 10.79
5/12/2021 7:00:00 PM 9.45 49.01 0.053 7.02 4.47 10.8
5/12/2021 7:15:00 PM 9.33 48.794 0.053 7.01 4.19 10.81
5/12/2021 7:30:00 PM 9.24 48.632 0.053 6.99 4.42 10.82
5/12/2021 7:45:00 PM 9.15 48.47 0.053 6.98 6.87 10.83
5/12/2021 8:00:00 PM 9.05 48.29 0.053 6.98 4.33 10.84
5/12/2021 8:15:00 PM 8.95 48.11 0.053 6.97 4.55 10.86
5/12/2021 8:30:00 PM 8.84 47.912 0.053 6.98 4.39 10.86
5/12/2021 8:45:00 PM 8.74 47.732 0.053 6.94 4.38 10.89
5/12/2021 9:00:00 PM 8.64 47.552 0.053 6.96 4.33 10.9
5/12/2021 9:15:00 PM 8.53 47.354 0.053 6.95 4.9 10.92
5/12/2021 9:30:00 PM 8.43 47.174 0.053 6.96 4.27 10.96
5/12/2021 9:45:00 PM 8.33 46.994 0.053 6.94 4.52 10.98
5/12/2021 10:00:00 PM 8.23 46.814 0.053 6.95 4.56 11.01
5/12/2021 10:15:00 PM 8.13 46.634 0.053 6.94 4.58 11.04
5/12/2021 10:30:00 PM 8.03 46.454 0.054 6.93 4.64 11.07
5/12/2021 10:45:00 PM 7.93 46.274 0.054 6.94 4.48 11.1
5/12/2021 11:00:00 PM 7.84 46.112 0.054 6.94 4.23 11.12
5/12/2021 11:15:00 PM 7.75 45.95 0.054 6.93 4.58 11.14
5/12/2021 11:30:00 PM 7.66 45.788 0.054 6.93 4.35 11.17
5/12/2021 11:45:00 PM 7.57 45.626 0.054 6.93 4.45 11.2
5/13/2021 12:00:00 AM 7.49 45.482 0.054 6.92 4.48 11.22
5/13/2021 12:15:00 AM 7.41 45.338 0.054 6.93 4.05 11.24
5/13/2021 12:30:00 AM 7.33 45.194 0.054 6.92 4.2 11.27
5/13/2021 12:45:00 AM 7.25 45.05 0.054 6.93 3.95 11.29
5/13/2021 1:00:00 AM 7.17 44.906 0.054 6.93 3.85 11.31
5/13/2021 1:15:00 AM 7.1 44.78 0.054 6.94 4.22 11.34
5/13/2021 1:30:00 AM 7.03 44.654 0.054 6.94 3.93 11.35
5/13/2021 1:45:00 AM 6.96 44.528 0.054 6.95 3.82 11.37
5/13/2021 2:00:00 AM 6.9 44.42 0.054 6.92 4.06 11.39
5/13/2021 2:15:00 AM 6.83 44.294 0.054 6.92 3.91 11.41
5/13/2021 2:30:00 AM 6.78 44.204 0.054 6.92 3.87 11.42
5/13/2021 2:45:00 AM 6.72 44.096 0.054 6.92 3.76 11.44
5/13/2021 3:00:00 AM 6.67 44.006 0.054 6.93 3.89 11.45
5/13/2021 3:15:00 AM 6.62 43.916 0.054 6.94 4.18 11.47
5/13/2021 3:30:00 AM 6.58 43.844 0.054 6.93 4.03 11.48
5/13/2021 3:45:00 AM 6.53 43.754 0.054 6.93 3.88 11.49
5/13/2021 4:00:00 AM 6.5 43.7 0.054 6.93 4.02 11.5
5/13/2021 4:15:00 AM 6.46 43.628 0.054 6.94 3.91 11.52
5/13/2021 4:30:00 AM 6.42 43.556 0.054 6.93 3.57 11.54
5/13/2021 4:45:00 AM 6.38 43.484 0.054 6.92 3.84 11.54
5/13/2021 5:00:00 AM 6.35 43.43 0.054 6.92 3.71 11.55
5/13/2021 5:15:00 AM 6.32 43.376 0.054 6.93 3.89 11.56
5/13/2021 5:30:00 AM 6.28 43.304 0.054 6.93 4.36 11.57
5/13/2021 5:45:00 AM 6.25 43.25 0.054 6.94 3.75 11.58
5/13/2021 6:00:00 AM 6.23 43.214 0.054 6.93 4.06 11.59
5/13/2021 6:15:00 AM 6.21 43.178 0.054 6.93 3.89 11.61
5/13/2021 6:30:00 AM 6.19 43.142 0.054 6.94 3.79 11.62
5/13/2021 6:45:00 AM 6.17 43.106 0.054 6.94 3.6 11.64
5/13/2021 7:00:00 AM 6.16 43.088 0.054 6.95 3.8 11.66
5/13/2021 7:15:00 AM 6.15 43.07 0.054 6.96 3.44 11.68
5/13/2021 7:30:00 AM 6.16 43.088 0.054 6.95 3.46 11.7
5/13/2021 7:45:00 AM 6.18 43.124 0.054 6.97 3.49 11.71
5/13/2021 8:00:00 AM 6.21 43.178 0.054 6.96 3.33 11.72
5/13/2021 8:15:00 AM 6.25 43.25 0.054 6.97 3.34 11.73
5/13/2021 8:30:00 AM 6.32 43.376 0.054 6.97 3.42 11.74
5/13/2021 8:45:00 AM 6.4 43.52 0.054 6.99 3.84 11.74
5/13/2021 9:00:00 AM 6.49 43.682 0.054 7 3.71 11.73
5/13/2021 9:15:00 AM 6.62 43.916 0.054 7 3.67 11.71
5/13/2021 9:30:00 AM 6.8 44.24 0.054 7.01 3.4 11.68
5/13/2021 9:45:00 AM 7.01 44.618 0.054 7.02 3.06 11.64
5/13/2021 10:00:00 AM 7.22 44.996 0.054 7.03 3.19 11.59
5/13/2021 10:15:00 AM 7.46 45.428 0.054 7.03 3.24 11.54
5/13/2021 10:30:00 AM 7.71 45.878 0.054 7.03 3.09 11.49
5/13/2021 10:45:00 AM 7.92 46.256 0.054 7.02 3.61 11.43
5/13/2021 11:00:00 AM 8.23 46.814 0.054 7.04 3.43 11.38
5/13/2021 11:15:00 AM 8.53 47.354 0.054 7.03 3.32 11.31
5/13/2021 11:30:00 AM 8.83 47.894 0.054 7.04 3.29 11.24
5/13/2021 11:45:00 AM 8.93 48.074 0.054 7.05 3.22 11.16
5/13/2021 12:00:00 PM 8.99 48.182 0.054 7.04 3.69 11.11
5/13/2021 12:15:00 PM 9.26 48.668 0.054 7.05 3.49 11.08
5/13/2021 12:30:00 PM 9.38 48.884 0.054 7.05 3.75 11.03
5/13/2021 12:45:00 PM 9.51 49.118 0.054 7.06 3.07 11.01
5/13/2021 1:00:00 PM 9.63 49.334 0.054 7.06 3.21 10.97
5/13/2021 1:15:00 PM 9.7 49.46 0.054 7.05 3.99 10.94
5/13/2021 1:30:00 PM 9.84 49.712 0.053 7.06 3.97 10.92
5/13/2021 1:45:00 PM 9.82 49.676 0.053 7.06 3.63 10.89
5/13/2021 2:00:00 PM 9.78 49.604 0.054 7.06 3.96 10.89
5/13/2021 2:15:00 PM 9.91 49.838 0.054 7.06 3.44 10.9
5/13/2021 2:30:00 PM 10.09 50.162 0.054 7.07 3.6 10.86
5/13/2021 2:45:00 PM 10.15 50.27 0.054 7.06 3.55 10.83
5/13/2021 3:00:00 PM 10.13 50.234 0.055 7.07 3 10.81
5/13/2021 3:15:00 PM 10.13 50.234 0.054 7.06 4.92 10.81
5/13/2021 3:30:00 PM 10.33 50.594 0.054 7.07 4.11 10.77
5/13/2021 3:45:00 PM 10.31 50.558 0.054 7.06 4.04 10.75
5/13/2021 4:00:00 PM 10.34 50.612 0.054 7.06 3.99 10.74
5/13/2021 4:15:00 PM 10.44 50.792 0.054 7.06 3.44 10.72
5/13/2021 4:30:00 PM 10.58 51.044 0.054 7.07 3.87 10.69
5/13/2021 4:45:00 PM 10.53 50.954 0.054 7.06 3.44 10.67
5/13/2021 5:00:00 PM 10.45 50.81 0.054 7.06 3.42 10.68
5/13/2021 5:15:00 PM 10.47 50.846 0.054 7.05 3.5 10.66
5/13/2021 5:30:00 PM 10.49 50.882 0.054 7.05 4.1 10.65
5/13/2021 5:45:00 PM 10.48 50.864 0.054 7.05 3.86 10.65
5/13/2021 6:00:00 PM 10.44 50.792 0.054 7.05 3.56 10.66
5/13/2021 6:15:00 PM 10.37 50.666 0.054 7.05 3.56 10.64
5/13/2021 6:30:00 PM 10.25 50.45 0.054 7.03 3.53 10.63
5/13/2021 6:45:00 PM 10.11 50.198 0.054 7.03 3.78 10.63
5/13/2021 7:00:00 PM 9.99 49.982 0.054 7.01 3.87 10.63
5/13/2021 7:15:00 PM 9.89 49.802 0.054 7 3.97 10.64
5/13/2021 7:30:00 PM 9.79 49.622 0.054 7 3.9 10.65
5/13/2021 7:45:00 PM 9.68 49.424 0.054 6.99 3.9 10.67
5/13/2021 8:00:00 PM 9.57 49.226 0.055 6.98 3.7 10.69
5/13/2021 8:15:00 PM 9.46 49.028 0.055 6.97 3.91 10.7
5/13/2021 8:30:00 PM 9.36 48.848 0.055 6.95 3.8 10.71
5/13/2021 8:45:00 PM 9.25 48.65 0.055 6.95 3.77 10.72
5/13/2021 9:00:00 PM 9.15 48.47 0.055 6.95 3.9 10.74
5/13/2021 9:15:00 PM 9.04 48.272 0.055 6.94 3.89 10.76
5/13/2021 9:30:00 PM 8.94 48.092 0.055 6.94 3.99 10.8
5/13/2021 9:45:00 PM 8.83 47.894 0.055 6.95 3.9 10.83
5/13/2021 10:00:00 PM 8.73 47.714 0.055 6.94 3.67 10.85
5/13/2021 10:15:00 PM 8.63 47.534 0.055 6.94 3.79 10.88
5/13/2021 10:30:00 PM 8.53 47.354 0.055 6.94 3.59 10.91
5/13/2021 10:45:00 PM 8.44 47.192 0.055 6.93 3.58 10.94
5/13/2021 11:00:00 PM 8.35 47.03 0.055 6.94 3.46 10.96
5/13/2021 11:15:00 PM 8.26 46.868 0.055 6.93 3.63 10.98
5/13/2021 11:30:00 PM 8.17 46.706 0.055 6.94 3.71 11.01
5/13/2021 11:45:00 PM 8.09 46.562 0.056 6.93 3.83 11.04
5/14/2021 12:00:00 AM 8.01 46.418 0.056 6.94 3.85 11.06
5/14/2021 12:15:00 AM 7.93 46.274 0.056 6.93 3.75 11.08
5/14/2021 12:30:00 AM 7.85 46.13 0.055 6.93 3.58 11.1
5/14/2021 12:45:00 AM 7.78 46.004 0.056 6.92 3.49 11.12
5/14/2021 1:00:00 AM 7.71 45.878 0.056 6.93 3.67 11.14
5/14/2021 1:15:00 AM 7.64 45.752 0.056 6.93 3.65 11.17
5/14/2021 1:30:00 AM 7.57 45.626 0.056 6.94 3.41 11.18
5/14/2021 1:45:00 AM 7.51 45.518 0.056 6.93 3.39 11.2
5/14/2021 2:00:00 AM 7.44 45.392 0.056 6.93 3.87 11.22
5/14/2021 2:15:00 AM 7.38 45.284 0.056 6.95 3.88 11.24
5/14/2021 2:30:00 AM 7.32 45.176 0.056 6.93 3.62 11.25
5/14/2021 2:45:00 AM 7.26 45.068 0.056 6.93 3.54 11.27
5/14/2021 3:00:00 AM 7.2 44.96 0.056 6.94 3.66 11.29
5/14/2021 3:15:00 AM 7.14 44.852 0.056 6.94 3.54 11.3
5/14/2021 3:30:00 AM 7.09 44.762 0.056 6.94 3.44 11.32
5/14/2021 3:45:00 AM 7.03 44.654 0.056 6.94 3.39 11.34
5/14/2021 4:00:00 AM 6.98 44.564 0.056 6.94 3.41 11.35
5/14/2021 4:15:00 AM 6.92 44.456 0.056 6.93 3.47 11.37
5/14/2021 4:30:00 AM 6.87 44.366 0.056 6.94 3.43 11.38
5/14/2021 4:45:00 AM 6.82 44.276 0.056 6.94 3.4 11.4
5/14/2021 5:00:00 AM 6.77 44.186 0.056 6.94 3.56 11.42
5/14/2021 5:15:00 AM 6.73 44.114 0.056 6.95 3.83 11.43
5/14/2021 5:30:00 AM 6.68 44.024 0.056 6.94 3.46 11.44
5/14/2021 5:45:00 AM 6.64 43.952 0.056 6.95 3.52 11.46
5/14/2021 6:00:00 AM 6.6 43.88 0.056 6.94 3.49 11.48
5/14/2021 6:15:00 AM 6.56 43.808 0.056 6.95 3.49 11.49
5/14/2021 6:30:00 AM 6.52 43.736 0.056 6.95 3.54 11.53
5/14/2021 6:45:00 AM 6.49 43.682 0.056 6.96 3.25 11.55
5/14/2021 7:00:00 AM 6.46 43.628 0.056 6.97 3.5 11.57
5/14/2021 7:15:00 AM 6.45 43.61 0.056 6.96 3.42 11.6
5/14/2021 7:30:00 AM 6.45 43.61 0.056 6.98 3 11.62
5/14/2021 7:45:00 AM 6.45 43.61 0.056 6.98 3.09 11.64
5/14/2021 8:00:00 AM 6.47 43.646 0.056 6.99 3.08 11.66
5/14/2021 8:15:00 AM 6.51 43.718 0.056 7.01 3.2 11.67
5/14/2021 8:30:00 AM 6.56 43.808 0.056 7 3.33 11.67
5/14/2021 8:45:00 AM 6.64 43.952 0.056 7.01 3.04 11.68
5/14/2021 9:00:00 AM 6.74 44.132 0.056 7.02 3.02 11.66
5/14/2021 9:15:00 AM 6.85 44.33 0.056 7.04 3.15 11.65
5/14/2021 9:30:00 AM 7 44.6 0.056 7.05 2.99 11.63
5/14/2021 9:45:00 AM 7.2 44.96 0.056 7.04 3.08 11.6
5/14/2021 10:00:00 AM 7.43 45.374 0.056 7.07 3.13 11.55
5/14/2021 10:15:00 AM 7.59 45.662 0.056 7.06 3.18 11.49
5/14/2021 10:30:00 AM 7.74 45.932 0.056 7.07 2.88 11.45
5/14/2021 10:45:00 AM 8.02 46.436 0.055 7.08 3.35 11.4
5/14/2021 11:00:00 AM 8.31 46.958 0.055 7.06 3.29 11.35
5/14/2021 11:15:00 AM 8.6 47.48 0.055 7.07 3.22 11.27
5/14/2021 11:30:00 AM 8.89 48.002 0.055 7.06 3.13 11.2
5/14/2021 11:45:00 AM 9.27 48.686 0.055 7.07 3.13 11.13
5/14/2021 12:00:00 PM 9.64 49.352 0.055 7.08 3.46 11.06
5/14/2021 12:15:00 PM 9.76 49.568 0.055 7.07 3.38 10.94
5/14/2021 12:30:00 PM 9.55 49.19 0.055 7.06 3.26 10.92
5/14/2021 12:45:00 PM 9.57 49.226 0.055 7.06 3.2 10.9
5/14/2021 1:00:00 PM 9.63 49.334 0.055 7.06 3.75 10.91
5/14/2021 1:15:00 PM 9.7 49.46 0.055 7.06 3.01 10.91
5/14/2021 1:30:00 PM 9.77 49.586 0.055 7.08 3.62 10.91
5/14/2021 1:45:00 PM 9.81 49.658 0.055 7.07 3.04 10.92
5/14/2021 2:00:00 PM 9.81 49.658 0.055 7.09 3.12 10.92
5/14/2021 2:15:00 PM 9.8 49.64 0.055 7.07 3.38 10.91
5/14/2021 2:30:00 PM 9.84 49.712 0.055 7.08 3.1 10.91
5/14/2021 2:45:00 PM 10.05 50.09 0.055 7.09 2.97 10.87
5/14/2021 3:00:00 PM 10.15 50.27 0.055 7.09 3.17 10.84
5/14/2021 3:15:00 PM 10.18 50.324 0.055 7.09 3.37 10.83
5/14/2021 3:30:00 PM 10.3 50.54 0.055 7.11 3.63 10.8
5/14/2021 3:45:00 PM 10.39 50.702 0.055 7.1 3.47 10.75
5/14/2021 4:00:00 PM 10.41 50.738 0.055 7.1 3.16 10.71
5/14/2021 4:15:00 PM 10.41 50.738 0.055 7.08 3.14 10.68
5/14/2021 4:30:00 PM 10.4 50.72 0.055 7.08 3.27 10.68
5/14/2021 4:45:00 PM 10.38 50.684 0.055 7.08 3.15 10.7
5/14/2021 5:00:00 PM 10.35 50.63 0.055 7.09 3.35 10.71
5/14/2021 5:15:00 PM 10.3 50.54 0.056 7.09 3.21 10.71
5/14/2021 5:30:00 PM 10.24 50.432 0.056 7.09 3.11 10.7
5/14/2021 5:45:00 PM 10.21 50.378 0.056 7.07 3.16 10.69
5/14/2021 6:00:00 PM 10.19 50.342 0.056 7.07 3.4 10.7
5/14/2021 6:15:00 PM 10.17 50.306 0.056 7.06 3.29 10.7
5/14/2021 6:30:00 PM 10.15 50.27 0.056 7.06 3.07 10.7
5/14/2021 6:45:00 PM 10.14 50.252 0.056 7.06 3.37 10.68
5/14/2021 7:00:00 PM 10.11 50.198 0.056 7.05 3.36 10.67
5/14/2021 7:15:00 PM 10.06 50.108 0.056 7.03 3.14 10.66
5/14/2021 7:30:00 PM 9.99 49.982 0.056 7.03 3.51 10.65
5/14/2021 7:45:00 PM 9.93 49.874 0.056 7.02 3.21 10.65
5/14/2021 8:00:00 PM 9.88 49.784 0.056 7.01 3.25 10.63
5/14/2021 8:15:00 PM 9.81 49.658 0.056 7 3.27 10.62
5/14/2021 8:30:00 PM 9.73 49.514 0.056 6.97 3.91 10.62
5/14/2021 8:45:00 PM 9.64 49.352 0.056 6.97 3.57 10.62
5/14/2021 9:00:00 PM 9.54 49.172 0.057 6.95 3.3 10.63
5/14/2021 9:15:00 PM 9.45 49.01 0.057 6.96 3.88 10.65
5/14/2021 9:30:00 PM 9.36 48.848 0.057 6.95 3.86 10.67
5/14/2021 9:45:00 PM 9.29 48.722 0.057 6.96 3.64 10.69
5/14/2021 10:00:00 PM 9.21 48.578 0.057 6.95 3.4 10.72
5/14/2021 10:15:00 PM 9.14 48.452 0.057 6.95 3.65 10.74
5/14/2021 10:30:00 PM 9.05 48.29 0.057 6.95 3.38 10.76
5/14/2021 10:45:00 PM 8.96 48.128 0.057 6.96 3.48 10.78
5/14/2021 11:00:00 PM 8.88 47.984 0.057 6.96 3.27 10.81
5/14/2021 11:15:00 PM 8.8 47.84 0.057 6.96 3.29 10.83
5/14/2021 11:30:00 PM 8.74 47.732 0.057 6.95 3.48 10.85
5/14/2021 11:45:00 PM 8.66 47.588 0.057 6.95 3.87 10.87
5/15/2021 12:00:00 AM 8.59 47.462 0.057 6.95 3.52 10.88
5/15/2021 12:15:00 AM 8.52 47.336 0.057 6.95 3.19 10.9
5/15/2021 12:30:00 AM 8.45 47.21 0.057 6.94 3.66 10.92
5/15/2021 12:45:00 AM 8.37 47.066 0.057 6.96 3.65 10.94
5/15/2021 1:00:00 AM 8.3 46.94 0.057 6.96 3.73 10.96
5/15/2021 1:15:00 AM 8.24 46.832 0.058 6.95 3.54 10.98
5/15/2021 1:30:00 AM 8.19 46.742 0.058 6.96 3.28 11
5/15/2021 1:45:00 AM 8.13 46.634 0.058 6.96 3.26 11.01
5/15/2021 2:00:00 AM 8.08 46.544 0.058 6.96 3.23 11.03
5/15/2021 2:15:00 AM 8.02 46.436 0.058 6.97 3.54 11.05
5/15/2021 2:30:00 AM 7.98 46.364 0.058 6.96 3.19 11.06
5/15/2021 2:45:00 AM 7.93 46.274 0.058 6.97 3.32 11.08
5/15/2021 3:00:00 AM 7.88 46.184 0.058 6.96 3.29 11.09
5/15/2021 3:15:00 AM 7.83 46.094 0.058 6.96 3.66 11.1
5/15/2021 3:30:00 AM 7.78 46.004 0.058 6.96 3.4 11.12
5/15/2021 3:45:00 AM 7.73 45.914 0.058 6.96 3.05 11.13
5/15/2021 4:00:00 AM 7.67 45.806 0.058 6.96 3.14 11.14
5/15/2021 4:15:00 AM 7.62 45.716 0.058 6.97 3.22 11.16
5/15/2021 4:30:00 AM 7.56 45.608 0.058 6.95 3.33 11.17
5/15/2021 4:45:00 AM 7.51 45.518 0.058 6.96 3 11.19
5/15/2021 5:00:00 AM 7.45 45.41 0.058 6.96 3.16 11.2
5/15/2021 5:15:00 AM 7.4 45.32 0.058 6.96 3.3 11.22
5/15/2021 5:30:00 AM 7.34 45.212 0.058 6.96 3.37 11.24
5/15/2021 5:45:00 AM 7.29 45.122 0.058 6.96 3.19 11.25
5/15/2021 6:00:00 AM 7.24 45.032 0.058 6.96 3.19 11.28
5/15/2021 6:15:00 AM 7.19 44.942 0.058 6.97 3.74 11.3
5/15/2021 6:30:00 AM 7.14 44.852 0.058 6.97 3.08 11.34
5/15/2021 6:45:00 AM 7.1 44.78 0.058 6.98 3.17 11.36
5/15/2021 7:00:00 AM 7.05 44.69 0.058 6.98 3.12 11.39
5/15/2021 7:15:00 AM 7.03 44.654 0.058 7 3 11.43
5/15/2021 7:30:00 AM 7.01 44.618 0.058 7 3.14 11.46
5/15/2021 7:45:00 AM 7.01 44.618 0.058 7.01 3.34 11.48
5/15/2021 8:00:00 AM 7.01 44.618 0.058 7.02 2.89 11.51
5/15/2021 8:15:00 AM 7.03 44.654 0.058 7.02 2.99 11.52
5/15/2021 8:30:00 AM 7.08 44.744 0.058 7.03 3.23 11.53
5/15/2021 8:45:00 AM 7.15 44.87 0.058 7.04 3.03 11.54
5/15/2021 9:00:00 AM 7.23 45.014 0.058 7.04 2.82 11.53
5/15/2021 9:15:00 AM 7.33 45.194 0.058 7.06 2.96 11.52
5/15/2021 9:30:00 AM 7.46 45.428 0.058 7.07 3.15 11.51
5/15/2021 9:45:00 AM 7.63 45.734 0.057 7.07 2.78 11.49
5/15/2021 10:00:00 AM 7.84 46.112 0.057 7.08 2.87 11.45
5/15/2021 10:15:00 AM 8.07 46.526 0.057 7.07 2.79 11.4
5/15/2021 10:30:00 AM 8.33 46.994 0.057 7.08 2.91 11.35
5/15/2021 10:45:00 AM 8.45 47.21 0.057 7.09 3 11.28
5/15/2021 11:00:00 AM 8.54 47.372 0.057 7.09 3.09 11.22
5/15/2021 11:15:00 AM 8.78 47.804 0.057 7.09 2.95 11.19
5/15/2021 11:30:00 AM 9.2 48.56 0.057 7.1 3.24 11.13
5/15/2021 11:45:00 AM 9.51 49.118 0.057 7.1 2.88 11.06
5/15/2021 12:00:00 PM 9.73 49.514 0.057 7.1 3.35 10.99
5/15/2021 12:15:00 PM 10.14 50.252 0.057 7.11 3.08 10.92
5/15/2021 12:30:00 PM 10.31 50.558 0.057 7.12 3.19 10.85
5/15/2021 12:45:00 PM 10.39 50.702 0.057 7.12 3.33 10.81
5/15/2021 1:00:00 PM 10.44 50.792 0.057 7.13 3 10.81
5/15/2021 1:15:00 PM 10.57 51.026 0.057 7.13 3.14 10.78
5/15/2021 1:30:00 PM 10.61 51.098 0.057 7.14 3.12 10.75
5/15/2021 1:45:00 PM 10.76 51.368 0.057 7.15 3.27 10.73
5/15/2021 2:00:00 PM 10.78 51.404 0.057 7.14 3.19 10.68
5/15/2021 2:15:00 PM 10.96 51.728 0.063 7.12 9.57 10.61
5/15/2021 2:30:00 PM 11.01 51.818 0.066 7.06 6.75 10.59
5/15/2021 2:45:00 PM 11.04 51.872 0.065 7.05 5.18 10.55
5/15/2021 3:00:00 PM 11.05 51.89 0.065 7.03 4.55 10.54
5/15/2021 3:15:00 PM 11.05 51.89 0.064 7.03 4.05 10.53
5/15/2021 3:30:00 PM 11 51.8 0.062 7.04 3.73 10.54
5/15/2021 3:45:00 PM 10.96 51.728 0.061 7.06 3.52 10.57
5/15/2021 4:00:00 PM 10.94 51.692 0.06 7.07 3.3 10.57
5/15/2021 4:15:00 PM 10.98 51.764 0.059 7.09 3.3 10.58
5/15/2021 4:30:00 PM 10.98 51.764 0.059 7.11 3.35 10.57
5/15/2021 4:45:00 PM 10.91 51.638 0.059 7.11 3.49 10.56
5/15/2021 5:00:00 PM 10.87 51.566 0.059 7.11 3.26 10.57
5/15/2021 5:15:00 PM 10.84 51.512 0.058 7.12 3.42 10.58
5/15/2021 5:30:00 PM 10.83 51.494 0.058 7.12 3.24 10.58
5/15/2021 5:45:00 PM 10.83 51.494 0.058 7.12 3.6 10.56
5/15/2021 6:00:00 PM 10.82 51.476 0.058 7.12 3.24 10.55
5/15/2021 6:15:00 PM 10.78 51.404 0.058 7.11 3.37 10.55
5/15/2021 6:30:00 PM 10.69 51.242 0.058 7.1 3.28 10.54
5/15/2021 6:45:00 PM 10.6 51.08 0.058 7.09 3.33 10.53
5/15/2021 7:00:00 PM 10.53 50.954 0.058 7.09 3.23 10.53
5/15/2021 7:15:00 PM 10.48 50.864 0.058 7.08 3.1 10.54
5/15/2021 7:30:00 PM 10.41 50.738 0.058 7.08 3.31 10.54
5/15/2021 7:45:00 PM 10.32 50.576 0.058 7.07 3.21 10.53
5/15/2021 8:00:00 PM 10.22 50.396 0.058 7.05 3.42 10.52
5/15/2021 8:15:00 PM 10.11 50.198 0.058 7.03 3.37 10.52
5/15/2021 8:30:00 PM 10.02 50.036 0.058 7.02 3.19 10.52
5/15/2021 8:45:00 PM 9.92 49.856 0.058 7 3.31 10.53
5/15/2021 9:00:00 PM 9.82 49.676 0.058 7.01 3.3 10.54
5/15/2021 9:15:00 PM 9.73 49.514 0.058 6.99 3.35 10.56
5/15/2021 9:30:00 PM 9.64 49.352 0.058 6.99 3.36 10.59
5/15/2021 9:45:00 PM 9.56 49.208 0.058 6.99 3.71 10.61
5/15/2021 10:00:00 PM 9.48 49.064 0.058 6.99 3.35 10.63
5/15/2021 10:15:00 PM 9.39 48.902 0.058 6.99 3.68 10.65
5/15/2021 10:30:00 PM 9.31 48.758 0.058 6.99 3.48 10.67
5/15/2021 10:45:00 PM 9.24 48.632 0.059 6.99 3.41 10.7
5/15/2021 11:00:00 PM 9.17 48.506 0.059 6.99 3.32 10.72
5/15/2021 11:15:00 PM 9.09 48.362 0.059 6.99 3.33 10.74
5/15/2021 11:30:00 PM 9.01 48.218 0.059 6.98 3.53 10.76
5/15/2021 11:45:00 PM 8.95 48.11 0.059 6.98 3.26 10.78
5/16/2021 12:00:00 AM 8.89 48.002 0.059 6.97 3.31 10.79
5/16/2021 12:15:00 AM 8.82 47.876 0.059 6.98 3.15 10.81
5/16/2021 12:30:00 AM 8.77 47.786 0.059 6.98 3.31 10.83
5/16/2021 12:45:00 AM 8.72 47.696 0.059 6.98 3.43 10.84
5/16/2021 1:00:00 AM 8.67 47.606 0.059 6.97 3.32 10.85
5/16/2021 1:15:00 AM 8.62 47.516 0.059 6.99 3.27 10.87
5/16/2021 1:30:00 AM 8.57 47.426 0.059 6.98 3.29 10.88
5/16/2021 1:45:00 AM 8.52 47.336 0.059 6.98 3.24 10.9
5/16/2021 2:00:00 AM 8.46 47.228 0.059 6.98 3.28 10.91
5/16/2021 2:15:00 AM 8.4 47.12 0.059 6.98 3.27 10.92
5/16/2021 2:30:00 AM 8.34 47.012 0.059 6.98 3.22 10.94
5/16/2021 2:45:00 AM 8.29 46.922 0.059 6.98 3.41 10.95
5/16/2021 3:00:00 AM 8.23 46.814 0.059 6.97 3.4 10.97
5/16/2021 3:15:00 AM 8.17 46.706 0.059 6.97 3.16 10.98
5/16/2021 3:30:00 AM 8.12 46.616 0.059 6.98 3.22 11
5/16/2021 3:45:00 AM 8.06 46.508 0.059 6.97 3.52 11.01
5/16/2021 4:00:00 AM 8.01 46.418 0.059 6.98 3.33 11.03
5/16/2021 4:15:00 AM 7.96 46.328 0.059 6.97 3.16 11.05
5/16/2021 4:30:00 AM 7.91 46.238 0.059 6.97 3.27 11.05
5/16/2021 4:45:00 AM 7.86 46.148 0.059 6.98 3.29 11.07
5/16/2021 5:00:00 AM 7.81 46.058 0.059 6.97 3.31 11.09
5/16/2021 5:15:00 AM 7.77 45.986 0.059 6.98 3.21 11.1
5/16/2021 5:30:00 AM 7.74 45.932 0.059 6.98 2.98 11.11
5/16/2021 5:45:00 AM 7.71 45.878 0.059 6.97 3.35 11.12
5/16/2021 6:00:00 AM 7.68 45.824 0.059 6.98 3.9 11.13
5/16/2021 6:15:00 AM 7.65 45.77 0.059 6.99 3.12 11.16
5/16/2021 6:30:00 AM 7.64 45.752 0.059 6.99 3.19 11.18
5/16/2021 6:45:00 AM 7.62 45.716 0.059 7 3.29 11.21
5/16/2021 7:00:00 AM 7.62 45.716 0.059 7.01 3.58 11.24
5/16/2021 7:15:00 AM 7.62 45.716 0.059 7.01 3.18 11.28
5/16/2021 7:30:00 AM 7.64 45.752 0.059 7.03 3.62 11.31
5/16/2021 7:45:00 AM 7.66 45.788 0.059 7.04 3.2 11.31
5/16/2021 8:00:00 AM 7.67 45.806 0.059 7.04 3.15 11.3
5/16/2021 8:15:00 AM 7.69 45.842 0.059 7.05 3.03 11.3
5/16/2021 8:30:00 AM 7.72 45.896 0.059 7.05 2.96 11.3
5/16/2021 8:45:00 AM 7.76 45.968 0.059 7.05 2.8 11.32
5/16/2021 9:00:00 AM 7.85 46.13 0.059 7.07 2.88 11.36
5/16/2021 9:15:00 AM 7.93 46.274 0.061 7.07 3.07 11.34
5/16/2021 9:30:00 AM 8.04 46.472 0.063 7.07 3.36 11.32
5/16/2021 9:45:00 AM 8.14 46.652 0.063 7.08 3.11 11.32
5/16/2021 10:00:00 AM 8.23 46.814 0.062 7.1 2.78 11.3
5/16/2021 10:15:00 AM 8.32 46.976 0.061 7.1 2.97 11.3
5/16/2021 10:30:00 AM 8.43 47.174 0.061 7.11 3.06 11.28
5/16/2021 10:45:00 AM 8.56 47.408 0.06 7.13 3.07 11.26
5/16/2021 11:00:00 AM 8.68 47.624 0.06 7.13 3.17 11.24
5/16/2021 11:15:00 AM 8.81 47.858 0.06 7.13 3 11.22
5/16/2021 11:30:00 AM 8.94 48.092 0.06 7.15 3.24 11.18
5/16/2021 11:45:00 AM 9.05 48.29 0.059 7.15 3.14 11.15
5/16/2021 12:00:00 PM 9.13 48.434 0.059 7.15 3.24 11.11
5/16/2021 12:15:00 PM 9.19 48.542 0.06 7.14 3.17 11.05
5/16/2021 12:30:00 PM 9.22 48.596 0.061 7.13 3.06 10.98
5/16/2021 12:45:00 PM 9.25 48.65 0.06 7.11 3.23 10.96
5/16/2021 1:00:00 PM 9.3 48.74 0.06 7.11 3.2 10.96
5/16/2021 1:15:00 PM 9.39 48.902 0.06 7.13 3.43 10.98
5/16/2021 1:30:00 PM 9.49 49.082 0.06 7.13 3.22 10.98
5/16/2021 1:45:00 PM 9.59 49.262 0.059 7.14 3.25 10.98
5/16/2021 2:00:00 PM 9.7 49.46 0.059 7.15 3.07 10.97
5/16/2021 2:15:00 PM 9.78 49.604 0.059 7.15 2.96 10.95
5/16/2021 2:30:00 PM 9.83 49.694 0.059 7.16 3.04 10.93
5/16/2021 2:45:00 PM 9.88 49.784 0.059 7.16 3.34 10.92
5/16/2021 3:00:00 PM 9.95 49.91 0.059 7.17 3.1 10.9
5/16/2021 3:15:00 PM 10.06 50.108 0.059 7.16 3.06 10.89
5/16/2021 3:30:00 PM 10.17 50.306 0.059 7.17 3.25 10.87
5/16/2021 3:45:00 PM 10.32 50.576 0.059 7.17 3.17 10.84
5/16/2021 4:00:00 PM 10.44 50.792 0.059 7.18 3.17 10.81
5/16/2021 4:15:00 PM 10.5 50.9 0.059 7.17 3.3 10.76
5/16/2021 4:30:00 PM 10.43 50.774 0.059 7.16 3.47 10.71
5/16/2021 4:45:00 PM 10.35 50.63 0.059 7.15 3.15 10.72
5/16/2021 5:00:00 PM 10.32 50.576 0.059 7.15 3.32 10.7
5/16/2021 5:15:00 PM 10.3 50.54 0.059 7.14 3.1 10.68
5/16/2021 5:30:00 PM 10.28 50.504 0.059 7.13 3.29 10.68
5/16/2021 5:45:00 PM 10.27 50.486 0.059 7.13 3.1 10.67
5/16/2021 6:00:00 PM 10.24 50.432 0.059 7.13 3.33 10.66
5/16/2021 6:15:00 PM 10.2 50.36 0.059 7.11 3.11 10.63
5/16/2021 6:30:00 PM 10.16 50.288 0.059 7.1 3.15 10.62
5/16/2021 6:45:00 PM 10.13 50.234 0.059 7.08 3.07 10.6
5/16/2021 7:00:00 PM 10.1 50.18 0.059 7.08 3.22 10.61
5/16/2021 7:15:00 PM 10.06 50.108 0.06 7.07 2.92 10.62
5/16/2021 7:30:00 PM 10.01 50.018 0.059 7.06 3.16 10.61
5/16/2021 7:45:00 PM 9.95 49.91 0.059 7.06 3.31 10.61
5/16/2021 8:00:00 PM 9.88 49.784 0.06 7.05 3.2 10.6
5/16/2021 8:15:00 PM 9.82 49.676 0.06 7.04 3.23 10.59
5/16/2021 8:30:00 PM 9.75 49.55 0.06 7.03 3.41 10.59
5/16/2021 8:45:00 PM 9.68 49.424 0.06 7.02 3.23 10.59
5/16/2021 9:00:00 PM 9.61 49.298 0.06 7.02 3.3 10.6
5/16/2021 9:15:00 PM 9.53 49.154 0.06 7.01 3.31 10.61
5/16/2021 9:30:00 PM 9.44 48.992 0.06 7.01 3.43 10.63
5/16/2021 9:45:00 PM 9.36 48.848 0.06 7.01 3.45 10.65
5/16/2021 10:00:00 PM 9.28 48.704 0.06 7 3.71 10.67
5/16/2021 10:15:00 PM 9.2 48.56 0.06 7.01 3.38 10.7
5/16/2021 10:30:00 PM 9.11 48.398 0.06 7.01 3.37 10.71
5/16/2021 10:45:00 PM 9.03 48.254 0.06 7.01 3.35 10.73
5/16/2021 11:00:00 PM 8.94 48.092 0.06 7.01 3.45 10.76
5/16/2021 11:15:00 PM 8.85 47.93 0.061 7 3.24 10.79
5/16/2021 11:30:00 PM 8.76 47.768 0.06 7 3.25 10.81
5/16/2021 11:45:00 PM 8.68 47.624 0.061 7.01 3.54 10.83
5/17/2021 12:00:00 AM 8.6 47.48 0.061 7 3.67 10.86
5/17/2021 12:15:00 AM 8.52 47.336 0.061 7.01 3.38 10.88
5/17/2021 12:30:00 AM 8.45 47.21 0.061 7 3.24 10.9
5/17/2021 12:45:00 AM 8.37 47.066 0.061 7.01 3.12 10.92
5/17/2021 1:00:00 AM 8.29 46.922 0.061 7.01 3.08 10.95
5/17/2021 1:15:00 AM 8.22 46.796 0.061 7.01 3.31 10.97
5/17/2021 1:30:00 AM 8.15 46.67 0.061 7.01 3.19 10.99
5/17/2021 1:45:00 AM 8.08 46.544 0.061 7.01 3.26 11.01
5/17/2021 2:00:00 AM 8.01 46.418 0.061 7.01 3.07 11.03
5/17/2021 2:15:00 AM 7.94 46.292 0.06 7.01 3.01 11.05
5/17/2021 2:30:00 AM 7.87 46.166 0.061 7.01 3.2 11.07
5/17/2021 2:45:00 AM 7.81 46.058 0.06 7.02 2.98 11.09
5/17/2021 3:00:00 AM 7.75 45.95 0.06 7.01 2.93 11.1
5/17/2021 3:15:00 AM 7.68 45.824 0.06 7.01 3.26 11.12
5/17/2021 3:30:00 AM 7.62 45.716 0.06 7.02 3.26 11.14
5/17/2021 3:45:00 AM 7.56 45.608 0.061 7.01 2.96 11.16
5/17/2021 4:00:00 AM 7.5 45.5 0.06 7.02 3.04 11.18
5/17/2021 4:15:00 AM 7.45 45.41 0.06 7.02 2.92 11.19
5/17/2021 4:30:00 AM 7.39 45.302 0.06 7.01 3.03 11.21
5/17/2021 4:45:00 AM 7.33 45.194 0.06 7.01 3.26 11.22
5/17/2021 5:00:00 AM 7.28 45.104 0.06 7.01 3.02 11.24
5/17/2021 5:15:00 AM 7.22 44.996 0.06 7.01 2.93 11.26
5/17/2021 5:30:00 AM 7.17 44.906 0.06 7.01 3 11.27
5/17/2021 5:45:00 AM 7.12 44.816 0.06 7.01 3.01 11.29
5/17/2021 6:00:00 AM 7.07 44.726 0.06 7.01 3.01 11.31
5/17/2021 6:15:00 AM 7.02 44.636 0.061 7.01 3.04 11.34
5/17/2021 6:30:00 AM 6.98 44.564 0.06 7.03 3.79 11.37
5/17/2021 6:45:00 AM 6.95 44.51 0.06 7.04 4.1 11.4
5/17/2021 7:00:00 AM 6.91 44.438 0.06 7.05 4.39 11.43
5/17/2021 7:15:00 AM 6.89 44.402 0.061 7.04 3.89 11.46
5/17/2021 7:30:00 AM 6.89 44.402 0.06 7.06 4.08 11.49
5/17/2021 7:45:00 AM 6.9 44.42 0.06 7.06 4.28 11.52
5/17/2021 8:00:00 AM 6.92 44.456 0.06 7.07 3.11 11.54
5/17/2021 8:15:00 AM 6.96 44.528 0.06 7.08 3.09 11.56
5/17/2021 8:30:00 AM 7.02 44.636 0.06 7.09 3.26 11.57
5/17/2021 8:45:00 AM 7.1 44.78 0.06 7.1 3.25 11.57
5/17/2021 9:00:00 AM 7.2 44.96 0.06 7.11 3.07 11.57
5/17/2021 9:15:00 AM 7.32 45.176 0.06 7.12 3.01 11.55
5/17/2021 9:30:00 AM 7.47 45.446 0.06 7.13 3.21 11.53
5/17/2021 9:45:00 AM 7.65 45.77 0.06 7.16 7.42 11.51
5/17/2021 10:00:00 AM 7.86 46.148 0.06 7.15 2.78 11.46
5/17/2021 10:15:00 AM 8.1 46.58 0.06 7.15 2.67 11.42
5/17/2021 10:30:00 AM 8.37 47.066 0.06 7.15 2.75 11.36
5/17/2021 10:45:00 AM 8.66 47.588 0.06 7.16 2.6 11.3
5/17/2021 11:00:00 AM 8.96 48.128 0.06 7.17 2.72 11.22
5/17/2021 11:15:00 AM 9.27 48.686 0.06 7.18 2.63 11.16
5/17/2021 11:30:00 AM 9.61 49.298 0.06 7.18 2.84 11.08
5/17/2021 11:45:00 AM 9.94 49.892 0.06 7.2 2.77 10.99
5/17/2021 12:00:00 PM 10.21 50.378 0.06 7.2 2.86 10.9
5/17/2021 12:15:00 PM 10.5 50.9 0.06 7.19 2.98 10.82
5/17/2021 12:30:00 PM 10.88 51.584 0.06 7.2 2.93 10.75
5/17/2021 12:45:00 PM 11.07 51.926 0.06 7.21 2.97 10.66
5/17/2021 1:00:00 PM 11.35 52.43 0.06 7.21 3.05 10.61
5/17/2021 1:15:00 PM 11.43 52.574 0.06 7.21 3 10.56
5/17/2021 1:30:00 PM 11.5 52.7 0.06 7.22 2.95 10.52
5/17/2021 1:45:00 PM 11.64 52.952 0.06 7.22 2.97 10.47
5/17/2021 2:00:00 PM 11.75 53.15 0.06 7.22 3.17 10.45
5/17/2021 2:15:00 PM 11.86 53.348 0.064 7.2 3.24 10.42
5/17/2021 2:30:00 PM 11.98 53.564 0.064 7.2 3.3 10.38
5/17/2021 2:45:00 PM 12.3 54.14 0.063 7.21 3.32 10.32
5/17/2021 3:00:00 PM 12.46 54.428 0.063 7.21 3.09 10.29
5/17/2021 3:15:00 PM 12.58 54.644 0.062 7.22 3 10.25
5/17/2021 3:30:00 PM 12.7 54.86 0.062 7.23 3.06 10.22
5/17/2021 3:45:00 PM 12.97 55.346 0.061 7.23 3.26 10.15
5/17/2021 4:00:00 PM 13.1 55.58 0.061 7.23 3.03 10.1
5/17/2021 4:15:00 PM 13.28 55.904 0.061 7.23 2.95 10.07
5/17/2021 4:30:00 PM 13.33 55.994 0.061 7.23 3.03 10.02
5/17/2021 4:45:00 PM 13.28 55.904 0.061 7.22 3.09 10.01
5/17/2021 5:00:00 PM 13.14 55.652 0.061 7.22 3.18 10.04
5/17/2021 5:15:00 PM 13.03 55.454 0.061 7.22 3.07 10.06
5/17/2021 5:30:00 PM 12.8 55.04 0.061 7.21 3.44 10.06
5/17/2021 5:45:00 PM 12.57 54.626 0.061 7.19 3.13 10.11
5/17/2021 6:00:00 PM 12.38 54.284 0.061 7.19 3.2 10.14
5/17/2021 6:15:00 PM 12.23 54.014 0.061 7.18 3.16 10.16
5/17/2021 6:30:00 PM 12.12 53.816 0.061 7.18 3.26 10.2
5/17/2021 6:45:00 PM 12.01 53.618 0.061 7.17 3 10.2
5/17/2021 7:00:00 PM 11.9 53.42 0.061 7.16 3.45 10.19
5/17/2021 7:15:00 PM 11.8 53.24 0.061 7.15 3.16 10.2
5/17/2021 7:30:00 PM 11.71 53.078 0.061 7.15 3.1 10.2
5/17/2021 7:45:00 PM 11.62 52.916 0.061 7.13 3.11 10.2
5/17/2021 8:00:00 PM 11.54 52.772 0.061 7.13 3.21 10.2
5/17/2021 8:15:00 PM 11.44 52.592 0.061 7.1 3.39 10.19
5/17/2021 8:30:00 PM 11.33 52.394 0.061 7.08 3.4 10.19
5/17/2021 8:45:00 PM 11.22 52.196 0.061 7.07 3.53 10.19
5/17/2021 9:00:00 PM 11.1 51.98 0.061 7.05 3.24 10.21
5/17/2021 9:15:00 PM 10.98 51.764 0.062 7.04 3.34 10.22
5/17/2021 9:30:00 PM 10.87 51.566 0.062 7.04 3.5 10.25
5/17/2021 9:45:00 PM 10.76 51.368 0.062 7.04 3.42 10.28
5/17/2021 10:00:00 PM 10.65 51.17 0.062 7.03 3.37 10.3
5/17/2021 10:15:00 PM 10.56 51.008 0.062 7.03 3.25 10.33
5/17/2021 10:30:00 PM 10.47 50.846 0.062 7.02 3.27 10.36
5/17/2021 10:45:00 PM 10.39 50.702 0.062 7.02 3.46 10.38
5/17/2021 11:00:00 PM 10.31 50.558 0.062 7.03 3.37 10.4
5/17/2021 11:15:00 PM 10.23 50.414 0.062 7.03 3.25 10.42
5/17/2021 11:30:00 PM 10.14 50.252 0.062 7.04 3.19 10.45
5/17/2021 11:45:00 PM 10.05 50.09 0.062 7.05 3.3 10.47
5/18/2021 12:00:00 AM 9.96 49.928 0.062 7.04 3.22 10.5
5/18/2021 12:15:00 AM 9.87 49.766 0.062 7.03 3.44 10.52
5/18/2021 12:30:00 AM 9.78 49.604 0.062 7.04 3.29 10.55
5/18/2021 12:45:00 AM 9.69 49.442 0.062 7.04 3.12 10.56
5/18/2021 1:00:00 AM 9.61 49.298 0.062 7.03 3.35 10.59
5/18/2021 1:15:00 AM 9.54 49.172 0.062 7.03 3.21 10.61
5/18/2021 1:30:00 AM 9.46 49.028 0.062 7.04 3.33 10.63
5/18/2021 1:45:00 AM 9.38 48.884 0.062 7.03 3.19 10.65
5/18/2021 2:00:00 AM 9.3 48.74 0.062 7.04 3.24 10.67
5/18/2021 2:15:00 AM 9.22 48.596 0.062 7.04 3.22 10.69
5/18/2021 2:30:00 AM 9.14 48.452 0.062 7.05 3.19 10.72
5/18/2021 2:45:00 AM 9.06 48.308 0.062 7.05 3.21 10.73
5/18/2021 3:00:00 AM 8.99 48.182 0.062 7.05 3.11 10.75
5/18/2021 3:15:00 AM 8.92 48.056 0.062 7.05 3.14 10.78
5/18/2021 3:30:00 AM 8.85 47.93 0.062 7.04 3.18 10.8
5/18/2021 3:45:00 AM 8.78 47.804 0.062 7.04 3.25 10.81
5/18/2021 4:00:00 AM 8.71 47.678 0.063 7.04 3.11 10.83
5/18/2021 4:15:00 AM 8.64 47.552 0.063 7.04 3.01 10.85
5/18/2021 4:30:00 AM 8.57 47.426 0.063 7.03 3.08 10.87
5/18/2021 4:45:00 AM 8.51 47.318 0.063 7.04 3.16 10.89
5/18/2021 5:00:00 AM 8.44 47.192 0.063 7.03 3.17 10.91
5/18/2021 5:15:00 AM 8.38 47.084 0.063 7.03 2.92 10.92
5/18/2021 5:30:00 AM 8.32 46.976 0.063 7.02 3.27 10.94
5/18/2021 5:45:00 AM 8.26 46.868 0.063 7.02 3.11 10.96
5/18/2021 6:00:00 AM 8.21 46.778 0.063 7.02 3.09 10.99
5/18/2021 6:15:00 AM 8.15 46.67 0.063 7.04 3 11.01
5/18/2021 6:30:00 AM 8.11 46.598 0.063 7.04 3.01 11.05
5/18/2021 6:45:00 AM 8.07 46.526 0.063 7.05 3.19 11.08
5/18/2021 7:00:00 AM 8.03 46.454 0.063 7.05 3.36 11.12
5/18/2021 7:15:00 AM 8.01 46.418 0.063 7.07 2.96 11.15
5/18/2021 7:30:00 AM 8.01 46.418 0.063 7.07 3.03 11.18
5/18/2021 7:45:00 AM 8.02 46.436 0.062 7.08 3.08 11.21
5/18/2021 8:00:00 AM 8.05 46.49 0.062 7.1 2.78 11.24
5/18/2021 8:15:00 AM 8.08 46.544 0.062 7.11 2.92 11.26
5/18/2021 8:30:00 AM 8.12 46.616 0.062 7.12 2.92 11.27
5/18/2021 8:45:00 AM 8.19 46.742 0.062 7.12 2.86 11.28
5/18/2021 9:00:00 AM 8.28 46.904 0.062 7.13 2.74 11.28
5/18/2021 9:15:00 AM 8.39 47.102 0.062 7.14 2.83 11.27
5/18/2021 9:30:00 AM 8.52 47.336 0.062 7.15 2.95 11.26
5/18/2021 9:45:00 AM 8.69 47.642 0.062 7.16 3 11.23
5/18/2021 10:00:00 AM 8.89 48.002 0.062 7.17 3.2 11.2
5/18/2021 10:15:00 AM 9.11 48.398 0.062 7.18 2.94 11.16
5/18/2021 10:30:00 AM 9.36 48.848 0.062 7.18 2.95 11.12
5/18/2021 10:45:00 AM 9.64 49.352 0.062 7.19 3.19 11.06
5/18/2021 11:00:00 AM 9.94 49.892 0.062 7.2 3.07 11
5/18/2021 11:15:00 AM 10.09 50.162 0.062 7.21 3.04 10.94
5/18/2021 11:30:00 AM 10.38 50.684 0.062 7.22 2.91 10.89
5/18/2021 11:45:00 AM 10.8 51.44 0.062 7.22 2.92 10.81
5/18/2021 12:00:00 PM 11.15 52.07 0.062 7.24 3.12 10.72
5/18/2021 12:15:00 PM 11.52 52.736 0.062 7.25 2.84 10.64
5/18/2021 12:30:00 PM 11.86 53.348 0.061 7.24 2.99 10.56
5/18/2021 12:45:00 PM 12.21 53.978 0.061 7.24 3.33 10.47
5/18/2021 1:00:00 PM 12.53 54.554 0.061 7.25 3.17 10.4
5/18/2021 1:15:00 PM 12.86 55.148 0.061 7.24 3.24 10.32
5/18/2021 1:30:00 PM 13.16 55.688 0.061 7.25 3.27 10.24
5/18/2021 1:45:00 PM 13.37 56.066 0.061 7.25 2.99 10.17
5/18/2021 2:00:00 PM 13.54 56.372 0.061 7.25 3.23 10.11
5/18/2021 2:15:00 PM 13.75 56.75 0.061 7.25 3.04 10.06
5/18/2021 2:30:00 PM 13.94 57.092 0.061 7.25 3.13 10.01
5/18/2021 2:45:00 PM 14.13 57.434 0.061 7.26 3.13 9.96
5/18/2021 3:00:00 PM 14.24 57.632 0.061 7.26 3.04 9.92
5/18/2021 3:15:00 PM 14.35 57.83 0.062 7.25 3.23 9.88
5/18/2021 3:30:00 PM 14.44 57.992 0.061 7.26 3.36 9.85
5/18/2021 3:45:00 PM 14.51 58.118 0.061 7.25 3.22 9.83
5/18/2021 4:00:00 PM 14.53 58.154 0.061 7.25 3.24 9.8
5/18/2021 4:15:00 PM 14.46 58.028 0.061 7.25 3.23 9.79
5/18/2021 4:30:00 PM 14.38 57.884 0.061 7.23 3.51 9.76
5/18/2021 4:45:00 PM 14.34 57.812 0.061 7.23 3.78 9.78
5/18/2021 5:00:00 PM 14.33 57.794 0.062 7.23 3.5 9.77
5/18/2021 5:15:00 PM 14.34 57.812 0.062 7.22 3.12 9.75
5/18/2021 5:30:00 PM 14.28 57.704 0.062 7.22 3.32 9.74
5/18/2021 5:45:00 PM 14.22 57.596 0.062 7.2 3.41 9.73
5/18/2021 6:00:00 PM 14.16 57.488 0.062 7.19 3.37 9.71
5/18/2021 6:15:00 PM 14.09 57.362 0.062 7.2 3.31 9.7
5/18/2021 6:30:00 PM 14.01 57.218 0.062 7.18 3.11 9.69
5/18/2021 6:45:00 PM 13.91 57.038 0.062 7.17 3.3 9.7
5/18/2021 7:00:00 PM 13.79 56.822 0.062 7.17 3.23 9.71
5/18/2021 7:15:00 PM 13.65 56.57 0.062 7.16 3.13 9.72
5/18/2021 7:30:00 PM 13.5 56.3 0.062 7.14 3.27 9.73
5/18/2021 7:45:00 PM 13.33 55.994 0.062 7.13 3.39 9.75
5/18/2021 8:00:00 PM 13.15 55.67 0.063 7.12 3.39 9.76
5/18/2021 8:15:00 PM 12.98 55.364 0.063 7.1 3.27 9.78
5/18/2021 8:30:00 PM 12.81 55.058 0.063 7.08 3.82 9.8
5/18/2021 8:45:00 PM 12.64 54.752 0.063 7.07 3.48 9.82
5/18/2021 9:00:00 PM 12.47 54.446 0.063 7.06 3.25 9.85
5/18/2021 9:15:00 PM 12.3 54.14 0.063 7.06 3.41 9.88
5/18/2021 9:30:00 PM 12.14 53.852 0.063 7.05 3.47 9.92
5/18/2021 9:45:00 PM 11.98 53.564 0.063 7.04 4.08 9.96
5/18/2021 10:00:00 PM 11.84 53.312 0.063 7.05 3.44 9.99
5/18/2021 10:15:00 PM 11.71 53.078 0.064 7.05 3.61 10.03
5/18/2021 10:30:00 PM 11.58 52.844 0.063 7.05 3.31 10.06
5/18/2021 10:45:00 PM 11.46 52.628 0.063 7.05 3.6 10.09
5/18/2021 11:00:00 PM 11.34 52.412 0.064 7.05 3.46 10.13
5/18/2021 11:15:00 PM 11.21 52.178 0.064 7.04 3.49 10.15
5/18/2021 11:30:00 PM 11.09 51.962 0.064 7.05 3.63 10.18
5/18/2021 11:45:00 PM 10.98 51.764 0.064 7.05 3.47 10.22
5/19/2021 12:00:00 AM 10.87 51.566 0.064 7.05 3.32 10.25
5/19/2021 12:15:00 AM 10.76 51.368 0.064 7.05 3.26 10.27
5/19/2021 12:30:00 AM 10.65 51.17 0.064 7.05 3.42 10.3
5/19/2021 12:45:00 AM 10.55 50.99 0.064 7.04 3.36 10.33
5/19/2021 1:00:00 AM 10.44 50.792 0.064 7.04 3.42 10.35
5/19/2021 1:15:00 AM 10.34 50.612 0.064 7.05 3.51 10.38
5/19/2021 1:30:00 AM 10.25 50.45 0.064 7.05 3.45 10.4
5/19/2021 1:45:00 AM 10.16 50.288 0.064 7.05 3.38 10.43
5/19/2021 2:00:00 AM 10.07 50.126 0.064 7.04 3.48 10.45
5/19/2021 2:15:00 AM 9.99 49.982 0.064 7.05 3.56 10.47
5/19/2021 2:30:00 AM 9.9 49.82 0.064 7.04 3.48 10.5
5/19/2021 2:45:00 AM 9.82 49.676 0.064 7.05 3.53 10.52
5/19/2021 3:00:00 AM 9.73 49.514 0.064 7.04 3.14 10.54
5/19/2021 3:15:00 AM 9.66 49.388 0.064 7.04 3.35 10.56
5/19/2021 3:30:00 AM 9.58 49.244 0.064 7.06 3.21 10.58
5/19/2021 3:45:00 AM 9.5 49.1 0.064 7.04 3.28 10.6
5/19/2021 4:00:00 AM 9.43 48.974 0.064 7.04 3.26 10.62
5/19/2021 4:15:00 AM 9.36 48.848 0.064 7.05 3.33 10.65
5/19/2021 4:30:00 AM 9.3 48.74 0.064 7.04 3.33 10.66
5/19/2021 4:45:00 AM 9.23 48.614 0.064 7.04 3.46 10.69
5/19/2021 5:00:00 AM 9.16 48.488 0.064 7.03 3.19 10.71
5/19/2021 5:15:00 AM 9.1 48.38 0.064 7.04 3.21 10.73
5/19/2021 5:30:00 AM 9.04 48.272 0.064 7.06 3.17 10.75
5/19/2021 5:45:00 AM 8.98 48.164 0.064 7.04 3.1 10.75
5/19/2021 6:00:00 AM 8.92 48.056 0.064 7.05 3.1 10.78
5/19/2021 6:15:00 AM 8.87 47.966 0.064 7.06 3.54 10.82
5/19/2021 6:30:00 AM 8.82 47.876 0.064 7.05 3.59 10.85
5/19/2021 6:45:00 AM 8.78 47.804 0.064 7.06 3.11 10.89
5/19/2021 7:00:00 AM 8.74 47.732 0.064 7.07 3.41 10.92
5/19/2021 7:15:00 AM 8.72 47.696 0.064 7.08 3.31 10.95
5/19/2021 7:30:00 AM 8.72 47.696 0.064 7.1 3.34 10.99
5/19/2021 7:45:00 AM 8.73 47.714 0.064 7.1 2.8 11.03
5/19/2021 8:00:00 AM 8.75 47.75 0.064 7.11 2.91 11.04
5/19/2021 8:15:00 AM 8.79 47.822 0.064 7.13 3.1 11.06
5/19/2021 8:30:00 AM 8.83 47.894 0.064 7.14 2.74 11.08
5/19/2021 8:45:00 AM 8.9 48.02 0.064 7.15 3.59 11.09
5/19/2021 9:00:00 AM 8.99 48.182 0.064 7.15 3.17 11.09
5/19/2021 9:15:00 AM 9.09 48.362 0.064 7.15 2.96 11.1
5/19/2021 9:30:00 AM 9.22 48.596 0.064 7.16 2.91 11.08
5/19/2021 9:45:00 AM 9.38 48.884 0.063 7.18 3.11 11.06
5/19/2021 10:00:00 AM 9.57 49.226 0.064 7.19 3.01 11.03
5/19/2021 10:15:00 AM 9.79 49.622 0.063 7.19 2.87 11
5/19/2021 10:30:00 AM 10.03 50.054 0.063 7.2 2.87 10.96
5/19/2021 10:45:00 AM 10.3 50.54 0.063 7.21 2.8 10.9
5/19/2021 11:00:00 AM 10.58 51.044 0.063 7.22 2.94 10.85
5/19/2021 11:15:00 AM 10.87 51.566 0.063 7.23 2.84 10.79
5/19/2021 11:30:00 AM 11.18 52.124 0.063 7.23 2.84 10.72
5/19/2021 11:45:00 AM 11.52 52.736 0.063 7.24 3.13 10.66
5/19/2021 12:00:00 PM 11.86 53.348 0.063 7.25 3.27 10.58
5/19/2021 12:15:00 PM 12.22 53.996 0.063 7.26 3.14 10.49
5/19/2021 12:30:00 PM 12.59 54.662 0.063 7.26 3.07 10.41
5/19/2021 12:45:00 PM 12.94 55.292 0.063 7.26 3.06 10.33
5/19/2021 1:00:00 PM 13.28 55.904 0.063 7.27 3.14 10.25
5/19/2021 1:15:00 PM 13.6 56.48 0.063 7.29 2.87 10.17
5/19/2021 1:30:00 PM 13.9 57.02 0.063 7.28 3.29 10.09
5/19/2021 1:45:00 PM 14.16 57.488 0.063 7.28 3.15 10.02
5/19/2021 2:00:00 PM 14.38 57.884 0.063 7.28 3.72 9.97
5/19/2021 2:15:00 PM 14.57 58.226 0.063 7.28 3.61 9.92
5/19/2021 2:30:00 PM 14.71 58.478 0.063 7.29 3.21 9.88
5/19/2021 2:45:00 PM 14.85 58.73 0.063 7.29 3.17 9.85
5/19/2021 3:00:00 PM 14.94 58.892 0.063 7.29 3.23 9.8
5/19/2021 3:15:00 PM 15.03 59.054 0.063 7.29 3.21 9.77
5/19/2021 3:30:00 PM 15.11 59.198 0.063 7.3 3.05 9.75
5/19/2021 3:45:00 PM 15.15 59.27 0.063 7.29 3.34 9.73
5/19/2021 4:00:00 PM 15.2 59.36 0.063 7.29 2.9 9.7
5/19/2021 4:15:00 PM 15.25 59.45 0.063 7.28 3.19 9.67
5/19/2021 4:30:00 PM 15.24 59.432 0.063 7.27 3.02 9.65
5/19/2021 4:45:00 PM 15.2 59.36 0.063 7.27 2.93 9.64
5/19/2021 5:00:00 PM 15.12 59.216 0.063 7.26 2.91 9.65
5/19/2021 5:15:00 PM 15 59 0.063 7.27 3.43 9.67
5/19/2021 5:30:00 PM 14.9 58.82 0.063 7.26 3.19 9.68
5/19/2021 5:45:00 PM 14.83 58.694 0.063 7.25 3.23 9.68
5/19/2021 6:00:00 PM 14.75 58.55 0.063 7.24 3.25 9.67
5/19/2021 6:15:00 PM 14.66 58.388 0.063 7.24 3.46 9.65
5/19/2021 6:30:00 PM 14.57 58.226 0.063 7.22 3.36 9.62
5/19/2021 6:45:00 PM 14.47 58.046 0.063 7.2 3.52 9.63
5/19/2021 7:00:00 PM 14.36 57.848 0.063 7.19 3.13 9.63
5/19/2021 7:15:00 PM 14.25 57.65 0.063 7.18 3.56 9.64
5/19/2021 7:30:00 PM 14.12 57.416 0.064 7.16 3.25 9.65
5/19/2021 7:45:00 PM 13.99 57.182 0.064 7.15 3.17 9.64
5/19/2021 8:00:00 PM 13.85 56.93 0.064 7.13 3.21 9.63
5/19/2021 8:15:00 PM 13.71 56.678 0.064 7.11 3.28 9.63
5/19/2021 8:30:00 PM 13.56 56.408 0.064 7.1 3.33 9.63
5/19/2021 8:45:00 PM 13.42 56.156 0.064 7.08 3.3 9.64
5/19/2021 9:00:00 PM 13.28 55.904 0.064 7.07 3.41 9.66
5/19/2021 9:15:00 PM 13.14 55.652 0.064 7.06 3.48 9.68
5/19/2021 9:30:00 PM 13.01 55.418 0.065 7.05 3.51 9.71
5/19/2021 9:45:00 PM 12.88 55.184 0.065 7.04 3.49 9.74
5/19/2021 10:00:00 PM 12.76 54.968 0.065 7.04 3.41 9.77
5/19/2021 10:15:00 PM 12.64 54.752 0.065 7.03 3.48 9.79
5/19/2021 10:30:00 PM 12.52 54.536 0.065 7.04 3.42 9.82
5/19/2021 10:45:00 PM 12.4 54.32 0.065 7.03 3.51 9.85
5/19/2021 11:00:00 PM 12.29 54.122 0.065 7.04 3.6 9.88
5/19/2021 11:15:00 PM 12.17 53.906 0.065 7.04 3.5 9.91
5/19/2021 11:30:00 PM 12.06 53.708 0.065 7.04 3.28 9.94
5/19/2021 11:45:00 PM 11.95 53.51 0.065 7.05 3.42 9.97
5/20/2021 12:00:00 AM 11.84 53.312 0.065 7.05 4.28 9.99
5/20/2021 12:15:00 AM 11.73 53.114 0.065 7.04 4.14 10.02
5/20/2021 12:30:00 AM 11.62 52.916 0.065 7.05 3.43 10.05
5/20/2021 12:45:00 AM 11.52 52.736 0.065 7.04 3.54 10.07
5/20/2021 1:00:00 AM 11.41 52.538 0.065 7.05 3.28 10.1
5/20/2021 1:15:00 AM 11.31 52.358 0.065 7.05 3.54 10.13
5/20/2021 1:30:00 AM 11.22 52.196 0.065 7.05 3.3 10.15
5/20/2021 1:45:00 AM 11.13 52.034 0.065 7.05 3.29 10.18
5/20/2021 2:00:00 AM 11.03 51.854 0.065 7.05 3.33 10.2
5/20/2021 2:15:00 AM 10.94 51.692 0.065 7.05 3.55 10.23
5/20/2021 2:30:00 AM 10.85 51.53 0.065 7.05 3.73 10.25
5/20/2021 2:45:00 AM 10.76 51.368 0.065 7.05 3.5 10.28
5/20/2021 3:00:00 AM 10.68 51.224 0.065 7.06 3.54 10.3
5/20/2021 3:15:00 AM 10.59 51.062 0.065 7.05 3.45 10.32
5/20/2021 3:30:00 AM 10.51 50.918 0.065 7.06 3.34 10.35
5/20/2021 3:45:00 AM 10.43 50.774 0.065 7.06 3.24 10.36
5/20/2021 4:00:00 AM 10.36 50.648 0.065 7.06 3.47 10.39
5/20/2021 4:15:00 AM 10.3 50.54 0.066 7.06 3.27 10.4
5/20/2021 4:30:00 AM 10.22 50.396 0.065 7.05 3.04 10.42
5/20/2021 4:45:00 AM 10.16 50.288 0.065 7.05 3.08 10.44
5/20/2021 5:00:00 AM 10.09 50.162 0.065 7.05 3.36 10.46
5/20/2021 5:15:00 AM 10.04 50.072 0.065 7.06 3.29 10.48
5/20/2021 5:30:00 AM 9.98 49.964 0.065 7.06 3.66 10.49
5/20/2021 5:45:00 AM 9.93 49.874 0.065 7.05 3.42 10.51
5/20/2021 6:00:00 AM 9.88 49.784 0.065 7.06 3.33 10.53
5/20/2021 6:15:00 AM 9.83 49.694 0.065 7.07 3.1 10.56
5/20/2021 6:30:00 AM 9.79 49.622 0.065 7.07 3.38 10.6
5/20/2021 6:45:00 AM 9.75 49.55 0.065 7.07 3.05 10.65
5/20/2021 7:00:00 AM 9.73 49.514 0.065 7.09 3.06 10.69
5/20/2021 7:15:00 AM 9.73 49.514 0.065 7.09 3.03 10.72
5/20/2021 7:30:00 AM 9.72 49.496 0.065 7.11 3.05 10.75
5/20/2021 7:45:00 AM 9.71 49.478 0.065 7.12 3.07 10.77
5/20/2021 8:00:00 AM 9.71 49.478 0.065 7.12 3.16 10.79
5/20/2021 8:15:00 AM 9.76 49.568 0.065 7.13 2.99 10.83
5/20/2021 8:30:00 AM 9.83 49.694 0.065 7.15 3.21 10.86
5/20/2021 8:45:00 AM 9.91 49.838 0.065 7.17 3.44 10.87
5/20/2021 9:00:00 AM 9.99 49.982 0.065 7.18 3.06 10.87
5/20/2021 9:15:00 AM 10.1 50.18 0.065 7.19 3.01 10.88
5/20/2021 9:30:00 AM 10.17 50.306 0.065 7.19 2.88 10.88
5/20/2021 9:45:00 AM 10.26 50.468 0.065 7.21 3.19 10.87
5/20/2021 10:00:00 AM 10.38 50.684 0.065 7.22 2.82 10.86
5/20/2021 10:15:00 AM 10.63 51.134 0.065 7.23 2.9 10.82
5/20/2021 10:30:00 AM 10.96 51.728 0.064 7.24 3.6 10.78
5/20/2021 10:45:00 AM 11.16 52.088 0.066 7.25 4.69 10.73
5/20/2021 11:00:00 AM 11.31 52.358 0.064 7.25 3.34 10.69
5/20/2021 11:15:00 AM 11.45 52.61 0.064 7.25 3.03 10.67
5/20/2021 11:30:00 AM 11.72 53.096 0.064 7.26 3.29 10.61
5/20/2021 11:45:00 AM 12.11 53.798 0.064 7.27 3.01 10.54
5/20/2021 12:00:00 PM 12.46 54.428 0.064 7.28 2.92 10.46
5/20/2021 12:15:00 PM 12.8 55.04 0.064 7.28 2.92 10.37
5/20/2021 12:30:00 PM 13.11 55.598 0.064 7.28 3.05 10.31
5/20/2021 12:45:00 PM 13.45 56.21 0.064 7.29 2.95 10.23
5/20/2021 1:00:00 PM 13.79 56.822 0.064 7.28 3.22 10.15
5/20/2021 1:15:00 PM 14.11 57.398 0.064 7.29 3.25 10.07
5/20/2021 1:30:00 PM 14.42 57.956 0.064 7.28 3.17 9.99
5/20/2021 1:45:00 PM 14.69 58.442 0.064 7.3 3.09 9.91
5/20/2021 2:00:00 PM 14.94 58.892 0.064 7.29 3.36 9.85
5/20/2021 2:15:00 PM 15.14 59.252 0.064 7.29 3.24 9.79
5/20/2021 2:30:00 PM 15.31 59.558 0.064 7.29 3.12 9.73
5/20/2021 2:45:00 PM 15.47 59.846 0.064 7.28 3.11 9.68
5/20/2021 3:00:00 PM 15.62 60.116 0.064 7.29 2.95 9.64
5/20/2021 3:15:00 PM 15.74 60.332 0.064 7.29 3.23 9.59
5/20/2021 3:30:00 PM 15.87 60.566 0.064 7.27 3.48 9.56
5/20/2021 3:45:00 PM 15.92 60.656 0.064 7.29 3.44 9.51
5/20/2021 4:00:00 PM 15.93 60.674 0.064 7.27 4.64 9.49
5/20/2021 4:15:00 PM 15.88 60.584 0.064 7.27 3.02 9.48
5/20/2021 4:30:00 PM 15.81 60.458 0.064 7.26 2.97 9.47
5/20/2021 4:45:00 PM 15.8 60.44 0.064 7.26 3.47 9.47
5/20/2021 5:00:00 PM 15.81 60.458 0.064 7.26 3.33 9.45
5/20/2021 5:15:00 PM 15.82 60.476 0.064 7.24 3.37 9.43
5/20/2021 5:30:00 PM 15.8 60.44 0.064 7.24 3.16 9.41
5/20/2021 5:45:00 PM 15.79 60.422 0.064 7.24 3.38 9.41
5/20/2021 6:00:00 PM 15.75 60.35 0.064 7.23 3.22 9.39
5/20/2021 6:15:00 PM 15.7 60.26 0.065 7.23 3.65 9.38
5/20/2021 6:30:00 PM 15.62 60.116 0.065 7.21 3.35 9.37
5/20/2021 6:45:00 PM 15.49 59.882 0.065 7.19 3.62 9.36
5/20/2021 7:00:00 PM 15.37 59.666 0.065 7.18 3.26 9.36
5/20/2021 7:15:00 PM 15.25 59.45 0.065 7.17 3.79 9.36
5/20/2021 7:30:00 PM 15.12 59.216 0.065 7.14 3.62 9.36
5/20/2021 7:45:00 PM 14.99 58.982 0.065 7.13 3.7 9.37
5/20/2021 8:00:00 PM 14.84 58.712 0.065 7.12 3.48 9.37
5/20/2021 8:15:00 PM 14.69 58.442 0.065 7.11 3.79 9.39
5/20/2021 8:30:00 PM 14.53 58.154 0.065 7.1 3.37 9.39
5/20/2021 8:45:00 PM 14.37 57.866 0.066 7.09 3.87 9.41
5/20/2021 9:00:00 PM 14.21 57.578 0.066 7.09 3.44 9.43
5/20/2021 9:15:00 PM 14.06 57.308 0.066 7.08 3.85 9.45
5/20/2021 9:30:00 PM 13.9 57.02 0.066 7.07 3.73 9.49
5/20/2021 9:45:00 PM 13.74 56.732 0.066 7.07 3.52 9.52
5/20/2021 10:00:00 PM 13.59 56.462 0.066 7.07 3.72 9.56
5/20/2021 10:15:00 PM 13.44 56.192 0.066 7.07 3.79 9.6
5/20/2021 10:30:00 PM 13.3 55.94 0.066 7.07 3.35 9.63
5/20/2021 10:45:00 PM 13.17 55.706 0.066 7.07 3.39 9.66
5/20/2021 11:00:00 PM 13.04 55.472 0.066 7.06 3.58 9.69
5/20/2021 11:15:00 PM 12.92 55.256 0.066 7.07 3.34 9.72
5/20/2021 11:30:00 PM 12.79 55.022 0.066 7.06 3.57 9.75
5/20/2021 11:45:00 PM 12.67 54.806 0.066 7.06 3.36 9.79
5/21/2021 12:00:00 AM 12.55 54.59 0.067 7.07 3.76 9.82
5/21/2021 12:15:00 AM 12.43 54.374 0.067 7.06 3.55 9.85
5/21/2021 12:30:00 AM 12.32 54.176 0.067 7.06 3.56 9.88
5/21/2021 12:45:00 AM 12.21 53.978 0.067 7.06 3.3 9.91
5/21/2021 1:00:00 AM 12.1 53.78 0.067 7.06 3.22 9.93
5/21/2021 1:15:00 AM 12 53.6 0.067 7.06 4 9.96
5/21/2021 1:30:00 AM 11.89 53.402 0.067 7.06 3.84 9.99
5/21/2021 1:45:00 AM 11.8 53.24 0.067 7.07 3.44 10.02
5/21/2021 2:00:00 AM 11.7 53.06 0.067 7.06 3.74 10.04
5/21/2021 2:15:00 AM 11.6 52.88 0.067 7.06 3.31 10.06
5/21/2021 2:30:00 AM 11.51 52.718 0.067 7.06 3.58 10.09
5/21/2021 2:45:00 AM 11.42 52.556 0.067 7.06 3.29 10.11
5/21/2021 3:00:00 AM 11.33 52.394 0.067 7.06 3.38 10.14
5/21/2021 3:15:00 AM 11.25 52.25 0.067 7.06 3.4 10.16
5/21/2021 3:30:00 AM 11.17 52.106 0.067 7.06 3.61 10.18
5/21/2021 3:45:00 AM 11.09 51.962 0.067 7.07 3.38 10.2
5/21/2021 4:00:00 AM 11.01 51.818 0.067 7.06 3.7 10.22
5/21/2021 4:15:00 AM 10.94 51.692 0.067 7.06 3.49 10.24
5/21/2021 4:30:00 AM 10.86 51.548 0.067 7.06 3.68 10.26
5/21/2021 4:45:00 AM 10.79 51.422 0.067 7.06 3.28 10.27
5/21/2021 5:00:00 AM 10.73 51.314 0.067 7.06 3.39 10.29
5/21/2021 5:15:00 AM 10.66 51.188 0.067 7.06 3.27 10.31
5/21/2021 5:30:00 AM 10.6 51.08 0.067 7.06 3.52 10.33
5/21/2021 5:45:00 AM 10.53 50.954 0.067 7.06 3.37 10.35
5/21/2021 6:00:00 AM 10.47 50.846 0.067 7.06 3.7 10.38
5/21/2021 6:15:00 AM 10.42 50.756 0.067 7.07 3.7 10.41
5/21/2021 6:30:00 AM 10.37 50.666 0.067 7.08 3.81 10.44
5/21/2021 6:45:00 AM 10.32 50.576 0.067 7.08 3.73 10.48
5/21/2021 7:00:00 AM 10.28 50.504 0.067 7.08 3.39 10.51
5/21/2021 7:15:00 AM 10.27 50.486 0.067 7.1 2.96 10.55
5/21/2021 7:30:00 AM 10.26 50.468 0.067 7.1 3.05 10.58
5/21/2021 7:45:00 AM 10.27 50.486 0.067 7.12 3.3 10.62
5/21/2021 8:00:00 AM 10.29 50.522 0.066 7.12 3.04 10.65
5/21/2021 8:15:00 AM 10.33 50.594 0.066 7.14 3.31 10.67
5/21/2021 8:30:00 AM 10.37 50.666 0.066 7.14 3.18 10.69
5/21/2021 8:45:00 AM 10.43 50.774 0.066 7.15 2.93 10.7
5/21/2021 9:00:00 AM 10.5 50.9 0.066 7.17 3.35 10.71
5/21/2021 9:15:00 AM 10.6 51.08 0.066 7.18 3.01 10.7
5/21/2021 9:30:00 AM 10.73 51.314 0.066 7.19 3.07 10.7
5/21/2021 9:45:00 AM 10.87 51.566 0.066 7.2 3.24 10.69
5/21/2021 10:00:00 AM 11.06 51.908 0.066 7.22 3.29 10.67
5/21/2021 10:15:00 AM 11.25 52.25 0.066 7.22 3.17 10.64
5/21/2021 10:30:00 AM 11.5 52.7 0.066 7.24 2.89 10.61
5/21/2021 10:45:00 AM 11.78 53.204 0.066 7.25 3.25 10.56
5/21/2021 11:00:00 AM 12.06 53.708 0.066 7.26 3.22 10.51
5/21/2021 11:15:00 AM 12.35 54.23 0.066 7.27 3.12 10.46
5/21/2021 11:30:00 AM 12.65 54.77 0.066 7.28 3.22 10.39
5/21/2021 11:45:00 AM 12.96 55.328 0.066 7.28 3.32 10.33
5/21/2021 12:00:00 PM 13.27 55.886 0.066 7.29 2.92 10.26
5/21/2021 12:15:00 PM 13.61 56.498 0.066 7.29 3.55 10.19
5/21/2021 12:30:00 PM 13.93 57.074 0.065 7.3 3.5 10.12
5/21/2021 12:45:00 PM 14.25 57.65 0.065 7.31 3.43 10.05
5/21/2021 1:00:00 PM 14.58 58.244 0.065 7.31 3.67 9.98
5/21/2021 1:15:00 PM 14.88 58.784 0.065 7.34 3.57 9.91
5/21/2021 1:30:00 PM 15.17 59.306 0.065 7.33 2.9 9.84
5/21/2021 1:45:00 PM 15.44 59.792 0.065 7.32 3.08 9.78
5/21/2021 2:00:00 PM 15.68 60.224 0.065 7.31 3.17 9.71
5/21/2021 2:15:00 PM 15.9 60.62 0.065 7.31 3.48 9.65
5/21/2021 2:30:00 PM 16.1 60.98 0.065 7.31 3.2 9.59
5/21/2021 2:45:00 PM 16.27 61.286 0.065 7.31 3.21 9.54
5/21/2021 3:00:00 PM 16.38 61.484 0.065 7.3 3.25 9.48
5/21/2021 3:15:00 PM 16.45 61.61 0.065 7.3 3.39 9.44
5/21/2021 3:30:00 PM 16.53 61.754 0.065 7.3 3.31 9.42
5/21/2021 3:45:00 PM 16.55 61.79 0.065 7.29 3.3 9.38
5/21/2021 4:00:00 PM 16.53 61.754 0.065 7.29 3.63 9.36
5/21/2021 4:15:00 PM 16.44 61.592 0.065 7.27 3.51 9.36
5/21/2021 4:30:00 PM 16.38 61.484 0.065 7.27 3.24 9.37
5/21/2021 4:45:00 PM 16.33 61.394 0.065 7.27 3.3 9.36
5/21/2021 5:00:00 PM 16.34 61.412 0.065 7.27 3.21 9.33
5/21/2021 5:15:00 PM 16.34 61.412 0.066 7.25 3.28 9.32
5/21/2021 5:30:00 PM 16.27 61.286 0.066 7.24 3.34 9.31
5/21/2021 5:45:00 PM 16.22 61.196 0.066 7.23 3.28 9.3
5/21/2021 6:00:00 PM 16.15 61.07 0.066 7.22 3.28 9.26
5/21/2021 6:15:00 PM 16.06 60.908 0.066 7.2 3.36 9.24
5/21/2021 6:30:00 PM 15.94 60.692 0.066 7.21 3.47 9.25
5/21/2021 6:45:00 PM 15.86 60.548 0.066 7.18 3.21 9.27
5/21/2021 7:00:00 PM 15.77 60.386 0.066 7.16 3.81 9.27
5/21/2021 7:15:00 PM 15.67 60.206 0.066 7.16 3.23 9.26
5/21/2021 7:30:00 PM 15.55 59.99 0.066 7.15 3.38 9.26
5/21/2021 7:45:00 PM 15.41 59.738 0.067 7.14 3.5 9.25
5/21/2021 8:00:00 PM 15.27 59.486 0.067 7.12 3.36 9.26
5/21/2021 8:15:00 PM 15.12 59.216 0.067 7.12 3.37 9.26
5/21/2021 8:30:00 PM 14.97 58.946 0.067 7.1 3.76 9.28
5/21/2021 8:45:00 PM 14.82 58.676 0.067 7.09 3.38 9.29
5/21/2021 9:00:00 PM 14.67 58.406 0.067 7.08 3.49 9.31
5/21/2021 9:15:00 PM 14.54 58.172 0.067 7.07 3.68 9.34
5/21/2021 9:30:00 PM 14.4 57.92 0.067 7.07 3.58 9.36
5/21/2021 9:45:00 PM 14.26 57.668 0.067 7.08 3.61 9.39
5/21/2021 10:00:00 PM 14.13 57.434 0.067 7.07 3.82 9.43
5/21/2021 10:15:00 PM 14 57.2 0.067 7.08 3.71 9.46
5/21/2021 10:30:00 PM 13.87 56.966 0.067 7.07 3.53 9.49
5/21/2021 10:45:00 PM 13.74 56.732 0.068 7.08 3.5 9.51
5/21/2021 11:00:00 PM 13.62 56.516 0.068 7.07 3.62 9.54
5/21/2021 11:15:00 PM 13.5 56.3 0.068 7.07 3.58 9.57
5/21/2021 11:30:00 PM 13.39 56.102 0.068 7.06 3.7 9.6
5/21/2021 11:45:00 PM 13.28 55.904 0.068 7.07 3.62 9.62
5/22/2021 12:00:00 AM 13.18 55.724 0.068 7.07 3.77 9.65
5/22/2021 12:15:00 AM 13.07 55.526 0.068 7.07 3.53 9.68
5/22/2021 12:30:00 AM 12.97 55.346 0.068 7.06 3.56 9.7
5/22/2021 12:45:00 AM 12.87 55.166 0.068 7.07 3.43 9.72
5/22/2021 1:00:00 AM 12.78 55.004 0.068 7.08 3.5 9.75
5/22/2021 1:15:00 AM 12.69 54.842 0.068 7.07 3.4 9.76
5/22/2021 1:30:00 AM 12.6 54.68 0.068 7.07 3.42 9.78
5/22/2021 1:45:00 AM 12.51 54.518 0.068 7.07 3.44 9.81
5/22/2021 2:00:00 AM 12.42 54.356 0.068 7.08 3.48 9.83
5/22/2021 2:15:00 AM 12.33 54.194 0.068 7.07 3.67 9.85
5/22/2021 2:30:00 AM 12.25 54.05 0.068 7.07 3.61 9.87
5/22/2021 2:45:00 AM 12.17 53.906 0.068 7.07 3.66 9.89
5/22/2021 3:00:00 AM 12.08 53.744 0.068 7.07 3.47 9.91
5/22/2021 3:15:00 AM 12 53.6 0.068 7.07 3.64 9.93
5/22/2021 3:30:00 AM 11.92 53.456 0.068 7.07 3.42 9.95
5/22/2021 3:45:00 AM 11.84 53.312 0.068 7.07 3.69 9.97
5/22/2021 4:00:00 AM 11.77 53.186 0.068 7.07 3.45 9.99
5/22/2021 4:15:00 AM 11.69 53.042 0.068 7.07 3.64 10
5/22/2021 4:30:00 AM 11.62 52.916 0.068 7.07 3.38 10.01
5/22/2021 4:45:00 AM 11.55 52.79 0.068 7.07 3.61 10.04
5/22/2021 5:00:00 AM 11.48 52.664 0.068 7.07 3.37 10.05
5/22/2021 5:15:00 AM 11.41 52.538 0.068 7.07 3.5 10.07
5/22/2021 5:30:00 AM 11.35 52.43 0.068 7.07 3.35 10.09
5/22/2021 5:45:00 AM 11.29 52.322 0.068 7.08 3.42 10.1
5/22/2021 6:00:00 AM 11.23 52.214 0.068 7.07 3.53 10.13
5/22/2021 6:15:00 AM 11.18 52.124 0.068 7.08 3.59 10.16
5/22/2021 6:30:00 AM 11.13 52.034 0.068 7.08 3.45 10.19
5/22/2021 6:45:00 AM 11.1 51.98 0.068 7.09 3.72 10.24
5/22/2021 7:00:00 AM 11.08 51.944 0.068 7.11 3.47 10.3
5/22/2021 7:15:00 AM 11.07 51.926 0.068 7.13 3.55 10.34
5/22/2021 7:30:00 AM 11.06 51.908 0.068 7.13 3.87 10.37
5/22/2021 7:45:00 AM 11.06 51.908 0.068 7.14 3.38 10.39
5/22/2021 8:00:00 AM 11.08 51.944 0.068 7.15 3.29 10.42
5/22/2021 8:15:00 AM 11.13 52.034 0.068 7.17 3.17 10.46
5/22/2021 8:30:00 AM 11.18 52.124 0.068 7.18 3.23 10.49
5/22/2021 8:45:00 AM 11.26 52.268 0.067 7.2 3.47 10.51
5/22/2021 9:00:00 AM 11.33 52.394 0.067 7.21 3.22 10.51
5/22/2021 9:15:00 AM 11.34 52.412 0.067 7.21 3.17 10.5
5/22/2021 9:30:00 AM 11.39 52.502 0.067 7.22 3.19 10.5
5/22/2021 9:45:00 AM 11.53 52.754 0.067 7.23 3.19 10.51
5/22/2021 10:00:00 AM 11.63 52.934 0.067 7.25 3.1 10.51
5/22/2021 10:15:00 AM 11.78 53.204 0.067 7.27 3.23 10.5
5/22/2021 10:30:00 AM 11.9 53.42 0.067 7.29 3.29 10.47
5/22/2021 10:45:00 AM 12 53.6 0.067 7.29 3.25 10.44
5/22/2021 11:00:00 AM 12.17 53.906 0.067 7.3 5.15 10.43
5/22/2021 11:15:00 AM 12.37 54.266 0.067 7.31 3.15 10.41
5/22/2021 11:30:00 AM 12.54 54.572 0.067 7.31 3.25 10.37
5/22/2021 11:45:00 AM 12.75 54.95 0.066 7.31 3.35 10.33
5/22/2021 12:00:00 PM 12.99 55.382 0.066 7.33 3.16 10.29
5/22/2021 12:15:00 PM 13.32 55.976 0.066 7.33 3.29 10.24
5/22/2021 12:30:00 PM 13.49 56.282 0.066 7.34 3.28 10.18
5/22/2021 12:45:00 PM 13.67 56.606 0.066 7.37 3.24 10.12
5/22/2021 1:00:00 PM 13.88 56.984 0.066 7.34 3.51 10.08
5/22/2021 1:15:00 PM 14.01 57.218 0.066 7.35 3.35 10.03
5/22/2021 1:30:00 PM 14.16 57.488 0.066 7.34 3.3 10
5/22/2021 1:45:00 PM 14.3 57.74 0.066 7.35 3.35 9.96
5/22/2021 2:00:00 PM 14.4 57.92 0.066 7.35 3.9 9.91
5/22/2021 2:15:00 PM 14.49 58.082 0.066 7.34 3.36 9.88
5/22/2021 2:30:00 PM 14.59 58.262 0.066 7.34 3.39 9.85
5/22/2021 2:45:00 PM 14.69 58.442 0.067 7.34 3.31 9.83
5/22/2021 3:00:00 PM 14.8 58.64 0.068 7.33 3.3 9.79
5/22/2021 3:15:00 PM 14.89 58.802 0.068 7.33 3.78 9.75
5/22/2021 3:30:00 PM 15 59 0.068 7.32 3.94 9.73
5/22/2021 3:45:00 PM 15.04 59.072 0.068 7.32 3.32 9.69
5/22/2021 4:00:00 PM 15.04 59.072 0.068 7.31 3.25 9.63
5/22/2021 4:15:00 PM 15.08 59.144 0.068 7.3 3.24 9.62
5/22/2021 4:30:00 PM 15.07 59.126 0.068 7.3 3.64 9.63
5/22/2021 4:45:00 PM 15.05 59.09 0.068 7.29 3.64 9.59
5/22/2021 5:00:00 PM 15.07 59.126 0.068 7.28 3.66 9.58
5/22/2021 5:15:00 PM 15.12 59.216 0.067 7.28 3.41 9.57
5/22/2021 5:30:00 PM 15.11 59.198 0.067 7.29 3.57 9.57
5/22/2021 5:45:00 PM 15.1 59.18 0.067 7.28 3.71 9.55
5/22/2021 6:00:00 PM 15.08 59.144 0.067 7.26 3.52 9.51
5/22/2021 6:15:00 PM 15.08 59.144 0.067 7.25 3.48 9.49
5/22/2021 6:30:00 PM 15.03 59.054 0.067 7.24 3.57 9.47
5/22/2021 6:45:00 PM 14.98 58.964 0.067 7.23 3.4 9.47
5/22/2021 7:00:00 PM 14.92 58.856 0.068 7.22 3.71 9.43
5/22/2021 7:15:00 PM 14.87 58.766 0.068 7.21 3.66 9.43
5/22/2021 7:30:00 PM 14.81 58.658 0.068 7.2 3.58 9.4
5/22/2021 7:45:00 PM 14.73 58.514 0.068 7.18 3.35 9.37
5/22/2021 8:00:00 PM 14.66 58.388 0.068 7.17 3.58 9.34
5/22/2021 8:15:00 PM 14.59 58.262 0.068 7.15 3.66 9.33
5/22/2021 8:30:00 PM 14.5 58.1 0.068 7.13 3.43 9.32
5/22/2021 8:45:00 PM 14.41 57.938 0.068 7.12 3.29 9.32
5/22/2021 9:00:00 PM 14.33 57.794 0.068 7.11 3.32 9.32
5/22/2021 9:15:00 PM 14.24 57.632 0.068 7.1 3.58 9.33
5/22/2021 9:30:00 PM 14.16 57.488 0.068 7.09 3.57 9.34
5/22/2021 9:45:00 PM 14.07 57.326 0.069 7.08 3.65 9.36
5/22/2021 10:00:00 PM 13.98 57.164 0.069 7.08 3.66 9.38
5/22/2021 10:15:00 PM 13.89 57.002 0.069 7.07 3.7 9.39
5/22/2021 10:30:00 PM 13.81 56.858 0.069 7.07 3.65 9.41
5/22/2021 10:45:00 PM 13.73 56.714 0.069 7.07 3.43 9.43
5/22/2021 11:00:00 PM 13.66 56.588 0.069 7.06 3.73 9.45
5/22/2021 11:15:00 PM 13.58 56.444 0.069 7.06 3.65 9.46
5/22/2021 11:30:00 PM 13.51 56.318 0.069 7.05 3.61 9.48
5/22/2021 11:45:00 PM 13.43 56.174 0.069 7.06 3.54 9.5
5/23/2021 12:00:00 AM 13.35 56.03 0.069 7.06 3.46 9.52
5/23/2021 12:15:00 AM 13.29 55.922 0.069 7.05 3.58 9.53
5/23/2021 12:30:00 AM 13.21 55.778 0.069 7.05 3.8 9.55
5/23/2021 12:45:00 AM 13.13 55.634 0.069 7.05 3.66 9.56
5/23/2021 1:00:00 AM 13.06 55.508 0.069 7.05 3.56 9.58
5/23/2021 1:15:00 AM 12.99 55.382 0.069 7.05 3.5 9.59
5/23/2021 1:30:00 AM 12.91 55.238 0.069 7.04 3.48 9.61
5/23/2021 1:45:00 AM 12.83 55.094 0.07 7.04 3.88 9.63
5/23/2021 2:00:00 AM 12.76 54.968 0.069 7.05 3.5 9.64
5/23/2021 2:15:00 AM 12.69 54.842 0.069 7.04 3.44 9.66
5/23/2021 2:30:00 AM 12.63 54.734 0.069 7.04 3.55 9.67
5/23/2021 2:45:00 AM 12.56 54.608 0.069 7.04 3.57 9.69
5/23/2021 3:00:00 AM 12.5 54.5 0.069 7.05 3.6 9.71
5/23/2021 3:15:00 AM 12.44 54.392 0.069 7.04 3.78 9.72
5/23/2021 3:30:00 AM 12.37 54.266 0.069 7.04 3.58 9.73
5/23/2021 3:45:00 AM 12.31 54.158 0.07 7.05 3.36 9.75
5/23/2021 4:00:00 AM 12.25 54.05 0.069 7.05 3.47 9.77
5/23/2021 4:15:00 AM 12.19 53.942 0.069 7.05 3.49 9.78
5/23/2021 4:30:00 AM 12.13 53.834 0.069 7.04 3.46 9.79
5/23/2021 4:45:00 AM 12.07 53.726 0.069 7.05 3.44 9.8
5/23/2021 5:00:00 AM 12.02 53.636 0.069 7.06 3.29 9.82
5/23/2021 5:15:00 AM 11.96 53.528 0.069 7.05 3.56 9.83
5/23/2021 5:30:00 AM 11.9 53.42 0.069 7.06 3.34 9.84
5/23/2021 5:45:00 AM 11.84 53.312 0.069 7.05 3.83 9.86
5/23/2021 6:00:00 AM 11.79 53.222 0.069 7.06 3.77 9.88
5/23/2021 6:15:00 AM 11.74 53.132 0.069 7.05 4.03 9.91
5/23/2021 6:30:00 AM 11.69 53.042 0.069 7.06 3.91 9.94
5/23/2021 6:45:00 AM 11.64 52.952 0.069 7.07 3.67 9.97
5/23/2021 7:00:00 AM 11.61 52.898 0.069 7.08 3.51 10.01
5/23/2021 7:15:00 AM 11.59 52.862 0.069 7.09 3.56 10.04
5/23/2021 7:30:00 AM 11.58 52.844 0.069 7.1 3.55 10.07
5/23/2021 7:45:00 AM 11.59 52.862 0.069 7.13 3.21 10.12
5/23/2021 8:00:00 AM 11.61 52.898 0.069 7.13 3.22 10.14
5/23/2021 8:15:00 AM 11.64 52.952 0.069 7.15 3.13 10.17
5/23/2021 8:30:00 AM 11.68 53.024 0.069 7.15 3.25 10.19
5/23/2021 8:45:00 AM 11.75 53.15 0.069 7.18 3.1 10.2
5/23/2021 9:00:00 AM 11.84 53.312 0.069 7.19 3.11 10.22
5/23/2021 9:15:00 AM 11.96 53.528 0.069 7.21 2.97 10.24
5/23/2021 9:30:00 AM 12.08 53.744 0.068 7.23 3.26 10.24
5/23/2021 9:45:00 AM 12.2 53.96 0.068 7.24 3.18 10.23
5/23/2021 10:00:00 AM 12.4 54.32 0.068 7.24 3.23 10.21
5/23/2021 10:15:00 AM 12.62 54.716 0.068 7.26 3.07 10.19
5/23/2021 10:30:00 AM 12.86 55.148 0.068 7.27 3.53 10.15
5/23/2021 10:45:00 AM 12.99 55.382 0.068 7.28 3.12 10.12
5/23/2021 11:00:00 AM 13.19 55.742 0.068 7.28 3.18 10.08
5/23/2021 11:15:00 AM 13.3 55.94 0.068 7.29 3.12 10.05
5/23/2021 11:30:00 AM 13.51 56.318 0.068 7.29 3.38 10.02
5/23/2021 11:45:00 AM 13.84 56.912 0.068 7.3 3.27 9.99
5/23/2021 12:00:00 PM 14.19 57.542 0.068 7.31 3.32 9.93
5/23/2021 12:15:00 PM 14.38 57.884 0.067 7.31 3.23 9.86
5/23/2021 12:30:00 PM 14.5 58.1 0.067 7.31 3.33 9.77
5/23/2021 12:45:00 PM 14.74 58.532 0.067 7.31 3.44 9.74
5/23/2021 1:00:00 PM 14.88 58.784 0.067 7.3 3.33 9.72
5/23/2021 1:15:00 PM 15.13 59.234 0.067 7.31 3.36 9.69
5/23/2021 1:30:00 PM 15.24 59.432 0.067 7.31 2.97 9.62
5/23/2021 1:45:00 PM 15.41 59.738 0.067 7.31 3.36 9.58
5/23/2021 2:00:00 PM 15.59 60.062 0.067 7.31 3.23 9.56
5/23/2021 2:15:00 PM 15.75 60.35 0.067 7.31 3.08 9.53
5/23/2021 2:30:00 PM 15.85 60.53 0.067 7.31 3.16 9.47
5/23/2021 2:45:00 PM 16.05 60.89 0.067 7.3 3.04 9.41
5/23/2021 3:00:00 PM 16.2 61.16 0.067 7.31 3.32 9.4
5/23/2021 3:15:00 PM 16.3 61.34 0.067 7.32 3.11 9.38
5/23/2021 3:30:00 PM 16.4 61.52 0.067 7.31 3.31 9.31
5/23/2021 3:45:00 PM 16.47 61.646 0.067 7.32 3.15 9.29
5/23/2021 4:00:00 PM 16.4 61.52 0.067 7.29 3.24 9.27
5/23/2021 4:15:00 PM 16.35 61.43 0.067 7.28 3.35 9.25
5/23/2021 4:30:00 PM 16.36 61.448 0.067 7.28 3.2 9.26
5/23/2021 4:45:00 PM 16.36 61.448 0.067 7.28 3.17 9.24
5/23/2021 5:00:00 PM 16.36 61.448 0.067 7.27 3.18 9.23
5/23/2021 5:15:00 PM 16.33 61.394 0.067 7.27 3.02 9.21
5/23/2021 5:30:00 PM 16.29 61.322 0.067 7.26 3.18 9.19
5/23/2021 5:45:00 PM 16.24 61.232 0.068 7.24 3.34 9.17
5/23/2021 6:00:00 PM 16.19 61.142 0.068 7.24 3.58 9.16
5/23/2021 6:15:00 PM 16.12 61.016 0.068 7.23 3.17 9.15
5/23/2021 6:30:00 PM 16.04 60.872 0.068 7.22 3.35 9.14
5/23/2021 6:45:00 PM 15.97 60.746 0.068 7.21 3.37 9.15
5/23/2021 7:00:00 PM 15.88 60.584 0.068 7.19 3.36 9.12
5/23/2021 7:15:00 PM 15.79 60.422 0.068 7.18 3.36 9.1
5/23/2021 7:30:00 PM 15.7 60.26 0.068 7.17 3.38 9.08
5/23/2021 7:45:00 PM 15.59 60.062 0.069 7.16 3.21 9.08
5/23/2021 8:00:00 PM 15.48 59.864 0.068 7.15 3.65 9.08
5/23/2021 8:15:00 PM 15.39 59.702 0.069 7.13 3.36 9.08
5/23/2021 8:30:00 PM 15.29 59.522 0.069 7.13 3.47 9.08
5/23/2021 8:45:00 PM 15.18 59.324 0.069 7.12 3.74 9.09
5/23/2021 9:00:00 PM 15.07 59.126 0.069 7.12 3.89 9.11
5/23/2021 9:15:00 PM 14.96 58.928 0.069 7.12 3.66 9.13
5/23/2021 9:30:00 PM 14.85 58.73 0.069 7.12 3.53 9.15
5/23/2021 9:45:00 PM 14.74 58.532 0.069 7.12 3.61 9.18
5/23/2021 10:00:00 PM 14.63 58.334 0.069 7.12 3.88 9.2
5/23/2021 10:15:00 PM 14.52 58.136 0.069 7.12 3.53 9.23
5/23/2021 10:30:00 PM 14.42 57.956 0.069 7.12 3.59 9.25
5/23/2021 10:45:00 PM 14.32 57.776 0.07 7.11 3.53 9.27
5/23/2021 11:00:00 PM 14.22 57.596 0.07 7.12 3.71 9.3
5/23/2021 11:15:00 PM 14.12 57.416 0.07 7.11 3.66 9.32
5/23/2021 11:30:00 PM 14.02 57.236 0.07 7.11 3.51 9.35
5/23/2021 11:45:00 PM 13.92 57.056 0.07 7.12 3.6 9.37
5/24/2021 12:00:00 AM 13.8 56.84 0.07 7.12 3.93 9.4
5/24/2021 12:15:00 AM 13.7 56.66 0.07 7.12 4.02 9.42
5/24/2021 12:30:00 AM 13.6 56.48 0.07 7.12 3.77 9.45
5/24/2021 12:45:00 AM 13.5 56.3 0.07 7.12 3.94 9.47
5/24/2021 1:00:00 AM 13.41 56.138 0.07 7.13 3.55 9.49
5/24/2021 1:15:00 AM 13.31 55.958 0.07 7.13 3.58 9.52
5/24/2021 1:30:00 AM 13.21 55.778 0.07 7.13 3.66 9.54
5/24/2021 1:45:00 AM 13.1 55.58 0.07 7.12 3.56 9.57
5/24/2021 2:00:00 AM 12.99 55.382 0.07 7.13 3.69 9.59
5/24/2021 2:15:00 AM 12.87 55.166 0.07 7.13 3.39 9.62
5/24/2021 2:30:00 AM 12.76 54.968 0.07 7.13 3.51 9.65
5/24/2021 2:45:00 AM 12.65 54.77 0.07 7.13 3.48 9.67
5/24/2021 3:00:00 AM 12.54 54.572 0.07 7.13 3.56 9.69
5/24/2021 3:15:00 AM 12.43 54.374 0.07 7.13 3.49 9.72
5/24/2021 3:30:00 AM 12.32 54.176 0.07 7.13 3.53 9.75
5/24/2021 3:45:00 AM 12.22 53.996 0.07 7.13 3.39 9.77
5/24/2021 4:00:00 AM 12.11 53.798 0.07 7.13 3.41 9.8
5/24/2021 4:15:00 AM 12.01 53.618 0.07 7.13 3.55 9.83
5/24/2021 4:30:00 AM 11.91 53.438 0.07 7.14 3.55 9.85
5/24/2021 4:45:00 AM 11.81 53.258 0.07 7.14 4.17 9.87
5/24/2021 5:00:00 AM 11.72 53.096 0.07 7.13 3.63 9.9
5/24/2021 5:15:00 AM 11.63 52.934 0.07 7.13 3.71 9.92
5/24/2021 5:30:00 AM 11.54 52.772 0.07 7.13 3.63 9.94
5/24/2021 5:45:00 AM 11.46 52.628 0.07 7.13 3.72 9.97
5/24/2021 6:00:00 AM 11.39 52.502 0.07 7.14 3.62 10
5/24/2021 6:15:00 AM 11.33 52.394 0.07 7.14 3.82 10.04
5/24/2021 6:30:00 AM 11.27 52.286 0.07 7.15 3.48 10.09
5/24/2021 6:45:00 AM 11.23 52.214 0.07 7.16 3.81 10.13
5/24/2021 7:00:00 AM 11.19 52.142 0.07 7.16 3.46 10.18
5/24/2021 7:15:00 AM 11.16 52.088 0.07 7.18 3.69 10.23
5/24/2021 7:30:00 AM 11.13 52.034 0.07 7.2 3.21 10.28
5/24/2021 7:45:00 AM 11.11 51.998 0.07 7.2 3.26 10.3
5/24/2021 8:00:00 AM 11.11 51.998 0.07 7.22 3.4 10.34
5/24/2021 8:15:00 AM 11.14 52.052 0.07 7.22 3.37 10.38
5/24/2021 8:30:00 AM 11.18 52.124 0.07 7.24 3.21 10.4
5/24/2021 8:45:00 AM 11.24 52.232 0.069 7.25 3.13 10.42
5/24/2021 9:00:00 AM 11.29 52.322 0.069 7.25 3.23 10.43
5/24/2021 9:15:00 AM 11.32 52.376 0.069 7.27 3.16 10.44
5/24/2021 9:30:00 AM 11.41 52.538 0.069 7.28 3.1 10.45
5/24/2021 9:45:00 AM 11.48 52.664 0.069 7.29 3.21 10.45
5/24/2021 10:00:00 AM 11.57 52.826 0.069 7.29 3.17 10.43
5/24/2021 10:15:00 AM 11.74 53.132 0.069 7.3 3.05 10.42
5/24/2021 10:30:00 AM 11.98 53.564 0.069 7.33 3.02 10.4
5/24/2021 10:45:00 AM 12.16 53.888 0.069 7.31 3.06 10.37
5/24/2021 11:00:00 AM 12.36 54.248 0.069 7.32 3.09 10.34
5/24/2021 11:15:00 AM 12.56 54.608 0.069 7.32 3.25 10.3
5/24/2021 11:30:00 AM 12.77 54.986 0.069 7.32 3.14 10.26
5/24/2021 11:45:00 AM 13.03 55.454 0.069 7.33 3.22 10.22
5/24/2021 12:00:00 PM 13.27 55.886 0.069 7.32 3.29 10.16
5/24/2021 12:15:00 PM 13.58 56.444 0.069 7.33 3.23 10.1
5/24/2021 12:30:00 PM 13.76 56.768 0.069 7.34 3.15 10.04
5/24/2021 12:45:00 PM 13.9 57.02 0.068 7.34 3.32 10
5/24/2021 1:00:00 PM 14.04 57.272 0.068 7.36 3.39 9.96
5/24/2021 1:15:00 PM 14.15 57.47 0.068 7.36 3.14 9.93
5/24/2021 1:30:00 PM 14.41 57.938 0.068 7.37 3.29 9.91
5/24/2021 1:45:00 PM 14.37 57.866 0.068 7.36 3.32 9.86
5/24/2021 2:00:00 PM 14.57 58.226 0.068 7.37 3.36 9.85
5/24/2021 2:15:00 PM 14.51 58.118 0.068 7.37 3.31 9.84
5/24/2021 2:30:00 PM 14.49 58.082 0.068 7.37 3.29 9.82
5/24/2021 2:45:00 PM 14.58 58.244 0.068 7.36 3.23 9.79
5/24/2021 3:00:00 PM 14.71 58.478 0.068 7.37 3.22 9.78
5/24/2021 3:15:00 PM 14.76 58.568 0.068 7.36 3.31 9.72
5/24/2021 3:30:00 PM 14.79 58.622 0.068 7.35 3.18 9.66
5/24/2021 3:45:00 PM 14.82 58.676 0.068 7.33 3.14 9.62
5/24/2021 4:00:00 PM 14.9 58.82 0.068 7.32 3.35 9.59
5/24/2021 4:15:00 PM 14.92 58.856 0.068 7.31 3.21 9.56
5/24/2021 4:30:00 PM 14.92 58.856 0.068 7.31 3.3 9.55
5/24/2021 4:45:00 PM 14.99 58.982 0.068 7.31 3.49 9.57
5/24/2021 5:00:00 PM 15.04 59.072 0.068 7.31 3.32 9.55
5/24/2021 5:15:00 PM 15.08 59.144 0.068 7.3 3.26 9.51
5/24/2021 5:30:00 PM 15.07 59.126 0.068 7.29 3.23 9.47
5/24/2021 5:45:00 PM 15.03 59.054 0.069 7.28 3.17 9.46
5/24/2021 6:00:00 PM 14.98 58.964 0.069 7.28 3.28 9.45
5/24/2021 6:15:00 PM 14.91 58.838 0.069 7.27 3.46 9.44
5/24/2021 6:30:00 PM 14.84 58.712 0.069 7.26 3.36 9.45
5/24/2021 6:45:00 PM 14.76 58.568 0.069 7.25 3.31 9.45
5/24/2021 7:00:00 PM 14.67 58.406 0.069 7.24 3.22 9.45
5/24/2021 7:15:00 PM 14.58 58.244 0.069 7.24 3.56 9.45
5/24/2021 7:30:00 PM 14.48 58.064 0.069 7.23 3.41 9.43
5/24/2021 7:45:00 PM 14.36 57.848 0.069 7.2 3.76 9.42
5/24/2021 8:00:00 PM 14.24 57.632 0.069 7.2 3.7 9.41
5/24/2021 8:15:00 PM 14.12 57.416 0.07 7.18 3.53 9.41
5/24/2021 8:30:00 PM 14.01 57.218 0.07 7.17 3.46 9.41
5/24/2021 8:45:00 PM 13.9 57.02 0.07 7.17 3.51 9.41
5/24/2021 9:00:00 PM 13.81 56.858 0.07 7.16 3.93 9.42
5/24/2021 9:15:00 PM 13.72 56.696 0.07 7.15 3.78 9.43
5/24/2021 9:30:00 PM 13.64 56.552 0.07 7.14 3.47 9.45
5/24/2021 9:45:00 PM 13.56 56.408 0.07 7.15 3.5 9.47
5/24/2021 10:00:00 PM 13.49 56.282 0.07 7.15 3.51 9.48
5/24/2021 10:15:00 PM 13.41 56.138 0.07 7.14 3.63 9.5
5/24/2021 10:30:00 PM 13.34 56.012 0.07 7.14 3.4 9.52
5/24/2021 10:45:00 PM 13.28 55.904 0.07 7.14 3.56 9.53
5/24/2021 11:00:00 PM 13.21 55.778 0.071 7.14 3.54 9.55
5/24/2021 11:15:00 PM 13.14 55.652 0.07 7.15 3.77 9.57
5/24/2021 11:30:00 PM 13.08 55.544 0.071 7.14 3.47 9.58
5/24/2021 11:45:00 PM 13.02 55.436 0.07 7.14 3.82 9.6
5/25/2021 12:00:00 AM 12.96 55.328 0.071 7.14 3.62 9.62
5/25/2021 12:15:00 AM 12.9 55.22 0.071 7.14 3.47 9.63
5/25/2021 12:30:00 AM 12.84 55.112 0.071 7.14 3.6 9.64
5/25/2021 12:45:00 AM 12.79 55.022 0.071 7.13 3.56 9.65
5/25/2021 1:00:00 AM 12.74 54.932 0.071 7.13 3.73 9.67
5/25/2021 1:15:00 AM 12.69 54.842 0.071 7.14 3.73 9.68
5/25/2021 1:30:00 AM 12.65 54.77 0.071 7.14 3.46 9.69
5/25/2021 1:45:00 AM 12.6 54.68 0.071 7.14 3.43 9.7
5/25/2021 2:00:00 AM 12.56 54.608 0.071 7.13 3.64 9.71
5/25/2021 2:15:00 AM 12.51 54.518 0.071 7.13 3.61 9.72
5/25/2021 2:30:00 AM 12.47 54.446 0.071 7.13 3.4 9.73
5/25/2021 2:45:00 AM 12.44 54.392 0.071 7.13 3.44 9.74
5/25/2021 3:00:00 AM 12.4 54.32 0.071 7.14 3.36 9.75
5/25/2021 3:15:00 AM 12.36 54.248 0.071 7.14 3.78 9.75
5/25/2021 3:30:00 AM 12.33 54.194 0.071 7.14 3.49 9.76
5/25/2021 3:45:00 AM 12.29 54.122 0.071 7.14 3.45 9.77
5/25/2021 4:00:00 AM 12.25 54.05 0.071 7.14 3.69 9.78
5/25/2021 4:15:00 AM 12.22 53.996 0.071 7.14 3.41 9.78
5/25/2021 4:30:00 AM 12.19 53.942 0.071 7.14 3.46 9.8
5/25/2021 4:45:00 AM 12.16 53.888 0.071 7.14 3.87 9.8
5/25/2021 5:00:00 AM 12.13 53.834 0.071 7.14 3.51 9.81
5/25/2021 5:15:00 AM 12.1 53.78 0.071 7.13 3.81 9.82
5/25/2021 5:30:00 AM 12.08 53.744 0.071 7.14 3.53 9.83
5/25/2021 5:45:00 AM 12.05 53.69 0.071 7.14 3.39 9.83
5/25/2021 6:00:00 AM 12.03 53.654 0.071 7.14 3.77 9.85
5/25/2021 6:15:00 AM 12.01 53.618 0.071 7.15 3.39 9.87
5/25/2021 6:30:00 AM 11.99 53.582 0.071 7.15 3.36 9.89
5/25/2021 6:45:00 AM 11.97 53.546 0.071 7.15 3.45 9.92
5/25/2021 7:00:00 AM 11.97 53.546 0.071 7.16 3.38 9.94
5/25/2021 7:15:00 AM 11.96 53.528 0.071 7.17 3.51 9.97
5/25/2021 7:30:00 AM 11.95 53.51 0.071 7.18 3.23 9.98
5/25/2021 7:45:00 AM 11.95 53.51 0.071 7.18 3.28 10
5/25/2021 8:00:00 AM 11.95 53.51 0.071 7.19 3.33 10.03
5/25/2021 8:15:00 AM 11.97 53.546 0.071 7.2 3.31 10.07
5/25/2021 8:30:00 AM 11.98 53.564 0.071 7.22 3.22 10.1
5/25/2021 8:45:00 AM 12.01 53.618 0.07 7.22 3.38 10.13
5/25/2021 9:00:00 AM 12.05 53.69 0.07 7.24 3.33 10.16
5/25/2021 9:15:00 AM 12.1 53.78 0.07 7.25 3.68 10.19
5/25/2021 9:30:00 AM 12.16 53.888 0.07 7.26 3.16 10.21
5/25/2021 9:45:00 AM 12.23 54.014 0.07 7.28 4.05 10.22
5/25/2021 10:00:00 AM 12.31 54.158 0.07 7.29 3.25 10.23
5/25/2021 10:15:00 AM 12.39 54.302 0.07 7.3 3.1 10.23
5/25/2021 10:30:00 AM 12.47 54.446 0.07 7.31 3.28 10.22
5/25/2021 10:45:00 AM 12.55 54.59 0.07 7.32 3.2 10.21
5/25/2021 11:00:00 AM 12.67 54.806 0.07 7.33 3.28 10.21
5/25/2021 11:15:00 AM 12.82 55.076 0.07 7.34 3.24 10.21
5/25/2021 11:30:00 AM 13 55.4 0.069 7.35 3.21 10.19
5/25/2021 11:45:00 AM 13.25 55.85 0.069 7.35 3.24 10.16
5/25/2021 12:00:00 PM 13.47 56.246 0.069 7.36 3.27 10.12
5/25/2021 12:15:00 PM 13.82 56.876 0.069 7.37 3.17 10.06
5/25/2021 12:30:00 PM 14.2 57.56 0.069 7.36 3.11 9.99
5/25/2021 12:45:00 PM 14.49 58.082 0.069 7.36 3.21 9.94
5/25/2021 1:00:00 PM 14.73 58.514 0.069 7.38 3.13 9.88
5/25/2021 1:15:00 PM 15.02 59.036 0.069 7.38 3.3 9.81
5/25/2021 1:30:00 PM 15.3 59.54 0.069 7.38 2.99 9.76
5/25/2021 1:45:00 PM 15.66 60.188 0.069 7.4 3.36 9.7
5/25/2021 2:00:00 PM 15.87 60.566 0.069 7.39 3.25 9.62
5/25/2021 2:15:00 PM 16.09 60.962 0.069 7.39 3.38 9.53
5/25/2021 2:30:00 PM 16.25 61.25 0.069 7.37 3.18 9.46
5/25/2021 2:45:00 PM 16.39 61.502 0.069 7.36 3.25 9.4
5/25/2021 3:00:00 PM 16.55 61.79 0.069 7.36 3.33 9.35
5/25/2021 3:15:00 PM 16.74 62.132 0.069 7.35 3.06 9.3
5/25/2021 3:30:00 PM 16.86 62.348 0.069 7.35 3.13 9.25
5/25/2021 3:45:00 PM 16.93 62.474 0.069 7.34 3.12 9.22
5/25/2021 4:00:00 PM 16.97 62.546 0.069 7.33 3.24 9.19
5/25/2021 4:15:00 PM 16.99 62.582 0.069 7.34 3.23 9.19
5/25/2021 4:30:00 PM 16.94 62.492 0.069 7.33 3.62 9.17
5/25/2021 4:45:00 PM 16.92 62.456 0.069 7.33 3.41 9.13
5/25/2021 5:00:00 PM 16.93 62.474 0.069 7.32 3.5 9.12
5/25/2021 5:15:00 PM 16.94 62.492 0.069 7.31 3.4 9.1
5/25/2021 5:30:00 PM 16.93 62.474 0.069 7.31 3.28 9.09
5/25/2021 5:45:00 PM 16.87 62.366 0.069 7.3 3.44 9.08
5/25/2021 6:00:00 PM 16.81 62.258 0.069 7.29 3.25 9.09
5/25/2021 6:15:00 PM 16.74 62.132 0.069 7.29 3.3 9.07
5/25/2021 6:30:00 PM 16.68 62.024 0.07 7.27 3.16 9.04
5/25/2021 6:45:00 PM 16.6 61.88 0.07 7.26 3.4 9.03
5/25/2021 7:00:00 PM 16.51 61.718 0.07 7.25 3.79 9.03
5/25/2021 7:15:00 PM 16.41 61.538 0.07 7.24 3.29 9.03
5/25/2021 7:30:00 PM 16.33 61.394 0.07 7.23 3.34 9.04
5/25/2021 7:45:00 PM 16.22 61.196 0.07 7.22 3.81 9.02
5/25/2021 8:00:00 PM 16.1 60.98 0.07 7.2 4.25 8.99
5/25/2021 8:15:00 PM 16.01 60.818 0.07 7.18 3.56 8.96
5/25/2021 8:30:00 PM 15.9 60.62 0.071 7.17 3.55 8.95
5/25/2021 8:45:00 PM 15.79 60.422 0.071 7.15 3.81 8.95
5/25/2021 9:00:00 PM 15.68 60.224 0.071 7.13 3.93 8.95
5/25/2021 9:15:00 PM 15.57 60.026 0.071 7.13 3.72 8.96
5/25/2021 9:30:00 PM 15.47 59.846 0.071 7.12 3.79 8.98
5/25/2021 9:45:00 PM 15.36 59.648 0.071 7.11 3.57 9
5/25/2021 10:00:00 PM 15.25 59.45 0.071 7.1 3.52 9.02
5/25/2021 10:15:00 PM 15.14 59.252 0.072 7.1 3.52 9.04
5/25/2021 10:30:00 PM 15.03 59.054 0.071 7.1 3.74 9.07
5/25/2021 10:45:00 PM 14.92 58.856 0.071 7.11 3.69 9.09
5/25/2021 11:00:00 PM 14.81 58.658 0.072 7.11 4.1 9.12
5/25/2021 11:15:00 PM 14.7 58.46 0.072 7.11 3.83 9.14
5/25/2021 11:30:00 PM 14.6 58.28 0.072 7.11 3.48 9.16
5/25/2021 11:45:00 PM 14.5 58.1 0.072 7.11 3.77 9.19
5/26/2021 12:00:00 AM 14.4 57.92 0.072 7.11 3.49 9.21
5/26/2021 12:15:00 AM 14.3 57.74 0.072 7.11 3.62 9.23
5/26/2021 12:30:00 AM 14.21 57.578 0.072 7.11 3.62 9.25
5/26/2021 12:45:00 AM 14.12 57.416 0.072 7.1 3.71 9.27
5/26/2021 1:00:00 AM 14.03 57.254 0.072 7.1 3.64 9.29
5/26/2021 1:15:00 AM 13.95 57.11 0.072 7.1 3.48 9.32
5/26/2021 1:30:00 AM 13.86 56.948 0.072 7.11 3.66 9.33
5/26/2021 1:45:00 AM 13.77 56.786 0.072 7.11 3.43 9.35
5/26/2021 2:00:00 AM 13.7 56.66 0.072 7.11 3.82 9.37
5/26/2021 2:15:00 AM 13.62 56.516 0.072 7.11 3.83 9.39
5/26/2021 2:30:00 AM 13.55 56.39 0.072 7.11 4.03 9.4
5/26/2021 2:45:00 AM 13.48 56.264 0.073 7.11 3.89 9.42
5/26/2021 3:00:00 AM 13.41 56.138 0.073 7.1 3.71 9.44
5/26/2021 3:15:00 AM 13.34 56.012 0.072 7.1 3.82 9.45
5/26/2021 3:30:00 AM 13.28 55.904 0.072 7.1 3.79 9.46
5/26/2021 3:45:00 AM 13.21 55.778 0.072 7.11 3.57 9.48
5/26/2021 4:00:00 AM 13.15 55.67 0.072 7.1 3.64 9.5
5/26/2021 4:15:00 AM 13.09 55.562 0.072 7.1 3.87 9.51
5/26/2021 4:30:00 AM 13.03 55.454 0.072 7.1 3.55 9.52
5/26/2021 4:45:00 AM 12.98 55.364 0.072 7.09 3.84 9.54
5/26/2021 5:00:00 AM 12.91 55.238 0.072 7.1 4.03 9.55
5/26/2021 5:15:00 AM 12.85 55.13 0.072 7.1 3.93 9.56
5/26/2021 5:30:00 AM 12.79 55.022 0.072 7.1 3.56 9.58
5/26/2021 5:45:00 AM 12.74 54.932 0.072 7.1 3.45 9.6
5/26/2021 6:00:00 AM 12.69 54.842 0.073 7.1 4.09 9.62
5/26/2021 6:15:00 AM 12.65 54.77 0.073 7.1 3.6 9.64
5/26/2021 6:30:00 AM 12.62 54.716 0.073 7.1 3.81 9.67
5/26/2021 6:45:00 AM 12.6 54.68 0.072 7.11 3.64 9.71
5/26/2021 7:00:00 AM 12.58 54.644 0.072 7.12 3.46 9.74
5/26/2021 7:15:00 AM 12.57 54.626 0.072 7.14 3.45 9.79
5/26/2021 7:30:00 AM 12.55 54.59 0.072 7.15 3.52 9.81
5/26/2021 7:45:00 AM 12.56 54.608 0.072 7.17 3.37 9.87
5/26/2021 8:00:00 AM 12.58 54.644 0.072 7.18 3.36 9.91
5/26/2021 8:15:00 AM 12.65 54.77 0.072 7.2 3.35 9.96
5/26/2021 8:30:00 AM 12.69 54.842 0.072 7.22 3.37 9.99
5/26/2021 8:45:00 AM 12.72 54.896 0.072 7.24 3.44 10
5/26/2021 9:00:00 AM 12.78 55.004 0.072 7.24 3.3 10.02
5/26/2021 9:15:00 AM 12.84 55.112 0.072 7.25 3.35 10.01
5/26/2021 9:30:00 AM 12.94 55.292 0.072 7.26 3.45 10.01
5/26/2021 9:45:00 AM 13.1 55.58 0.072 7.28 3.47 10
5/26/2021 10:00:00 AM 13.26 55.868 0.071 7.29 3.37 9.99
5/26/2021 10:15:00 AM 13.46 56.228 0.071 7.3 3.36 9.97
5/26/2021 10:30:00 AM 13.65 56.57 0.071 7.31 3.43 9.95
5/26/2021 10:45:00 AM 13.88 56.984 0.071 7.32 3.19 9.92
5/26/2021 11:00:00 AM 14.11 57.398 0.071 7.33 3.26 9.88
5/26/2021 11:15:00 AM 14.37 57.866 0.071 7.34 3.26 9.85
5/26/2021 11:30:00 AM 14.6 58.28 0.071 7.35 3.4 9.81
5/26/2021 11:45:00 AM 14.69 58.442 0.071 7.35 3.63 9.75
5/26/2021 12:00:00 PM 14.89 58.802 0.071 7.35 3.2 9.71
5/26/2021 12:15:00 PM 15.15 59.27 0.071 7.36 3.43 9.66
5/26/2021 12:30:00 PM 15.48 59.864 0.071 7.36 3.57 9.62
5/26/2021 12:45:00 PM 15.75 60.35 0.07 7.37 3.41 9.56
5/26/2021 1:00:00 PM 15.76 60.368 0.071 7.35 3.23 9.41
5/26/2021 1:15:00 PM 15.99 60.782 0.07 7.34 3.57 9.38
5/26/2021 1:30:00 PM 16.28 61.304 0.07 7.35 3.63 9.38
5/26/2021 1:45:00 PM 16.32 61.376 0.07 7.35 3.48 9.32
5/26/2021 2:00:00 PM 16.6 61.88 0.07 7.35 3.36 9.3
5/26/2021 2:15:00 PM 16.83 62.294 0.07 7.34 3.61 9.23
5/26/2021 2:30:00 PM 16.95 62.51 0.071 7.34 3.71 9.19
5/26/2021 2:45:00 PM 17.1 62.78 0.07 7.34 3.71 9.15
5/26/2021 3:00:00 PM 17.23 63.014 0.07 7.34 3.53 9.12
5/26/2021 3:15:00 PM 17.35 63.23 0.07 7.34 3.5 9.1
5/26/2021 3:30:00 PM 17.44 63.392 0.07 7.34 3.38 9.04
5/26/2021 3:45:00 PM 17.45 63.41 0.07 7.34 3.75 8.98
5/26/2021 4:00:00 PM 17.4 63.32 0.07 7.32 3.48 8.95
5/26/2021 4:15:00 PM 17.26 63.068 0.07 7.29 3.47 8.92
5/26/2021 4:30:00 PM 17.12 62.816 0.071 7.28 3.49 8.92
5/26/2021 4:45:00 PM 17.02 62.636 0.071 7.27 3.85 8.88
5/26/2021 5:00:00 PM 16.94 62.492 0.071 7.26 3.66 8.84
5/26/2021 5:15:00 PM 16.86 62.348 0.071 7.24 3.59 8.85
5/26/2021 5:30:00 PM 16.8 62.24 0.071 7.25 4.33 8.92
5/26/2021 5:45:00 PM 16.75 62.15 0.071 7.26 3.73 8.98
5/26/2021 6:00:00 PM 16.7 62.06 0.071 7.26 3.44 8.97
5/26/2021 6:15:00 PM 16.67 62.006 0.071 7.27 3.47 8.96
5/26/2021 6:30:00 PM 16.65 61.97 0.071 7.25 3.58 8.95
5/26/2021 6:45:00 PM 16.58 61.844 0.071 7.24 3.38 8.91
5/26/2021 7:00:00 PM 16.5 61.7 0.071 7.22 3.63 8.88
5/26/2021 7:15:00 PM 16.41 61.538 0.072 7.2 3.62 8.85
5/26/2021 7:30:00 PM 16.31 61.358 0.072 7.19 3.55 8.83
5/26/2021 7:45:00 PM 16.21 61.178 0.072 7.18 3.52 8.82
5/26/2021 8:00:00 PM 16.12 61.016 0.072 7.16 3.74 8.82
5/26/2021 8:15:00 PM 16.02 60.836 0.072 7.16 3.44 8.83
5/26/2021 8:30:00 PM 15.93 60.674 0.072 7.14 4.74 8.84
5/26/2021 8:45:00 PM 15.83 60.494 0.072 7.14 4.55 8.85
5/26/2021 9:00:00 PM 15.73 60.314 0.072 7.13 4.66 8.86
5/26/2021 9:15:00 PM 15.63 60.134 0.072 7.13 6.59 8.87
5/26/2021 9:30:00 PM 15.52 59.936 0.072 7.13 4.38 8.89
5/26/2021 9:45:00 PM 15.4 59.72 0.072 7.13 5.31 8.92
5/26/2021 10:00:00 PM 15.28 59.504 0.073 7.13 4.56 8.95
5/26/2021 10:15:00 PM 15.16 59.288 0.073 7.13 4.08 8.97
5/26/2021 10:30:00 PM 15.05 59.09 0.073 7.13 3.81 9
5/26/2021 10:45:00 PM 14.93 58.874 0.073 7.13 3.78 9.03
5/26/2021 11:00:00 PM 14.82 58.676 0.073 7.13 3.7 9.06
5/26/2021 11:15:00 PM 14.7 58.46 0.073 7.13 3.79 9.08
5/26/2021 11:30:00 PM 14.58 58.244 0.073 7.13 3.65 9.11
5/26/2021 11:45:00 PM 14.47 58.046 0.073 7.13 3.63 9.13
5/27/2021 12:00:00 AM 14.36 57.848 0.073 7.13 3.63 9.16
5/27/2021 12:15:00 AM 14.26 57.668 0.073 7.14 3.48 9.19
5/27/2021 12:30:00 AM 14.17 57.506 0.073 7.14 3.53 9.21
5/27/2021 12:45:00 AM 14.09 57.362 0.073 7.13 3.63 9.24
5/27/2021 1:00:00 AM 14.02 57.236 0.073 7.13 3.48 9.25
5/27/2021 1:15:00 AM 13.94 57.092 0.073 7.13 3.71 9.27
5/27/2021 1:30:00 AM 13.85 56.93 0.073 7.14 3.67 9.29
5/27/2021 1:45:00 AM 13.77 56.786 0.073 7.14 3.63 9.31
5/27/2021 2:00:00 AM 13.67 56.606 0.073 7.14 3.47 9.33
5/27/2021 2:15:00 AM 13.59 56.462 0.073 7.13 3.54 9.36
5/27/2021 2:30:00 AM 13.5 56.3 0.073 7.14 3.44 9.38
5/27/2021 2:45:00 AM 13.42 56.156 0.073 7.14 3.47 9.4
5/27/2021 3:00:00 AM 13.35 56.03 0.073 7.14 3.56 9.42
5/27/2021 3:15:00 AM 13.27 55.886 0.073 7.13 3.92 9.43
5/27/2021 3:30:00 AM 13.19 55.742 0.073 7.13 4.01 9.45
5/27/2021 3:45:00 AM 13.11 55.598 0.074 7.13 3.63 9.47
5/27/2021 4:00:00 AM 13.02 55.436 0.073 7.14 3.71 9.49
5/27/2021 4:15:00 AM 12.93 55.274 0.074 7.13 3.49 9.51
5/27/2021 4:30:00 AM 12.85 55.13 0.073 7.13 3.52 9.53
5/27/2021 4:45:00 AM 12.76 54.968 0.073 7.13 3.38 9.55
5/27/2021 5:00:00 AM 12.68 54.824 0.073 7.13 3.59 9.57
5/27/2021 5:15:00 AM 12.6 54.68 0.073 7.13 3.46 9.59
5/27/2021 5:30:00 AM 12.52 54.536 0.074 7.12 3.68 9.61
5/27/2021 5:45:00 AM 12.43 54.374 0.073 7.13 3.49 9.64
5/27/2021 6:00:00 AM 12.35 54.23 0.073 7.13 3.35 9.66
5/27/2021 6:15:00 AM 12.28 54.104 0.073 7.14 3.45 9.7
5/27/2021 6:30:00 AM 12.21 53.978 0.074 7.14 3.3 9.73
5/27/2021 6:45:00 AM 12.15 53.87 0.073 7.15 3.53 9.77
5/27/2021 7:00:00 AM 12.08 53.744 0.073 7.15 3.65 9.8
5/27/2021 7:15:00 AM 12.04 53.672 0.073 7.16 3.35 9.84
5/27/2021 7:30:00 AM 12.02 53.636 0.073 7.17 3.36 9.87
5/27/2021 7:45:00 AM 12.01 53.618 0.073 7.19 3.5 9.91
5/27/2021 8:00:00 AM 12.02 53.636 0.073 7.19 3.22 9.95
5/27/2021 8:15:00 AM 12.04 53.672 0.073 7.2 2.9 9.97
5/27/2021 8:30:00 AM 12.06 53.708 0.073 7.23 2.92 10
5/27/2021 8:45:00 AM 12.09 53.762 0.073 7.24 2.81 10.02
5/27/2021 9:00:00 AM 12.13 53.834 0.073 7.25 2.82 10.04
5/27/2021 9:15:00 AM 12.17 53.906 0.073 7.26 2.77 10.06
5/27/2021 9:30:00 AM 12.24 54.032 0.073 7.27 2.96 10.07
5/27/2021 9:45:00 AM 12.32 54.176 0.073 7.28 2.77 10.08
5/27/2021 10:00:00 AM 12.43 54.374 0.073 7.28 2.69 10.08
5/27/2021 10:15:00 AM 12.58 54.644 0.072 7.3 2.75 10.08
5/27/2021 10:30:00 AM 12.74 54.932 0.073 7.3 2.75 10.07
5/27/2021 10:45:00 AM 12.9 55.22 0.072 7.31 3.2 10.05
5/27/2021 11:00:00 AM 13.09 55.562 0.072 7.31 2.63 10.03
5/27/2021 11:15:00 AM 13.28 55.904 0.072 7.32 2.77 10.01
5/27/2021 11:30:00 AM 13.47 56.246 0.072 7.33 3.08 9.97
5/27/2021 11:45:00 AM 13.67 56.606 0.072 7.33 2.56 9.94
5/27/2021 12:00:00 PM 13.87 56.966 0.072 7.34 2.88 9.9
5/27/2021 12:15:00 PM 14.1 57.38 0.072 7.34 2.95 9.85
5/27/2021 12:30:00 PM 14.33 57.794 0.072 7.35 2.67 9.8
5/27/2021 12:45:00 PM 14.58 58.244 0.072 7.35 2.9 9.74
5/27/2021 1:00:00 PM 14.84 58.712 0.072 7.36 2.85 9.68
5/27/2021 1:15:00 PM 15.07 59.126 0.072 7.36 2.67 9.63
5/27/2021 1:30:00 PM 15.29 59.522 0.072 7.36 4.15 9.57
5/27/2021 1:45:00 PM 15.48 59.864 0.072 7.36 2.77 9.53
5/27/2021 2:00:00 PM 15.6 60.08 0.072 7.36 2.82 9.49
5/27/2021 2:15:00 PM 15.69 60.242 0.072 7.36 3.1 9.46
5/27/2021 2:30:00 PM 15.82 60.476 0.071 7.38 2.84 9.45
5/27/2021 2:45:00 PM 15.91 60.638 0.071 7.39 2.79 9.44
5/27/2021 3:00:00 PM 15.92 60.656 0.071 7.38 2.8 9.41
5/27/2021 3:15:00 PM 15.92 60.656 0.072 7.39 2.72 9.41
5/27/2021 3:30:00 PM 15.93 60.674 0.071 7.38 3.01 9.36
5/27/2021 3:45:00 PM 15.9 60.62 0.071 7.38 2.92 9.31
5/27/2021 4:00:00 PM 15.87 60.566 0.071 7.35 2.91 9.27
5/27/2021 4:15:00 PM 15.91 60.638 0.071 7.34 2.86 9.25
5/27/2021 4:30:00 PM 15.97 60.746 0.071 7.35 2.79 9.25
5/27/2021 4:45:00 PM 16.03 60.854 0.071 7.35 2.9 9.25
5/27/2021 5:00:00 PM 16.06 60.908 0.071 7.35 2.72 9.25
5/27/2021 5:15:00 PM 16 60.8 0.072 7.35 2.88 9.22
5/27/2021 5:30:00 PM 15.91 60.638 0.072 7.34 2.89 9.22
5/27/2021 5:45:00 PM 15.81 60.458 0.072 7.33 2.9 9.21
5/27/2021 6:00:00 PM 15.72 60.296 0.072 7.31 2.72 9.2
5/27/2021 6:15:00 PM 15.63 60.134 0.072 7.3 2.95 9.18
5/27/2021 6:30:00 PM 15.55 59.99 0.072 7.28 3.07 9.16
5/27/2021 6:45:00 PM 15.45 59.81 0.072 7.27 2.95 9.15
5/27/2021 7:00:00 PM 15.35 59.63 0.072 7.27 3.54 9.17
5/27/2021 7:15:00 PM 15.25 59.45 0.072 7.26 3.35 9.18
5/27/2021 7:30:00 PM 15.15 59.27 0.072 7.25 3.01 9.17
5/27/2021 7:45:00 PM 15.04 59.072 0.072 7.25 2.93 9.17
5/27/2021 8:00:00 PM 14.93 58.874 0.072 7.23 2.81 9.17
5/27/2021 8:15:00 PM 14.8 58.64 0.072 7.23 3.14 9.17
5/27/2021 8:30:00 PM 14.67 58.406 0.073 7.22 3.05 9.17
5/27/2021 8:45:00 PM 14.53 58.154 0.073 7.22 3.07 9.18
5/27/2021 9:00:00 PM 14.39 57.902 0.073 7.21 3.04 9.19
5/27/2021 9:15:00 PM 14.24 57.632 0.073 7.2 3.07 9.22
5/27/2021 9:30:00 PM 14.1 57.38 0.073 7.2 3.66 9.24
5/27/2021 9:45:00 PM 13.96 57.128 0.073 7.19 3.32 9.27
5/27/2021 10:00:00 PM 13.83 56.894 0.073 7.18 3.23 9.3
5/27/2021 10:15:00 PM 13.7 56.66 0.073 7.18 3.49 9.33
5/27/2021 10:30:00 PM 13.56 56.408 0.073 7.18 3.21 9.36
5/27/2021 10:45:00 PM 13.44 56.192 0.074 7.18 3.38 9.4
5/27/2021 11:00:00 PM 13.31 55.958 0.074 7.18 3.38 9.42
5/27/2021 11:15:00 PM 13.19 55.742 0.074 7.18 3.31 9.45
5/27/2021 11:30:00 PM 13.06 55.508 0.074 7.18 3.33 9.48
5/27/2021 11:45:00 PM 12.95 55.31 0.074 7.17 3.11 9.51
5/28/2021 12:00:00 AM 12.84 55.112 0.074 7.18 3.28 9.54
5/28/2021 12:15:00 AM 12.73 54.914 0.074 7.18 3.1 9.56
5/28/2021 12:30:00 AM 12.63 54.734 0.074 7.18 3.33 9.59
5/28/2021 12:45:00 AM 12.53 54.554 0.074 7.18 3.05 9.62
5/28/2021 1:00:00 AM 12.44 54.392 0.074 7.18 3.14 9.64
5/28/2021 1:15:00 AM 12.34 54.212 0.074 7.18 3.19 9.67
5/28/2021 1:30:00 AM 12.24 54.032 0.074 7.2 3.15 9.69
5/28/2021 1:45:00 AM 12.15 53.87 0.074 7.19 3.81 9.71
5/28/2021 2:00:00 AM 12.07 53.726 0.074 7.17 4.47 9.73
5/28/2021 2:15:00 AM 11.97 53.546 0.074 7.18 3.25 9.75
5/28/2021 2:30:00 AM 11.88 53.384 0.074 7.19 3.24 9.78
5/28/2021 2:45:00 AM 11.79 53.222 0.074 7.18 2.95 9.8
5/28/2021 3:00:00 AM 11.7 53.06 0.074 7.18 3.07 9.82
5/28/2021 3:15:00 AM 11.61 52.898 0.074 7.18 2.96 9.84
5/28/2021 3:30:00 AM 11.52 52.736 0.074 7.19 2.87 9.87
5/28/2021 3:45:00 AM 11.42 52.556 0.074 7.18 2.93 9.89
5/28/2021 4:00:00 AM 11.33 52.394 0.074 7.18 3.45 9.91
5/28/2021 4:15:00 AM 11.24 52.232 0.074 7.18 3.4 9.93
5/28/2021 4:30:00 AM 11.14 52.052 0.074 7.09 3.1 9.96
5/28/2021 4:45:00 AM 11.06 51.908 0.074 7.17 3.39 9.98
5/28/2021 5:00:00 AM 10.97 51.746 0.074 7.16 4.24 10
5/28/2021 5:15:00 AM 10.89 51.602 0.074 7.17 3.59 10.02
5/28/2021 5:30:00 AM 10.83 51.494 0.074 7.18 3.12 10.04
5/28/2021 5:45:00 AM 10.76 51.368 0.074 7.19 3.15 10.06
5/28/2021 6:00:00 AM 10.7 51.26 0.074 7.18 3.66 10.08
5/28/2021 6:15:00 AM 10.65 51.17 0.074 7.19 3.5 10.1
5/28/2021 6:30:00 AM 10.6 51.08 0.074 7.18 2.89 10.13
5/28/2021 6:45:00 AM 10.56 51.008 0.074 7.18 2.81 10.16
5/28/2021 7:00:00 AM 10.52 50.936 0.074 7.2 2.67 10.21
5/28/2021 7:15:00 AM 10.5 50.9 0.074 7.2 2.71 10.24
5/28/2021 7:30:00 AM 10.47 50.846 0.074 7.22 2.71 10.27
5/28/2021 7:45:00 AM 10.44 50.792 0.074 7.22 2.77 10.27
5/28/2021 8:00:00 AM 10.42 50.756 0.074 7.23 2.62 10.3
5/28/2021 8:15:00 AM 10.4 50.72 0.074 7.23 2.81 10.32
5/28/2021 8:30:00 AM 10.38 50.684 0.074 7.24 2.77 10.32
5/28/2021 8:45:00 AM 10.36 50.648 0.074 7.24 2.73 10.34
5/28/2021 9:00:00 AM 10.35 50.63 0.074 7.24 2.61 10.34
5/28/2021 9:15:00 AM 10.34 50.612 0.074 7.25 2.75 10.38
5/28/2021 9:30:00 AM 10.35 50.63 0.073 7.25 3.22 10.43
5/28/2021 9:45:00 AM 10.35 50.63 0.073 7.27 3.01 10.43
5/28/2021 10:00:00 AM 10.35 50.63 0.073 7.27 2.74 10.44
5/28/2021 10:15:00 AM 10.36 50.648 0.073 7.27 3.14 10.46
5/28/2021 10:30:00 AM 10.37 50.666